Provisional Data: Apalachin Creek near Apalachin, NY


Please select a monitoring station.
Please select start date.
Please select start date.

Toggle Unit: C/F Toggle Unit: C/F
Sample Time Temperature (C) Temperature (F) Specific Conductivity (mS/cm) pH   Turbidity (NTU+) DO (mg/L)
12/11/2021 12:00:00 AM 3.75 38.75 0.14 7.26 382.05 12.58
12/11/2021 12:15:00 AM 3.73 38.714 0.14 7.26 559.03 12.59
12/11/2021 12:30:00 AM 3.71 38.678 0.14 7.26 380.3 12.59
12/11/2021 12:45:00 AM 3.71 38.678 0.14 7.26 236.2 12.59
12/11/2021 1:00:00 AM 3.71 38.678 0.14 7.26 355.12 12.59
12/11/2021 1:15:00 AM 3.71 38.678 0.14 7.26 443.93 12.59
12/11/2021 1:30:00 AM 3.72 38.696 0.14 7.26 466.48 12.58
12/11/2021 1:45:00 AM 3.73 38.714 0.14 7.26 738.96 12.58
12/11/2021 2:00:00 AM 3.74 38.732 0.14 7.26 456.81 12.57
12/11/2021 2:15:00 AM 3.75 38.75 0.14 7.25 58.15 12.56
12/11/2021 2:30:00 AM 3.76 38.768 0.14 7.25 463.07 12.55
12/11/2021 2:45:00 AM 3.77 38.786 0.14 7.25 349.78 12.54
12/11/2021 3:00:00 AM 3.79 38.822 0.14 7.25 623.81 12.53
12/11/2021 3:15:00 AM 3.82 38.876 0.14 7.25 204.38 12.52
12/11/2021 3:30:00 AM 3.85 38.93 0.14 7.25 947.64 12.51
12/11/2021 3:45:00 AM 3.88 38.984 0.14 7.26 146.81 12.51
12/11/2021 4:00:00 AM 3.92 39.056 0.14 7.26 97.59 12.49
12/11/2021 4:15:00 AM 3.95 39.11 0.141 7.26 557.36 12.48
12/11/2021 4:30:00 AM 3.98 39.164 0.14 7.26 262.39 12.46
12/11/2021 4:45:00 AM 4 39.2 0.14 7.26 133.44 12.44
12/11/2021 5:00:00 AM 4.03 39.254 0.14 7.26 148.83 12.44
12/11/2021 5:15:00 AM 4.05 39.29 0.141 7.26 545.77 12.42
12/11/2021 5:30:00 AM 4.07 39.326 0.14 7.26 423.98 12.42
12/11/2021 5:45:00 AM 4.09 39.362 0.14 7.26 369.79 12.41
12/11/2021 6:00:00 AM 4.11 39.398 0.14 7.26 400.47 12.4
12/11/2021 6:15:00 AM 4.13 39.434 0.139 7.26 210.27 12.4
12/11/2021 6:30:00 AM 4.15 39.47 0.139 7.27 39.06 12.38
12/11/2021 6:45:00 AM 4.19 39.542 0.138 7.27 253.61 12.39
12/11/2021 7:00:00 AM 4.22 39.596 0.138 7.27 79.5 12.38
12/11/2021 7:15:00 AM 4.24 39.632 0.137 7.27 33.45 12.38
12/11/2021 7:30:00 AM 4.27 39.686 0.137 7.28 143.77 12.36
12/11/2021 7:45:00 AM 4.29 39.722 0.136 7.28 256.95 12.36
12/11/2021 8:00:00 AM 4.31 39.758 0.136 7.28 238.61 12.37
12/11/2021 8:15:00 AM 4.33 39.794 0.136 7.29 43.65 12.38
12/11/2021 8:30:00 AM 4.35 39.83 0.136 7.29 41.49 12.4
12/11/2021 8:45:00 AM 4.38 39.884 0.136 7.3 95.34 12.48
12/11/2021 9:00:00 AM 4.4 39.92 0.137 7.31 153.06 12.51
12/11/2021 9:15:00 AM 4.44 39.992 0.139 7.32 44.58 12.58
12/11/2021 9:30:00 AM 4.5 40.1 0.142 7.33 65.59 12.62
12/11/2021 9:45:00 AM 4.54 40.172 0.144 7.35 56.99 12.73
12/11/2021 10:00:00 AM 4.59 40.262 0.145 7.37 380.85 12.81
12/11/2021 10:15:00 AM 4.65 40.37 0.144 7.41 80.04 12.9
12/11/2021 10:30:00 AM 4.7 40.46 0.141 7.45 34.13 12.95
12/11/2021 10:45:00 AM 4.72 40.496 0.141 7.48 175.33 12.92
12/11/2021 11:00:00 AM 4.75 40.55 0.146 7.49 297.65 12.81
12/11/2021 11:15:00 AM 4.77 40.586 0.148 7.49 189 12.67
12/11/2021 11:30:00 AM 4.82 40.676 0.149 7.48 250.45 12.6
12/11/2021 11:45:00 AM 4.86 40.748 0.148 7.49 276.4 12.59
12/11/2021 12:00:00 PM 4.92 40.856 0.145 7.49 123.16 12.57
12/11/2021 12:15:00 PM 4.97 40.946 0.142 7.48 68.16 12.54
12/11/2021 12:30:00 PM 5.02 41.036 0.138 7.47 143.14 12.51
12/11/2021 12:45:00 PM 5.08 41.144 0.136 7.47 79.41 12.48
12/11/2021 1:00:00 PM 5.13 41.234 0.134 7.46 78.12 12.44
12/11/2021 1:15:00 PM 5.16 41.288 0.134 7.45 85.74 12.42
12/11/2021 1:30:00 PM 5.22 41.396 0.135 7.45 86.08 12.4
12/11/2021 1:45:00 PM 5.3 41.54 0.136 7.45 82 12.38
12/11/2021 2:00:00 PM 5.36 41.648 0.136 7.44 78.69 12.35
12/11/2021 2:15:00 PM 5.43 41.774 0.135 7.43 77.95 12.31
12/11/2021 2:30:00 PM 5.5 41.9 0.134 7.43 84.77 12.28
12/11/2021 2:45:00 PM 5.56 42.008 0.133 7.42 76.41 12.25
12/11/2021 3:00:00 PM 5.6 42.08 0.131 7.42 51.44 12.21
12/11/2021 3:15:00 PM 5.66 42.188 0.13 7.41 64.25 12.18
12/11/2021 3:30:00 PM 5.7 42.26 0.128 7.41 58.35 12.16
12/11/2021 3:45:00 PM 5.74 42.332 0.127 7.4 53.23 12.13
12/11/2021 4:00:00 PM 5.79 42.422 0.126 7.4 85.37 12.11
12/11/2021 4:15:00 PM 5.82 42.476 0.126 7.39 98.26 12.08
12/11/2021 4:30:00 PM 5.86 42.548 0.125 7.39 42.87 12.04
12/11/2021 4:45:00 PM 5.9 42.62 0.125 7.38 92.32 12
12/11/2021 5:00:00 PM 5.95 42.71 0.125 7.37 443.87 11.97
12/11/2021 5:15:00 PM 5.99 42.782 0.125 7.37 179.33 11.94
12/11/2021 5:30:00 PM 6.04 42.872 0.125 7.36 307.44 11.91
12/11/2021 5:45:00 PM 6.06 42.908 0.125 7.36 331.92 11.88
12/11/2021 6:00:00 PM 6.09 42.962 0.125 7.35 247.36 11.86
12/11/2021 6:15:00 PM 6.13 43.034 0.124 7.35 229.54 11.84
12/11/2021 6:30:00 PM 6.18 43.124 0.124 7.35 205.81 11.82
12/11/2021 6:45:00 PM 6.22 43.196 0.124 7.35 197.3 11.81
12/11/2021 7:00:00 PM 6.3 43.34 0.123 7.34 182.72 11.79
12/11/2021 7:15:00 PM 6.33 43.394 0.123 7.34 155.65 11.78
12/11/2021 7:30:00 PM 6.34 43.412 0.123 7.34 133.54 11.77
12/11/2021 7:45:00 PM 6.35 43.43 0.123 7.34 111.67 11.76
12/11/2021 8:00:00 PM 6.33 43.394 0.122 7.34 98.94 11.76
12/11/2021 8:15:00 PM 6.31 43.358 0.122 7.34 89.9 11.76
12/11/2021 8:30:00 PM 6.26 43.268 0.122 7.34 75.96 11.77
12/11/2021 8:45:00 PM 6.22 43.196 0.122 7.34 66.48 11.78
12/11/2021 9:00:00 PM 6.18 43.124 0.121 7.34 52.83 11.8
12/11/2021 9:15:00 PM 6.12 43.016 0.121 7.34 29.08 11.81
12/11/2021 9:30:00 PM 6.04 42.872 0.121 7.34 31.17 11.84
12/11/2021 9:45:00 PM 5.99 42.782 0.121 7.34 30.03 11.86
12/11/2021 10:00:00 PM 5.91 42.638 0.121 7.34 29.2 11.88
12/11/2021 10:15:00 PM 5.84 42.512 0.121 7.34 28.04 11.91
12/11/2021 10:30:00 PM 5.78 42.404 0.122 7.34 29.93 11.93
12/11/2021 10:45:00 PM 5.72 42.296 0.122 7.34 27.86 11.96
12/11/2021 11:00:00 PM 5.66 42.188 0.122 7.34 29.13 11.99
12/11/2021 11:15:00 PM 5.61 42.098 0.122 7.34 26.53 12.01
12/11/2021 11:30:00 PM 5.56 42.008 0.122 7.34 29.05 12.04
12/11/2021 11:45:00 PM 5.5 41.9 0.122 7.35 29.46 12.06
12/12/2021 12:00:00 AM 5.45 41.81 0.122 7.34 31.15 12.08
12/12/2021 12:15:00 AM 5.4 41.72 0.122 7.34 29.24 12.09
12/12/2021 12:30:00 AM 5.35 41.63 0.122 7.34 29.62 12.11
12/12/2021 12:45:00 AM 5.3 41.54 0.122 7.34 26.79 12.14
12/12/2021 1:00:00 AM 5.24 41.432 0.122 7.34 26.99 12.15
12/12/2021 1:15:00 AM 5.17 41.306 0.122 7.34 27.34 12.18
12/12/2021 1:30:00 AM 5.12 41.216 0.122 7.34 24.94 12.2
12/12/2021 1:45:00 AM 5.07 41.126 0.122 7.34 25.69 12.22
12/12/2021 2:00:00 AM 5.02 41.036 0.122 7.33 24.27 12.24
12/12/2021 2:15:00 AM 4.97 40.946 0.122 7.33 23.93 12.26
12/12/2021 2:30:00 AM 4.94 40.892 0.122 7.33 22.7 12.27
12/12/2021 2:45:00 AM 4.91 40.838 0.123 7.33 23.27 12.29
12/12/2021 3:00:00 AM 4.87 40.766 0.123 7.33 23.24 12.31
12/12/2021 3:15:00 AM 4.83 40.694 0.123 7.33 24.36 12.33
12/12/2021 3:30:00 AM 4.79 40.622 0.123 7.33 23.33 12.34
12/12/2021 3:45:00 AM 4.74 40.532 0.123 7.32 22.27 12.36
12/12/2021 4:00:00 AM 4.68 40.424 0.123 7.32 21.55 12.38
12/12/2021 4:15:00 AM 4.63 40.334 0.123 7.32 21.4 12.4
12/12/2021 4:30:00 AM 4.58 40.244 0.123 7.32 21.65 12.42
12/12/2021 4:45:00 AM 4.53 40.154 0.122 7.32 21.43 12.44
12/12/2021 5:00:00 AM 4.48 40.064 0.122 7.31 20.77 12.45
12/12/2021 5:15:00 AM 4.43 39.974 0.122 7.31 21.28 12.46
12/12/2021 5:30:00 AM 4.39 39.902 0.122 7.31 19.88 12.48
12/12/2021 5:45:00 AM 4.34 39.812 0.122 7.31 19.81 12.5
12/12/2021 6:00:00 AM 4.29 39.722 0.122 7.31 20.16 12.52
12/12/2021 6:15:00 AM 4.25 39.65 0.123 7.31 19.98 12.53
12/12/2021 6:30:00 AM 4.2 39.56 0.122 7.31 19.15 12.56
12/12/2021 6:45:00 AM 4.15 39.47 0.123 7.3 19.26 12.57
12/12/2021 7:00:00 AM 4.11 39.398 0.122 7.3 19.26 12.59
12/12/2021 7:15:00 AM 4.06 39.308 0.123 7.3 19.28 12.6
12/12/2021 7:30:00 AM 4.02 39.236 0.123 7.3 19.42 12.63
12/12/2021 7:45:00 AM 3.98 39.164 0.122 7.3 18.79 12.67
12/12/2021 8:00:00 AM 3.94 39.092 0.123 7.31 18.78 12.72
12/12/2021 8:15:00 AM 3.91 39.038 0.123 7.31 18.8 12.78
12/12/2021 8:30:00 AM 3.9 39.02 0.122 7.32 17.68 12.85
12/12/2021 8:45:00 AM 3.9 39.02 0.123 7.34 18.82 12.93
12/12/2021 9:00:00 AM 3.89 39.002 0.122 7.35 17.99 13
12/12/2021 9:15:00 AM 3.9 39.02 0.122 7.36 18.31 13.07
12/12/2021 9:30:00 AM 3.92 39.056 0.122 7.38 17.79 13.13
12/12/2021 9:45:00 AM 3.94 39.092 0.122 7.39 17.93 13.2
12/12/2021 10:00:00 AM 3.98 39.164 0.122 7.4 17.09 13.24
12/12/2021 10:15:00 AM 4.02 39.236 0.122 7.41 17.82 13.28
12/12/2021 10:30:00 AM 4.08 39.344 0.122 7.42 18.25 13.33
12/12/2021 10:45:00 AM 4.14 39.452 0.122 7.43 17.32 13.36
12/12/2021 11:00:00 AM 4.21 39.578 0.122 7.44 17.48 13.39
12/12/2021 11:15:00 AM 4.28 39.704 0.122 7.46 17.15 13.4
12/12/2021 11:30:00 AM 4.36 39.848 0.122 7.47 17.72 13.42
12/12/2021 11:45:00 AM 4.44 39.992 0.122 7.47 16.68 13.42
12/12/2021 12:00:00 PM 4.54 40.172 0.122 7.48 17.13 13.41
12/12/2021 12:15:00 PM 4.64 40.352 0.122 7.49 16.79 13.4
12/12/2021 12:30:00 PM 4.75 40.55 0.122 7.5 16.91 13.39
12/12/2021 12:45:00 PM 4.85 40.73 0.122 7.51 17.19 13.37
12/12/2021 1:00:00 PM 4.95 40.91 0.122 7.52 16.74 13.34
12/12/2021 1:15:00 PM 5.04 41.072 0.122 7.52 17.77 13.32
12/12/2021 1:30:00 PM 5.12 41.216 0.122 7.53 17.6 13.3
12/12/2021 1:45:00 PM 5.17 41.306 0.122 7.53 17.8 13.28
12/12/2021 2:00:00 PM 5.22 41.396 0.122 7.53 15.48 13.26
12/12/2021 2:15:00 PM 5.24 41.432 0.122 7.53 14.62 13.24
12/12/2021 2:30:00 PM 5.24 41.432 0.122 7.53 14.92 13.22
12/12/2021 2:45:00 PM 5.21 41.378 0.122 7.52 14.7 13.19
12/12/2021 3:00:00 PM 5.18 41.324 0.122 7.52 14.11 13.16
12/12/2021 3:15:00 PM 5.12 41.216 0.122 7.51 14.11 13.13
12/12/2021 3:30:00 PM 5.05 41.09 0.122 7.5 14.2 13.08
12/12/2021 3:45:00 PM 4.98 40.964 0.122 7.48 14.95 13.03
12/12/2021 4:00:00 PM 4.9 40.82 0.122 7.46 15.2 12.99
12/12/2021 4:15:00 PM 4.83 40.694 0.123 7.44 15.02 12.93
12/12/2021 4:30:00 PM 4.76 40.568 0.123 7.42 14.65 12.87
12/12/2021 4:45:00 PM 4.7 40.46 0.123 7.4 13.24 12.8
12/12/2021 5:00:00 PM 4.63 40.334 0.123 7.38 13.67 12.75
12/12/2021 5:15:00 PM 4.56 40.208 0.123 7.36 12.48 12.69
12/12/2021 5:30:00 PM 4.5 40.1 0.123 7.34 12.11 12.66
12/12/2021 5:45:00 PM 4.44 39.992 0.123 7.33 11.79 12.64
12/12/2021 6:00:00 PM 4.37 39.866 0.123 7.32 11.56 12.62
12/12/2021 6:15:00 PM 4.32 39.776 0.124 7.31 12.47 12.63
12/12/2021 6:30:00 PM 4.26 39.668 0.124 7.31 11.74 12.62
12/12/2021 6:45:00 PM 4.19 39.542 0.124 7.3 11.83 12.64
12/12/2021 7:00:00 PM 4.14 39.452 0.124 7.29 11.45 12.64
12/12/2021 7:15:00 PM 4.08 39.344 0.124 7.29 11.97 12.65
12/12/2021 7:30:00 PM 4.03 39.254 0.124 7.29 11.25 12.66
12/12/2021 7:45:00 PM 3.98 39.164 0.124 7.29 11.82 12.68
12/12/2021 8:00:00 PM 3.92 39.056 0.124 7.29 11.61 12.69
12/12/2021 8:15:00 PM 3.88 38.984 0.124 7.29 11.44 12.71
12/12/2021 8:30:00 PM 3.83 38.894 0.125 7.28 11.57 12.71
12/12/2021 8:45:00 PM 3.78 38.804 0.125 7.28 11.56 12.73
12/12/2021 9:00:00 PM 3.74 38.732 0.125 7.28 11.71 12.75
12/12/2021 9:15:00 PM 3.69 38.642 0.125 7.28 11.16 12.76
12/12/2021 9:30:00 PM 3.64 38.552 0.125 7.28 12.03 12.78
12/12/2021 9:45:00 PM 3.59 38.462 0.125 7.28 11.35 12.8
12/12/2021 10:00:00 PM 3.55 38.39 0.125 7.28 11.39 12.82
12/12/2021 10:15:00 PM 3.5 38.3 0.125 7.28 11.58 12.83
12/12/2021 10:30:00 PM 3.45 38.21 0.125 7.27 11.12 12.85
12/12/2021 10:45:00 PM 3.41 38.138 0.125 7.27 11.22 12.86
12/12/2021 11:00:00 PM 3.37 38.066 0.125 7.27 11.47 12.88
12/12/2021 11:15:00 PM 3.32 37.976 0.125 7.27 11.45 12.9
12/12/2021 11:30:00 PM 3.29 37.922 0.125 7.26 11.34 12.9
12/12/2021 11:45:00 PM 3.25 37.85 0.125 7.25 11.17 12.92
12/13/2021 12:00:00 AM 3.21 37.778 0.125 7.24 11.53 12.94
12/13/2021 12:15:00 AM 3.18 37.724 0.125 7.24 11.6 12.94
12/13/2021 12:30:00 AM 3.15 37.67 0.125 7.24 11.43 12.96
12/13/2021 12:45:00 AM 3.12 37.616 0.125 7.23 11.42 12.97
12/13/2021 1:00:00 AM 3.09 37.562 0.126 7.23 11.56 12.98
12/13/2021 1:15:00 AM 3.06 37.508 0.126 7.22 11.68 12.98
12/13/2021 1:30:00 AM 3.04 37.472 0.126 7.23 11.59 13
12/13/2021 1:45:00 AM 3.03 37.454 0.126 7.23 11.45 13.01
12/13/2021 2:00:00 AM 3.04 37.472 0.126 7.23 11.54 13.02
12/13/2021 2:15:00 AM 3.04 37.472 0.126 7.24 11.72 13.02
12/13/2021 2:30:00 AM 3.04 37.472 0.126 7.24 11.59 13.03
12/13/2021 2:45:00 AM 3.04 37.472 0.126 7.25 11.22 13.03
12/13/2021 3:00:00 AM 3.03 37.454 0.126 7.25 11.1 13.04
12/13/2021 3:15:00 AM 3.03 37.454 0.126 7.25 11.47 13.03
12/13/2021 3:30:00 AM 3.03 37.454 0.126 7.25 11.17 13.03
12/13/2021 3:45:00 AM 3.03 37.454 0.126 7.26 10.68 13.04
12/13/2021 4:00:00 AM 3.03 37.454 0.126 7.26 10.97 13.04
12/13/2021 4:15:00 AM 3.04 37.472 0.126 7.26 11.45 13.03
12/13/2021 4:30:00 AM 3.05 37.49 0.126 7.26 10.91 13.03
12/13/2021 4:45:00 AM 3.06 37.508 0.126 7.26 10.95 13.03
12/13/2021 5:00:00 AM 3.07 37.526 0.126 7.26 11.01 13.02
12/13/2021 5:15:00 AM 3.08 37.544 0.126 7.26 11.22 13.02
12/13/2021 5:30:00 AM 3.09 37.562 0.126 7.26 10.88 13.02
12/13/2021 5:45:00 AM 3.11 37.598 0.126 7.27 10.82 13.01
12/13/2021 6:00:00 AM 3.12 37.616 0.126 7.27 10.71 13.01
12/13/2021 6:15:00 AM 3.13 37.634 0.126 7.27 10.93 13
12/13/2021 6:30:00 AM 3.15 37.67 0.126 7.27 11.14 13
12/13/2021 6:45:00 AM 3.16 37.688 0.127 7.27 10.63 12.99
12/13/2021 7:00:00 AM 3.17 37.706 0.127 7.27 10.84 12.99
12/13/2021 7:15:00 AM 3.19 37.742 0.127 7.27 10.77 12.98
12/13/2021 7:30:00 AM 3.2 37.76 0.127 7.28 10.69 12.98
12/13/2021 7:45:00 AM 3.21 37.778 0.127 7.28 10.66 12.99
12/13/2021 8:00:00 AM 3.23 37.814 0.127 7.28 10.71 13.01
12/13/2021 8:15:00 AM 3.24 37.832 0.127 7.29 10.68 13.04
12/13/2021 8:30:00 AM 3.26 37.868 0.127 7.3 10.85 13.11
12/13/2021 8:45:00 AM 3.28 37.904 0.127 7.31 11.12 13.21
12/13/2021 9:00:00 AM 3.33 37.994 0.127 7.33 10.5 13.34
12/13/2021 9:15:00 AM 3.37 38.066 0.126 7.36 10.82 13.45
12/13/2021 9:30:00 AM 3.44 38.192 0.126 7.38 10.56 13.56
12/13/2021 9:45:00 AM 3.49 38.282 0.126 7.4 10.52 13.62
12/13/2021 10:00:00 AM 3.55 38.39 0.126 7.42 10.34 13.65
12/13/2021 10:15:00 AM 3.62 38.516 0.126 7.43 10.57 13.7
12/13/2021 10:30:00 AM 3.69 38.642 0.126 7.44 10.42 13.71
12/13/2021 10:45:00 AM 3.76 38.768 0.126 7.45 10.59 13.72
12/13/2021 11:00:00 AM 3.83 38.894 0.126 7.47 10.39 13.73
12/13/2021 11:15:00 AM 3.91 39.038 0.126 7.48 9.8 13.73
12/13/2021 11:30:00 AM 4 39.2 0.126 7.49 10.36 13.73
12/13/2021 11:45:00 AM 4.09 39.362 0.126 7.49 10.72 13.72
12/13/2021 12:00:00 PM 4.2 39.56 0.126 7.5 10.35 13.7
12/13/2021 12:15:00 PM 4.31 39.758 0.126 7.51 10.16 13.68
12/13/2021 12:30:00 PM 4.43 39.974 0.125 7.52 10.22 13.65
12/13/2021 12:45:00 PM 4.56 40.208 0.125 7.52 9.91 13.64
12/13/2021 1:00:00 PM 4.68 40.424 0.125 7.53 10.28 13.6
12/13/2021 1:15:00 PM 4.8 40.64 0.125 7.54 10.22 13.56
12/13/2021 1:30:00 PM 4.9 40.82 0.125 7.54 10.27 13.52
12/13/2021 1:45:00 PM 4.98 40.964 0.125 7.54 10.21 13.47
12/13/2021 2:00:00 PM 5.06 41.108 0.125 7.54 10.39 13.43
12/13/2021 2:15:00 PM 5.12 41.216 0.125 7.55 10.24 13.4
12/13/2021 2:30:00 PM 5.16 41.288 0.125 7.55 10.84 13.36
12/13/2021 2:45:00 PM 5.17 41.306 0.125 7.55 10.45 13.33
12/13/2021 3:00:00 PM 5.16 41.288 0.125 7.54 10.52 13.29
12/13/2021 3:15:00 PM 5.12 41.216 0.125 7.53 10.38 13.26
12/13/2021 3:30:00 PM 5.07 41.126 0.125 7.52 10.29 13.2
12/13/2021 3:45:00 PM 5.01 41.018 0.126 7.5 10.48 13.15
12/13/2021 4:00:00 PM 4.94 40.892 0.126 7.48 10.25 13.1
12/13/2021 4:15:00 PM 4.87 40.766 0.126 7.46 10.3 13.04
12/13/2021 4:30:00 PM 4.79 40.622 0.126 7.44 10.47 12.97
12/13/2021 4:45:00 PM 4.72 40.496 0.126 7.42 10.52 12.89
12/13/2021 5:00:00 PM 4.64 40.352 0.126 7.4 10.5 12.82
12/13/2021 5:15:00 PM 4.57 40.226 0.126 7.37 10.52 12.74
12/13/2021 5:30:00 PM 4.5 40.1 0.126 7.36 10.35 12.69
12/13/2021 5:45:00 PM 4.44 39.992 0.126 7.34 10.64 12.66
12/13/2021 6:00:00 PM 4.38 39.884 0.126 7.33 10.49 12.64
12/13/2021 6:15:00 PM 4.33 39.794 0.127 7.32 10.67 12.62
12/13/2021 6:30:00 PM 4.27 39.686 0.127 7.31 10.93 12.62
12/13/2021 6:45:00 PM 4.22 39.596 0.127 7.31 10.64 12.62
12/13/2021 7:00:00 PM 4.16 39.488 0.127 7.3 10.6 12.63
12/13/2021 7:15:00 PM 4.11 39.398 0.127 7.29 10.79 12.63
12/13/2021 7:30:00 PM 4.06 39.308 0.127 7.29 10.73 12.64
12/13/2021 7:45:00 PM 4 39.2 0.127 7.29 10.8 12.66
12/13/2021 8:00:00 PM 3.95 39.11 0.127 7.29 10.58 12.66
12/13/2021 8:15:00 PM 3.91 39.038 0.127 7.28 10.76 12.68
12/13/2021 8:30:00 PM 3.87 38.966 0.127 7.28 11.3 12.69
12/13/2021 8:45:00 PM 3.83 38.894 0.127 7.28 10.92 12.7
12/13/2021 9:00:00 PM 3.79 38.822 0.127 7.28 10.71 12.71
12/13/2021 9:15:00 PM 3.75 38.75 0.128 7.28 10.65 12.72
12/13/2021 9:30:00 PM 3.72 38.696 0.128 7.27 10.64 12.73
12/13/2021 9:45:00 PM 3.68 38.624 0.128 7.28 10.24 12.75
12/13/2021 10:00:00 PM 3.65 38.57 0.128 7.27 10.52 12.76
12/13/2021 10:15:00 PM 3.61 38.498 0.128 7.27 10.39 12.78
12/13/2021 10:30:00 PM 3.57 38.426 0.128 7.27 11.02 12.8
12/13/2021 10:45:00 PM 3.53 38.354 0.128 7.27 10.62 12.81
12/13/2021 11:00:00 PM 3.5 38.3 0.128 7.27 10.74 12.82
12/13/2021 11:15:00 PM 3.46 38.228 0.128 7.27 10 12.84
12/13/2021 11:30:00 PM 3.42 38.156 0.128 7.27 10.4 12.86
12/13/2021 11:45:00 PM 3.38 38.084 0.128 7.27 10.68 12.87
12/14/2021 12:00:00 AM 3.34 38.012 0.128 7.27 10.73 12.89
12/14/2021 12:15:00 AM 3.31 37.958 0.128 7.27 10.44 12.91
12/14/2021 12:30:00 AM 3.27 37.886 0.128 7.27 10.69 12.92
12/14/2021 12:45:00 AM 3.24 37.832 0.128 7.26 10.24 12.94
12/14/2021 1:00:00 AM 3.2 37.76 0.128 7.26 10.77 12.95
12/14/2021 1:15:00 AM 3.16 37.688 0.128 7.25 10.59 12.97
12/14/2021 1:30:00 AM 3.13 37.634 0.128 7.24 10.49 12.99
12/14/2021 1:45:00 AM 3.09 37.562 0.128 7.24 11.02 12.99
12/14/2021 2:00:00 AM 3.06 37.508 0.128 7.24 10.36 13.01
12/14/2021 2:15:00 AM 3.02 37.436 0.128 7.23 10.39 13.02
12/14/2021 2:30:00 AM 2.99 37.382 0.128 7.23 10.41 13.03
12/14/2021 2:45:00 AM 2.96 37.328 0.128 7.23 10.29 13.04
12/14/2021 3:00:00 AM 2.93 37.274 0.128 7.23 10.39 13.06
12/14/2021 3:15:00 AM 2.9 37.22 0.128 7.23 10.69 13.08
12/14/2021 3:30:00 AM 2.88 37.184 0.128 7.22 10.41 13.09
12/14/2021 3:45:00 AM 2.85 37.13 0.128 7.23 10.28 13.1
12/14/2021 4:00:00 AM 2.82 37.076 0.128 7.22 10.37 13.12
12/14/2021 4:15:00 AM 2.79 37.022 0.128 7.22 10.37 13.12
12/14/2021 4:30:00 AM 2.77 36.986 0.128 7.22 9.93 13.14
12/14/2021 4:45:00 AM 2.74 36.932 0.128 7.22 10.11 13.15
12/14/2021 5:00:00 AM 2.71 36.878 0.128 7.22 9.49 13.16
12/14/2021 5:15:00 AM 2.69 36.842 0.128 7.22 9.55 13.17
12/14/2021 5:30:00 AM 2.66 36.788 0.128 7.22 9.95 13.19
12/14/2021 5:45:00 AM 2.64 36.752 0.128 7.22 9.96 13.19
12/14/2021 6:00:00 AM 2.61 36.698 0.128 7.22 9.83 13.21
12/14/2021 6:15:00 AM 2.58 36.644 0.128 7.21 9.68 13.22
12/14/2021 6:30:00 AM 2.56 36.608 0.128 7.21 9.64 13.23
12/14/2021 6:45:00 AM 2.54 36.572 0.128 7.21 9.71 13.25
12/14/2021 7:00:00 AM 2.55 36.59 0.128 7.21 9.71 13.25
12/14/2021 7:15:00 AM 2.56 36.608 0.128 7.22 9.5 13.26
12/14/2021 7:30:00 AM 2.57 36.626 0.128 7.23 9.51 13.27
12/14/2021 7:45:00 AM 2.59 36.662 0.128 7.24 9.79 13.29
12/14/2021 8:00:00 AM 2.61 36.698 0.128 7.25 9.57 13.34
12/14/2021 8:15:00 AM 2.64 36.752 0.128 7.27 9.49 13.43
12/14/2021 8:30:00 AM 2.67 36.806 0.128 7.29 9.62 13.54
12/14/2021 8:45:00 AM 2.7 36.86 0.128 7.31 9.43 13.66
12/14/2021 9:00:00 AM 2.75 36.95 0.128 7.34 9.49 13.79
12/14/2021 9:15:00 AM 2.8 37.04 0.128 7.36 9.68 13.9
12/14/2021 9:30:00 AM 2.86 37.148 0.128 7.38 9.86 13.96
12/14/2021 9:45:00 AM 2.93 37.274 0.128 7.4 9.33 14.03
12/14/2021 10:00:00 AM 2.98 37.364 0.128 7.41 9.66 14.07
12/14/2021 10:15:00 AM 3.06 37.508 0.128 7.43 9.2 14.12
12/14/2021 10:30:00 AM 3.16 37.688 0.128 7.45 9.56 14.15
12/14/2021 10:45:00 AM 3.27 37.886 0.127 7.47 9.29 14.16
12/14/2021 11:00:00 AM 3.37 38.066 0.127 7.48 9.83 14.14
12/14/2021 11:15:00 AM 3.46 38.228 0.127 7.49 9.57 14.14
12/14/2021 11:30:00 AM 3.53 38.354 0.127 7.5 9.41 14.12
12/14/2021 11:45:00 AM 3.64 38.552 0.127 7.51 9.05 14.1
12/14/2021 12:00:00 PM 3.77 38.786 0.127 7.51 8.88 14.08
12/14/2021 12:15:00 PM 3.89 39.002 0.127 7.52 9.08 14.05
12/14/2021 12:30:00 PM 4.01 39.218 0.127 7.53 8.67 14.04
12/14/2021 12:45:00 PM 4.14 39.452 0.127 7.53 9.02 14
12/14/2021 1:00:00 PM 4.26 39.668 0.126 7.54 9.01 13.95
12/14/2021 1:15:00 PM 4.38 39.884 0.127 7.55 9.64 13.93
12/14/2021 1:30:00 PM 4.48 40.064 0.126 7.55 9.63 13.9
12/14/2021 1:45:00 PM 4.56 40.208 0.126 7.55 9.73 13.85
12/14/2021 2:00:00 PM 4.63 40.334 0.126 7.56 9.92 13.81
12/14/2021 2:15:00 PM 4.68 40.424 0.126 7.56 9.54 13.78
12/14/2021 2:30:00 PM 4.73 40.514 0.126 7.56 9.63 13.74
12/14/2021 2:45:00 PM 4.75 40.55 0.126 7.55 9.73 13.69
12/14/2021 3:00:00 PM 4.75 40.55 0.126 7.55 9.61 13.66
12/14/2021 3:15:00 PM 4.73 40.514 0.126 7.54 9.44 13.62
12/14/2021 3:30:00 PM 4.69 40.442 0.127 7.53 9.61 13.57
12/14/2021 3:45:00 PM 4.64 40.352 0.127 7.51 9.9 13.51
12/14/2021 4:00:00 PM 4.57 40.226 0.127 7.49 9.72 13.45
12/14/2021 4:15:00 PM 4.5 40.1 0.127 7.48 9.74 13.4
12/14/2021 4:30:00 PM 4.42 39.956 0.127 7.45 9.68 13.31
12/14/2021 4:45:00 PM 4.33 39.794 0.127 7.43 10.03 13.23
12/14/2021 5:00:00 PM 4.24 39.632 0.127 7.4 9.76 13.15
12/14/2021 5:15:00 PM 4.15 39.47 0.128 7.38 10 13.07
12/14/2021 5:30:00 PM 4.08 39.344 0.128 7.35 9.91 13.01
12/14/2021 5:45:00 PM 4 39.2 0.128 7.34 10.07 12.98
12/14/2021 6:00:00 PM 3.94 39.092 0.128 7.33 10.11 12.96
12/14/2021 6:15:00 PM 3.89 39.002 0.128 7.32 9.96 12.94
12/14/2021 6:30:00 PM 3.83 38.894 0.128 7.31 9.95 12.94
12/14/2021 6:45:00 PM 3.78 38.804 0.128 7.3 10.14 12.93
12/14/2021 7:00:00 PM 3.73 38.714 0.128 7.3 9.84 12.93
12/14/2021 7:15:00 PM 3.68 38.624 0.128 7.29 9.9 12.94
12/14/2021 7:30:00 PM 3.63 38.534 0.129 7.29 9.73 12.96
12/14/2021 7:45:00 PM 3.58 38.444 0.129 7.29 10.04 12.97
12/14/2021 8:00:00 PM 3.53 38.354 0.129 7.29 10.47 12.98
12/14/2021 8:15:00 PM 3.49 38.282 0.129 7.28 10.34 12.99
12/14/2021 8:30:00 PM 3.45 38.21 0.129 7.28 9.49 13
12/14/2021 8:45:00 PM 3.42 38.156 0.129 7.28 9.69 13.01
12/14/2021 9:00:00 PM 3.39 38.102 0.129 7.28 9.66 13.03
12/14/2021 9:15:00 PM 3.36 38.048 0.129 7.27 9.94 13.03
12/14/2021 9:30:00 PM 3.33 37.994 0.129 7.27 9.94 13.04
12/14/2021 9:45:00 PM 3.31 37.958 0.129 7.27 9.54 13.05
12/14/2021 10:00:00 PM 3.28 37.904 0.129 7.27 9.79 13.06
12/14/2021 10:15:00 PM 3.25 37.85 0.129 7.27 9.62 13.07
12/14/2021 10:30:00 PM 3.22 37.796 0.129 7.26 9.98 13.08
12/14/2021 10:45:00 PM 3.19 37.742 0.129 7.26 10.06 13.08
12/14/2021 11:00:00 PM 3.15 37.67 0.129 7.26 9.72 13.09
12/14/2021 11:15:00 PM 3.12 37.616 0.129 7.25 9.62 13.11
12/14/2021 11:30:00 PM 3.08 37.544 0.129 7.25 9.6 13.13
12/14/2021 11:45:00 PM 3.04 37.472 0.129 7.25 9.44 13.14
12/15/2021 12:00:00 AM 3 37.4 0.129 7.24 9.37 13.16
12/15/2021 12:15:00 AM 2.96 37.328 0.129 7.25 9.07 13.16
12/15/2021 12:30:00 AM 2.92 37.256 0.129 7.24 9.24 13.19
12/15/2021 12:45:00 AM 2.87 37.166 0.129 7.24 9.09 13.19
12/15/2021 1:00:00 AM 2.83 37.094 0.129 7.24 9.11 13.21
12/15/2021 1:15:00 AM 2.79 37.022 0.129 7.24 9.55 13.22
12/15/2021 1:30:00 AM 2.76 36.968 0.129 7.24 9.27 13.24
12/15/2021 1:45:00 AM 2.72 36.896 0.129 7.23 9.27 13.25
12/15/2021 2:00:00 AM 2.69 36.842 0.129 7.23 9.63 13.26
12/15/2021 2:15:00 AM 2.66 36.788 0.129 7.23 9.46 13.28
12/15/2021 2:30:00 AM 2.63 36.734 0.129 7.24 9.06 13.29
12/15/2021 2:45:00 AM 2.6 36.68 0.129 7.24 9.01 13.3
12/15/2021 3:00:00 AM 2.57 36.626 0.129 7.23 9.05 13.32
12/15/2021 3:15:00 AM 2.54 36.572 0.129 7.23 9.55 13.32
12/15/2021 3:30:00 AM 2.52 36.536 0.129 7.24 8.83 13.33
12/15/2021 3:45:00 AM 2.5 36.5 0.129 7.24 8.69 13.34
12/15/2021 4:00:00 AM 2.48 36.464 0.129 7.24 9.07 13.35
12/15/2021 4:15:00 AM 2.46 36.428 0.129 7.24 8.84 13.36
12/15/2021 4:30:00 AM 2.45 36.41 0.129 7.24 9.85 13.36
12/15/2021 4:45:00 AM 2.44 36.392 0.129 7.24 9.31 13.37
12/15/2021 5:00:00 AM 2.42 36.356 0.129 7.24 8.95 13.38
12/15/2021 5:15:00 AM 2.41 36.338 0.129 7.24 8.96 13.38
12/15/2021 5:30:00 AM 2.4 36.32 0.129 7.24 9.28 13.38
12/15/2021 5:45:00 AM 2.38 36.284 0.129 7.24 9.37 13.39
12/15/2021 6:00:00 AM 2.37 36.266 0.129 7.24 8.91 13.39
12/15/2021 6:15:00 AM 2.37 36.266 0.129 7.25 8.47 13.4
12/15/2021 6:30:00 AM 2.36 36.248 0.129 7.25 8.96 13.4
12/15/2021 6:45:00 AM 2.36 36.248 0.129 7.25 8.96 13.4
12/15/2021 7:00:00 AM 2.37 36.266 0.129 7.25 8.77 13.4
12/15/2021 7:15:00 AM 2.37 36.266 0.129 7.26 9.32 13.4
12/15/2021 7:30:00 AM 2.37 36.266 0.129 7.26 8.55 13.41
12/15/2021 7:45:00 AM 2.37 36.266 0.129 7.26 8.57 13.43
12/15/2021 8:00:00 AM 2.38 36.284 0.129 7.27 8.79 13.47
12/15/2021 8:15:00 AM 2.4 36.32 0.129 7.28 8.66 13.56
12/15/2021 8:30:00 AM 2.41 36.338 0.129 7.29 8.68 13.65
12/15/2021 8:45:00 AM 2.44 36.392 0.129 7.31 8.8 13.77
12/15/2021 9:00:00 AM 2.47 36.446 0.129 7.33 8.52 13.89
12/15/2021 9:15:00 AM 2.5 36.5 0.129 7.35 9.04 14.01
12/15/2021 9:30:00 AM 2.55 36.59 0.129 7.38 8.54 14.11
12/15/2021 9:45:00 AM 2.61 36.698 0.129 7.4 8.46 14.2
12/15/2021 10:00:00 AM 2.68 36.824 0.129 7.42 9.15 14.26
12/15/2021 10:15:00 AM 2.76 36.968 0.129 7.44 9.09 14.3
12/15/2021 10:30:00 AM 2.83 37.094 0.129 7.45 8.89 14.31
12/15/2021 10:45:00 AM 2.91 37.238 0.128 7.47 8.58 14.33
12/15/2021 11:00:00 AM 3.01 37.418 0.128 7.48 8.99 14.35
12/15/2021 11:15:00 AM 3.08 37.544 0.128 7.49 9.13 14.32
12/15/2021 11:30:00 AM 3.13 37.634 0.129 7.5 8.95 14.28
12/15/2021 11:45:00 AM 3.2 37.76 0.128 7.51 8.78 14.27
12/15/2021 12:00:00 PM 3.27 37.886 0.128 7.51 8.88 14.27
12/15/2021 12:15:00 PM 3.32 37.976 0.128 7.52 8.86 14.21
12/15/2021 12:30:00 PM 3.35 38.03 0.128 7.51 8.82 14.15
12/15/2021 12:45:00 PM 3.39 38.102 0.128 7.5 8.77 14.08
12/15/2021 1:00:00 PM 3.42 38.156 0.128 7.49 8.64 14.02
12/15/2021 1:15:00 PM 3.44 38.192 0.128 7.48 8.91 13.94
12/15/2021 1:30:00 PM 3.46 38.228 0.128 7.47 8.93 13.86
12/15/2021 1:45:00 PM 3.48 38.264 0.128 7.45 8.7 13.79
12/15/2021 2:00:00 PM 3.51 38.318 0.127 7.44 9.05 13.72
12/15/2021 2:15:00 PM 3.52 38.336 0.127 7.43 8.73 13.66
12/15/2021 2:30:00 PM 3.54 38.372 0.127 7.42 9 13.6
12/15/2021 2:45:00 PM 3.56 38.408 0.127 7.41 8.98 13.54
12/15/2021 3:00:00 PM 3.58 38.444 0.127 7.4 9.36 13.48
12/15/2021 3:15:00 PM 3.59 38.462 0.127 7.39 9.23 13.42
12/15/2021 3:30:00 PM 3.61 38.498 0.126 7.38 9.36 13.35
12/15/2021 3:45:00 PM 3.62 38.516 0.126 7.37 9.3 13.3
12/15/2021 4:00:00 PM 3.64 38.552 0.126 7.36 9.28 13.25
12/15/2021 4:15:00 PM 3.65 38.57 0.126 7.35 9.37 13.21
12/15/2021 4:30:00 PM 3.66 38.588 0.126 7.34 9.45 13.16
12/15/2021 4:45:00 PM 3.67 38.606 0.127 7.33 9.46 13.11
12/15/2021 5:00:00 PM 3.67 38.606 0.127 7.33 9.63 13.07
12/15/2021 5:15:00 PM 3.68 38.624 0.127 7.32 9.88 13.03
12/15/2021 5:30:00 PM 3.69 38.642 0.127 7.31 9.55 13
12/15/2021 5:45:00 PM 3.7 38.66 0.127 7.31 9.71 12.97
12/15/2021 6:00:00 PM 3.71 38.678 0.127 7.31 9.98 12.95
12/15/2021 6:15:00 PM 3.72 38.696 0.128 7.31 10.11 12.94
12/15/2021 6:30:00 PM 3.73 38.714 0.128 7.31 10.26 12.92
12/15/2021 6:45:00 PM 3.74 38.732 0.128 7.31 10.62 12.92
12/15/2021 7:00:00 PM 3.75 38.75 0.128 7.32 10.63 12.92
12/15/2021 7:15:00 PM 3.76 38.768 0.128 7.32 11.17 12.92
12/15/2021 7:30:00 PM 3.78 38.804 0.128 7.33 11.55 12.91
12/15/2021 7:45:00 PM 3.78 38.804 0.127 7.34 12.94 12.91
12/15/2021 8:00:00 PM 3.8 38.84 0.128 7.34 12.59 12.91
12/15/2021 8:15:00 PM 3.81 38.858 0.128 7.34 13.57 12.91
12/15/2021 8:30:00 PM 3.82 38.876 0.129 7.35 14.34 12.91
12/15/2021 8:45:00 PM 3.84 38.912 0.129 7.36 15.45 12.91
12/15/2021 9:00:00 PM 3.85 38.93 0.13 7.36 17.45 12.9
12/15/2021 9:15:00 PM 3.85 38.93 0.13 7.36 18.62 12.91
12/15/2021 9:30:00 PM 3.87 38.966 0.13 7.36 21.17 12.9
12/15/2021 9:45:00 PM 3.89 39.002 0.129 7.36 21.94 12.89
12/15/2021 10:00:00 PM 3.91 39.038 0.129 7.36 21.97 12.88
12/15/2021 10:15:00 PM 3.91 39.038 0.128 7.36 21.84 12.87
12/15/2021 10:30:00 PM 3.91 39.038 0.127 7.35 22.22 12.87
12/15/2021 10:45:00 PM 3.9 39.02 0.127 7.35 23.11 12.86
12/15/2021 11:00:00 PM 3.9 39.02 0.126 7.35 21.93 12.85
12/15/2021 11:15:00 PM 3.91 39.038 0.126 7.35 21.89 12.85
12/15/2021 11:30:00 PM 3.92 39.056 0.126 7.34 19.9 12.84
12/15/2021 11:45:00 PM 3.94 39.092 0.125 7.34 19.72 12.83
12/16/2021 12:00:00 AM 3.94 39.092 0.125 7.34 20.31 12.82
12/16/2021 12:15:00 AM 3.95 39.11 0.125 7.34 20.03 12.81
12/16/2021 12:30:00 AM 3.96 39.128 0.125 7.34 20.42 12.81
12/16/2021 12:45:00 AM 3.98 39.164 0.125 7.33 18.7 12.8
12/16/2021 1:00:00 AM 4.01 39.218 0.125 7.33 18.67 12.79
12/16/2021 1:15:00 AM 4.02 39.236 0.125 7.33 18.72 12.78
12/16/2021 1:30:00 AM 4.03 39.254 0.125 7.33 19.03 12.77
12/16/2021 1:45:00 AM 4.02 39.236 0.125 7.32 17.33 12.76
12/16/2021 2:00:00 AM 4.01 39.218 0.125 7.32 17.17 12.76
12/16/2021 2:15:00 AM 4.01 39.218 0.125 7.32 16.74 12.75
12/16/2021 2:30:00 AM 4.01 39.218 0.125 7.32 15.79 12.75
12/16/2021 2:45:00 AM 4.01 39.218 0.124 7.32 17.09 12.74
12/16/2021 3:00:00 AM 4.01 39.218 0.124 7.31 15.8 12.74
12/16/2021 3:15:00 AM 4.02 39.236 0.124 7.31 15.84 12.73
12/16/2021 3:30:00 AM 4.04 39.272 0.124 7.31 14.86 12.72
12/16/2021 3:45:00 AM 4.06 39.308 0.124 7.31 15.96 12.72
12/16/2021 4:00:00 AM 4.09 39.362 0.124 7.31 15.13 12.7
12/16/2021 4:15:00 AM 4.1 39.38 0.124 7.3 14.86 12.7
12/16/2021 4:30:00 AM 4.12 39.416 0.124 7.3 14.32 12.68
12/16/2021 4:45:00 AM 4.14 39.452 0.124 7.3 14.59 12.68
12/16/2021 5:00:00 AM 4.16 39.488 0.124 7.3 14.36 12.66
12/16/2021 5:15:00 AM 4.18 39.524 0.124 7.3 14.22 12.66
12/16/2021 5:30:00 AM 4.19 39.542 0.124 7.3 13.92 12.64
12/16/2021 5:45:00 AM 4.2 39.56 0.124 7.3 13.24 12.64
12/16/2021 6:00:00 AM 4.21 39.578 0.124 7.29 13.37 12.63
12/16/2021 6:15:00 AM 4.22 39.596 0.124 7.29 13.33 12.62
12/16/2021 6:30:00 AM 4.24 39.632 0.124 7.29 13.31 12.61
12/16/2021 6:45:00 AM 4.25 39.65 0.124 7.29 13.01 12.61
12/16/2021 7:00:00 AM 4.27 39.686 0.124 7.29 12.77 12.6
12/16/2021 7:15:00 AM 4.29 39.722 0.124 7.29 13.06 12.59
12/16/2021 7:30:00 AM 4.31 39.758 0.124 7.29 12.76 12.58
12/16/2021 7:45:00 AM 4.33 39.794 0.124 7.29 12.07 12.58
12/16/2021 8:00:00 AM 4.36 39.848 0.124 7.29 12.59 12.6
12/16/2021 8:15:00 AM 4.38 39.884 0.124 7.3 12.53 12.63
12/16/2021 8:30:00 AM 4.41 39.938 0.124 7.32 12 12.7
12/16/2021 8:45:00 AM 4.44 39.992 0.124 7.33 12.08 12.82
12/16/2021 9:00:00 AM 4.47 40.046 0.124 7.36 11.94 12.93
12/16/2021 9:15:00 AM 4.5 40.1 0.124 7.38 11.86 13.04
12/16/2021 9:30:00 AM 4.55 40.19 0.124 7.41 12.14 13.14
12/16/2021 9:45:00 AM 4.61 40.298 0.124 7.44 11.7 13.21
12/16/2021 10:00:00 AM 4.69 40.442 0.123 7.47 11.67 13.29
12/16/2021 10:15:00 AM 4.79 40.622 0.123 7.49 11.98 13.34
12/16/2021 10:30:00 AM 4.91 40.838 0.123 7.52 11.52 13.39
12/16/2021 10:45:00 AM 5.03 41.054 0.123 7.55 11.52 13.42
12/16/2021 11:00:00 AM 5.15 41.27 0.123 7.57 11.49 13.44
12/16/2021 11:15:00 AM 5.27 41.486 0.123 7.59 11.39 13.44
12/16/2021 11:30:00 AM 5.38 41.684 0.123 7.61 11.53 13.44
12/16/2021 11:45:00 AM 5.5 41.9 0.123 7.63 11.08 13.44
12/16/2021 12:00:00 PM 5.63 42.134 0.122 7.64 10.91 13.41
12/16/2021 12:15:00 PM 5.79 42.422 0.122 7.66 11.4 13.4
12/16/2021 12:30:00 PM 5.96 42.728 0.123 7.68 11.1 13.38
12/16/2021 12:45:00 PM 6.12 43.016 0.122 7.7 11.14 13.35
12/16/2021 1:00:00 PM 6.26 43.268 0.122 7.71 10.82 13.31
12/16/2021 1:15:00 PM 6.39 43.502 0.122 7.72 10.76 13.28
12/16/2021 1:30:00 PM 6.52 43.736 0.122 7.74 10.79 13.25
12/16/2021 1:45:00 PM 6.63 43.934 0.122 7.75 11.01 13.21
12/16/2021 2:00:00 PM 6.69 44.042 0.122 7.75 10.61 13.14
12/16/2021 2:15:00 PM 6.74 44.132 0.122 7.75 10.73 13.1
12/16/2021 2:30:00 PM 6.78 44.204 0.122 7.74 10.71 13.06
12/16/2021 2:45:00 PM 6.82 44.276 0.122 7.74 10.64 13.03
12/16/2021 3:00:00 PM 6.85 44.33 0.122 7.74 9.81 13
12/16/2021 3:15:00 PM 6.86 44.348 0.122 7.73 10.51 12.97
12/16/2021 3:30:00 PM 6.85 44.33 0.122 7.71 9.63 12.89
12/16/2021 3:45:00 PM 6.83 44.294 0.122 7.68 10.64 12.81
12/16/2021 4:00:00 PM 6.79 44.222 0.122 7.64 10.8 12.7
12/16/2021 4:15:00 PM 6.75 44.15 0.122 7.59 10.23 12.56
12/16/2021 4:30:00 PM 6.71 44.078 0.122 7.54 10.68 12.41
12/16/2021 4:45:00 PM 6.67 44.006 0.123 7.5 10.33 12.26
12/16/2021 5:00:00 PM 6.65 43.97 0.123 7.46 10.34 12.14
12/16/2021 5:15:00 PM 6.63 43.934 0.123 7.43 11.12 12.04
12/16/2021 5:30:00 PM 6.6 43.88 0.123 7.4 10.65 11.96
12/16/2021 5:45:00 PM 6.58 43.844 0.124 7.38 10.4 11.91
12/16/2021 6:00:00 PM 6.57 43.826 0.124 7.37 10.52 11.87
12/16/2021 6:15:00 PM 6.57 43.826 0.124 7.36 10.59 11.84
12/16/2021 6:30:00 PM 6.57 43.826 0.124 7.35 10.2 11.81
12/16/2021 6:45:00 PM 6.58 43.844 0.124 7.34 10.28 11.79
12/16/2021 7:00:00 PM 6.59 43.862 0.124 7.33 10.29 11.77
12/16/2021 7:15:00 PM 6.59 43.862 0.125 7.33 10.23 11.75
12/16/2021 7:30:00 PM 6.6 43.88 0.125 7.33 10.65 11.74
12/16/2021 7:45:00 PM 6.6 43.88 0.125 7.32 10.29 11.73
12/16/2021 8:00:00 PM 6.6 43.88 0.125 7.32 10.31 11.72
12/16/2021 8:15:00 PM 6.59 43.862 0.125 7.32 10.19 11.71
12/16/2021 8:30:00 PM 6.57 43.826 0.125 7.31 10.45 11.7
12/16/2021 8:45:00 PM 6.58 43.844 0.125 7.31 10.22 11.69
12/16/2021 9:00:00 PM 6.58 43.844 0.125 7.31 10.42 11.69
12/16/2021 9:15:00 PM 6.58 43.844 0.125 7.31 10.42 11.68
12/16/2021 9:30:00 PM 6.59 43.862 0.125 7.31 10.41 11.68
12/16/2021 9:45:00 PM 6.61 43.898 0.125 7.31 10.17 11.67
12/16/2021 10:00:00 PM 6.61 43.898 0.125 7.3 10.61 11.67
12/16/2021 10:15:00 PM 6.62 43.916 0.125 7.3 10.22 11.66
12/16/2021 10:30:00 PM 6.63 43.934 0.125 7.3 10.41 11.66
12/16/2021 10:45:00 PM 6.63 43.934 0.125 7.3 10.22 11.65
12/16/2021 11:00:00 PM 6.63 43.934 0.125 7.3 10.5 11.65
12/16/2021 11:15:00 PM 6.61 43.898 0.125 7.3 10.19 11.64
12/16/2021 11:30:00 PM 6.59 43.862 0.125 7.3 10.05 11.64
12/16/2021 11:45:00 PM 6.56 43.808 0.126 7.29 10.29 11.65
12/17/2021 12:00:00 AM 6.55 43.79 0.126 7.29 10.28 11.65
12/17/2021 12:15:00 AM 6.54 43.772 0.125 7.29 10.27 11.65
12/17/2021 12:30:00 AM 6.54 43.772 0.126 7.29 10.4 11.65
12/17/2021 12:45:00 AM 6.54 43.772 0.126 7.29 10.38 11.64
12/17/2021 1:00:00 AM 6.57 43.826 0.126 7.29 10.29 11.64
12/17/2021 1:15:00 AM 6.57 43.826 0.126 7.29 10.21 11.64
12/17/2021 1:30:00 AM 6.54 43.772 0.126 7.29 10.09 11.65
12/17/2021 1:45:00 AM 6.51 43.718 0.126 7.3 10.38 11.65
12/17/2021 2:00:00 AM 6.48 43.664 0.126 7.29 10.25 11.65
12/17/2021 2:15:00 AM 6.44 43.592 0.126 7.29 10.2 11.66
12/17/2021 2:30:00 AM 6.4 43.52 0.126 7.29 10.29 11.68
12/17/2021 2:45:00 AM 6.35 43.43 0.126 7.29 10.41 11.69
12/17/2021 3:00:00 AM 6.29 43.322 0.126 7.29 10.29 11.71
12/17/2021 3:15:00 AM 6.23 43.214 0.126 7.29 10.31 11.72
12/17/2021 3:30:00 AM 6.17 43.106 0.126 7.29 10.29 11.74
12/17/2021 3:45:00 AM 6.11 42.998 0.126 7.29 10.38 11.77
12/17/2021 4:00:00 AM 6.05 42.89 0.126 7.29 10.46 11.78
12/17/2021 4:15:00 AM 5.99 42.782 0.126 7.29 9.7 11.8
12/17/2021 4:30:00 AM 5.92 42.656 0.126 7.29 9.4 11.83
12/17/2021 4:45:00 AM 5.85 42.53 0.126 7.29 9.6 11.84
12/17/2021 5:00:00 AM 5.79 42.422 0.126 7.29 9.82 11.87
12/17/2021 5:15:00 AM 5.74 42.332 0.126 7.29 9.22 11.88
12/17/2021 5:30:00 AM 5.67 42.206 0.126 7.29 9.44 11.9
12/17/2021 5:45:00 AM 5.62 42.116 0.126 7.29 7.61 11.92
12/17/2021 6:00:00 AM 5.56 42.008 0.126 7.29 9.19 11.95
12/17/2021 6:15:00 AM 5.5 41.9 0.126 7.28 9.21 11.97
12/17/2021 6:30:00 AM 5.44 41.792 0.127 7.28 9.08 11.99
12/17/2021 6:45:00 AM 5.38 41.684 0.127 7.28 9.27 12.01
12/17/2021 7:00:00 AM 5.33 41.594 0.126 7.28 9.04 12.03
12/17/2021 7:15:00 AM 5.27 41.486 0.127 7.28 9.27 12.05
12/17/2021 7:30:00 AM 5.21 41.378 0.127 7.28 9.19 12.08
12/17/2021 7:45:00 AM 5.16 41.288 0.127 7.29 9.12 12.11
12/17/2021 8:00:00 AM 5.12 41.216 0.127 7.3 9.24 12.2
12/17/2021 8:15:00 AM 5.08 41.144 0.127 7.31 9.03 12.29
12/17/2021 8:30:00 AM 5.05 41.09 0.126 7.33 8.95 12.4
12/17/2021 8:45:00 AM 5.04 41.072 0.127 7.34 9.17 12.54
12/17/2021 9:00:00 AM 5.03 41.054 0.127 7.37 9.08 12.66
12/17/2021 9:15:00 AM 5.03 41.054 0.126 7.39 9.19 12.78
12/17/2021 9:30:00 AM 5.05 41.09 0.126 7.41 9.13 12.89
12/17/2021 9:45:00 AM 5.07 41.126 0.126 7.44 9.12 13
12/17/2021 10:00:00 AM 5.1 41.18 0.126 7.46 9.12 13.09
12/17/2021 10:15:00 AM 5.14 41.252 0.126 7.49 9.25 13.17
12/17/2021 10:30:00 AM 5.19 41.342 0.126 7.51 9.21 13.22
12/17/2021 10:45:00 AM 5.26 41.468 0.126 7.52 9.05 13.28
12/17/2021 11:00:00 AM 5.32 41.576 0.126 7.54 9.1 13.31
12/17/2021 11:15:00 AM 5.39 41.702 0.126 7.56 8.99 13.34
12/17/2021 11:30:00 AM 5.46 41.828 0.126 7.58 9.15 13.36
12/17/2021 11:45:00 AM 5.54 41.972 0.126 7.59 8.77 13.37
12/17/2021 12:00:00 PM 5.63 42.134 0.126 7.6 9.02 13.38
12/17/2021 12:15:00 PM 5.72 42.296 0.126 7.62 8.97 13.38
12/17/2021 12:30:00 PM 5.83 42.494 0.125 7.63 9.02 13.37
12/17/2021 12:45:00 PM 5.94 42.692 0.126 7.65 8.97 13.36
12/17/2021 1:00:00 PM 6.03 42.854 0.125 7.66 8.97 13.34
12/17/2021 1:15:00 PM 6.12 43.016 0.125 7.67 9.09 13.31
12/17/2021 1:30:00 PM 6.19 43.142 0.125 7.68 8.87 13.3
12/17/2021 1:45:00 PM 6.25 43.25 0.125 7.69 8.79 13.26
12/17/2021 2:00:00 PM 6.29 43.322 0.125 7.69 8.83 13.22
12/17/2021 2:15:00 PM 6.31 43.358 0.125 7.69 8.69 13.18
12/17/2021 2:30:00 PM 6.32 43.376 0.125 7.69 8.92 13.17
12/17/2021 2:45:00 PM 6.29 43.322 0.125 7.68 9.2 13.13
12/17/2021 3:00:00 PM 6.25 43.25 0.125 7.66 9.5 13.08
12/17/2021 3:15:00 PM 6.21 43.178 0.125 7.65 9.05 13.06
12/17/2021 3:30:00 PM 6.15 43.07 0.125 7.63 9.06 13.03
12/17/2021 3:45:00 PM 6.1 42.98 0.125 7.61 8.99 13
12/17/2021 4:00:00 PM 6.03 42.854 0.125 7.58 7.36 12.93
12/17/2021 4:15:00 PM 5.96 42.728 0.125 7.55 8.65 12.82
12/17/2021 4:30:00 PM 5.89 42.602 0.125 7.51 8.47 12.7
12/17/2021 4:45:00 PM 5.82 42.476 0.126 7.47 8.64 12.59
12/17/2021 5:00:00 PM 5.75 42.35 0.126 7.43 8.73 12.47
12/17/2021 5:15:00 PM 5.68 42.224 0.126 7.4 8.75 12.38
12/17/2021 5:30:00 PM 5.62 42.116 0.126 7.37 8.56 12.3
12/17/2021 5:45:00 PM 5.56 42.008 0.126 7.35 8.79 12.26
12/17/2021 6:00:00 PM 5.5 41.9 0.126 7.34 8.9 12.22
12/17/2021 6:15:00 PM 5.45 41.81 0.127 7.33 8.97 12.2
12/17/2021 6:30:00 PM 5.4 41.72 0.127 7.32 8.54 12.19
12/17/2021 6:45:00 PM 5.35 41.63 0.127 7.31 8.85 12.19
12/17/2021 7:00:00 PM 5.31 41.558 0.127 7.3 8.79 12.18
12/17/2021 7:15:00 PM 5.26 41.468 0.127 7.3 9.11 12.19
12/17/2021 7:30:00 PM 5.21 41.378 0.127 7.29 9.02 12.19
12/17/2021 7:45:00 PM 5.17 41.306 0.127 7.29 8.91 12.2
12/17/2021 8:00:00 PM 5.11 41.198 0.127 7.29 9.21 12.21
12/17/2021 8:15:00 PM 5.06 41.108 0.127 7.28 8.81 12.22
12/17/2021 8:30:00 PM 5.02 41.036 0.127 7.28 9.24 12.23
12/17/2021 8:45:00 PM 4.98 40.964 0.127 7.28 9.26 12.24
12/17/2021 9:00:00 PM 4.94 40.892 0.128 7.28 9.08 12.25
12/17/2021 9:15:00 PM 4.91 40.838 0.128 7.27 9.16 12.26
12/17/2021 9:30:00 PM 4.87 40.766 0.128 7.28 8.93 12.27
12/17/2021 9:45:00 PM 4.84 40.712 0.128 7.27 9.07 12.28
12/17/2021 10:00:00 PM 4.82 40.676 0.128 7.27 9.05 12.3
12/17/2021 10:15:00 PM 4.79 40.622 0.128 7.27 8.97 12.3
12/17/2021 10:30:00 PM 4.77 40.586 0.128 7.27 9.08 12.31
12/17/2021 10:45:00 PM 4.75 40.55 0.128 7.27 9.22 12.32
12/17/2021 11:00:00 PM 4.73 40.514 0.128 7.27 9.1 12.33
12/17/2021 11:15:00 PM 4.71 40.478 0.128 7.27 9.01 12.34
12/17/2021 11:30:00 PM 4.69 40.442 0.128 7.27 9.33 12.34
12/17/2021 11:45:00 PM 4.67 40.406 0.128 7.27 9.28 12.35
12/18/2021 12:00:00 AM 4.65 40.37 0.128 7.27 8.99 12.36
12/18/2021 12:15:00 AM 4.63 40.334 0.128 7.27 9.09 12.36
12/18/2021 12:30:00 AM 4.61 40.298 0.129 7.27 9.11 12.37
12/18/2021 12:45:00 AM 4.59 40.262 0.128 7.27 9.11 12.38
12/18/2021 1:00:00 AM 4.56 40.208 0.128 7.27 9.29 12.38
12/18/2021 1:15:00 AM 4.54 40.172 0.129 7.27 9.06 12.39
12/18/2021 1:30:00 AM 4.52 40.136 0.128 7.27 9.09 12.4
12/18/2021 1:45:00 AM 4.5 40.1 0.128 7.27 9 12.4
12/18/2021 2:00:00 AM 4.49 40.082 0.129 7.26 9.04 12.41
12/18/2021 2:15:00 AM 4.48 40.064 0.128 7.26 9.03 12.41
12/18/2021 2:30:00 AM 4.46 40.028 0.129 7.26 9.47 12.4
12/18/2021 2:45:00 AM 4.46 40.028 0.128 7.26 8.92 12.41
12/18/2021 3:00:00 AM 4.45 40.01 0.129 7.26 9.13 12.42
12/18/2021 3:15:00 AM 4.45 40.01 0.128 7.26 9.01 12.42
12/18/2021 3:30:00 AM 4.45 40.01 0.128 7.26 9.01 12.41
12/18/2021 3:45:00 AM 4.46 40.028 0.128 7.26 9.01 12.41
12/18/2021 4:00:00 AM 4.46 40.028 0.129 7.26 9.04 12.41
12/18/2021 4:15:00 AM 4.46 40.028 0.128 7.26 8.79 12.4
12/18/2021 4:30:00 AM 4.47 40.046 0.129 7.26 8.95 12.4
12/18/2021 4:45:00 AM 4.47 40.046 0.129 7.26 8.83 12.4
12/18/2021 5:00:00 AM 4.47 40.046 0.128 7.26 8.92 12.39
12/18/2021 5:15:00 AM 4.47 40.046 0.128 7.27 9.07 12.4
12/18/2021 5:30:00 AM 4.47 40.046 0.129 7.27 8.92 12.4
12/18/2021 5:45:00 AM 4.47 40.046 0.129 7.26 8.87 12.39
12/18/2021 6:00:00 AM 4.47 40.046 0.128 7.27 9.32 12.4
12/18/2021 6:15:00 AM 4.47 40.046 0.128 7.27 8.94 12.4
12/18/2021 6:30:00 AM 4.47 40.046 0.129 7.27 9.21 12.39
12/18/2021 6:45:00 AM 4.47 40.046 0.129 7.27 8.9 12.39
12/18/2021 7:00:00 AM 4.47 40.046 0.129 7.27 9.08 12.39
12/18/2021 7:15:00 AM 4.47 40.046 0.129 7.27 9.1 12.39
12/18/2021 7:30:00 AM 4.48 40.064 0.129 7.27 9.14 12.39
12/18/2021 7:45:00 AM 4.48 40.064 0.129 7.27 9.01 12.4
12/18/2021 8:00:00 AM 4.48 40.064 0.129 7.28 8.98 12.42
12/18/2021 8:15:00 AM 4.49 40.082 0.129 7.29 8.82 12.5
12/18/2021 8:30:00 AM 4.49 40.082 0.128 7.3 9.08 12.55
12/18/2021 8:45:00 AM 4.51 40.118 0.129 7.31 8.99 12.66
12/18/2021 9:00:00 AM 4.52 40.136 0.128 7.33 9.1 12.75
12/18/2021 9:15:00 AM 4.53 40.154 0.128 7.35 8.96 12.87
12/18/2021 9:30:00 AM 4.54 40.172 0.128 7.37 9.07 12.94
12/18/2021 9:45:00 AM 4.55 40.19 0.128 7.39 8.96 13.02
12/18/2021 10:00:00 AM 4.56 40.208 0.128 7.4 8.9 13.06
12/18/2021 10:15:00 AM 4.56 40.208 0.128 7.41 8.89 13.1
12/18/2021 10:30:00 AM 4.57 40.226 0.127 7.42 8.88 13.1
12/18/2021 10:45:00 AM 4.57 40.226 0.127 7.42 9.02 13.11
12/18/2021 11:00:00 AM 4.58 40.244 0.128 7.43 9.1 13.15
12/18/2021 11:15:00 AM 4.58 40.244 0.127 7.43 9.22 13.13
12/18/2021 11:30:00 AM 4.58 40.244 0.127 7.44 8.91 13.14
12/18/2021 11:45:00 AM 4.59 40.262 0.127 7.45 8.93 13.16
12/18/2021 12:00:00 PM 4.6 40.28 0.127 7.44 8.89 13.14
12/18/2021 12:15:00 PM 4.61 40.298 0.127 7.45 8.88 13.14
12/18/2021 12:30:00 PM 4.62 40.316 0.127 7.45 8.82 13.11
12/18/2021 12:45:00 PM 4.62 40.316 0.127 7.45 9.03 13.1
12/18/2021 1:00:00 PM 4.63 40.334 0.126 7.45 9.05 13.1
12/18/2021 1:15:00 PM 4.64 40.352 0.126 7.45 9.11 13.1
12/18/2021 1:30:00 PM 4.65 40.37 0.127 7.46 9.02 13.11
12/18/2021 1:45:00 PM 4.66 40.388 0.126 7.46 9.13 13.11
12/18/2021 2:00:00 PM 4.66 40.388 0.126 7.46 8.54 13.1
12/18/2021 2:15:00 PM 4.66 40.388 0.126 7.47 9.02 13.09
12/18/2021 2:30:00 PM 4.67 40.406 0.127 7.46 9.5 13.06
12/18/2021 2:45:00 PM 4.67 40.406 0.126 7.45 9.39 13.01
12/18/2021 3:00:00 PM 4.67 40.406 0.127 7.45 9.44 12.96
12/18/2021 3:15:00 PM 4.66 40.388 0.127 7.43 9.79 12.89
12/18/2021 3:30:00 PM 4.65 40.37 0.127 7.42 9.81 12.82
12/18/2021 3:45:00 PM 4.64 40.352 0.127 7.41 9.65 12.76
12/18/2021 4:00:00 PM 4.64 40.352 0.127 7.4 9.33 12.71
12/18/2021 4:15:00 PM 4.63 40.334 0.128 7.39 9.99 12.65
12/18/2021 4:30:00 PM 4.62 40.316 0.129 7.38 10.14 12.6
12/18/2021 4:45:00 PM 4.62 40.316 0.13 7.37 10.38 12.56
12/18/2021 5:00:00 PM 4.61 40.298 0.129 7.37 10.66 12.53
12/18/2021 5:15:00 PM 4.6 40.28 0.129 7.37 11.09 12.49
12/18/2021 5:30:00 PM 4.6 40.28 0.13 7.36 11.41 12.47
12/18/2021 5:45:00 PM 4.59 40.262 0.13 7.36 11.44 12.46
12/18/2021 6:00:00 PM 4.59 40.262 0.13 7.36 12.06 12.46
12/18/2021 6:15:00 PM 4.58 40.244 0.13 7.36 13.23 12.44
12/18/2021 6:30:00 PM 4.58 40.244 0.13 7.36 12.85 12.44
12/18/2021 6:45:00 PM 4.58 40.244 0.13 7.36 13.68 12.44
12/18/2021 7:00:00 PM 4.58 40.244 0.13 7.36 13.87 12.44
12/18/2021 7:15:00 PM 4.58 40.244 0.129 7.36 14.37 12.44
12/18/2021 7:30:00 PM 4.58 40.244 0.129 7.36 14.61 12.44
12/18/2021 7:45:00 PM 4.58 40.244 0.129 7.36 14.11 12.43
12/18/2021 8:00:00 PM 4.59 40.262 0.129 7.36 14.78 12.44
12/18/2021 8:15:00 PM 4.6 40.28 0.128 7.36 14.84 12.43
12/18/2021 8:30:00 PM 4.6 40.28 0.128 7.35 15.03 12.43
12/18/2021 8:45:00 PM 4.61 40.298 0.128 7.35 15.22 12.43
12/18/2021 9:00:00 PM 4.61 40.298 0.128 7.35 15.42 12.43
12/18/2021 9:15:00 PM 4.62 40.316 0.127 7.35 15.45 12.43
12/18/2021 9:30:00 PM 4.63 40.334 0.126 7.35 15.83 12.42
12/18/2021 9:45:00 PM 4.63 40.334 0.127 7.35 16.22 12.43
12/18/2021 10:00:00 PM 4.64 40.352 0.126 7.35 16.69 12.42
12/18/2021 10:15:00 PM 4.65 40.37 0.125 7.35 16.02 12.42
12/18/2021 10:30:00 PM 4.65 40.37 0.126 7.34 16.37 12.42
12/18/2021 10:45:00 PM 4.66 40.388 0.125 7.34 15.82 12.42
12/18/2021 11:00:00 PM 4.66 40.388 0.125 7.34 16.39 12.42
12/18/2021 11:15:00 PM 4.67 40.406 0.125 7.34 15.67 12.42
12/18/2021 11:30:00 PM 4.68 40.424 0.125 7.34 15.15 12.42
12/18/2021 11:45:00 PM 4.67 40.406 0.124 7.34 15.51 12.41
12/19/2021 12:00:00 AM 4.66 40.388 0.125 7.34 15.95 12.42
12/19/2021 12:15:00 AM 4.64 40.352 0.125 7.35 15.87 12.43
12/19/2021 12:30:00 AM 4.62 40.316 0.125 7.35 15.61 12.44
12/19/2021 12:45:00 AM 4.6 40.28 0.125 7.35 15.55 12.44
12/19/2021 1:00:00 AM 4.58 40.244 0.126 7.35 15.11 12.45
12/19/2021 1:15:00 AM 4.56 40.208 0.125 7.35 15.79 12.46
12/19/2021 1:30:00 AM 4.53 40.154 0.125 7.35 15.81 12.47
12/19/2021 1:45:00 AM 4.49 40.082 0.126 7.36 16.05 12.5
12/19/2021 2:00:00 AM 4.46 40.028 0.125 7.36 16.57 12.5
12/19/2021 2:15:00 AM 4.42 39.956 0.126 7.36 16.31 12.53
12/19/2021 2:30:00 AM 4.38 39.884 0.125 7.36 16.88 12.55
12/19/2021 2:45:00 AM 4.34 39.812 0.126 7.36 16.12 12.56
12/19/2021 3:00:00 AM 4.29 39.722 0.125 7.36 17.21 12.58
12/19/2021 3:15:00 AM 4.25 39.65 0.125 7.36 17.12 12.59
12/19/2021 3:30:00 AM 4.2 39.56 0.125 7.36 17.23 12.62
12/19/2021 3:45:00 AM 4.16 39.488 0.125 7.35 16.66 12.64
12/19/2021 4:00:00 AM 4.12 39.416 0.125 7.35 16.93 12.65
12/19/2021 4:15:00 AM 4.07 39.326 0.124 7.35 15.98 12.67
12/19/2021 4:30:00 AM 4.03 39.254 0.124 7.35 16.19 12.69
12/19/2021 4:45:00 AM 3.98 39.164 0.123 7.35 16.29 12.7
12/19/2021 5:00:00 AM 3.95 39.11 0.124 7.35 16.47 12.71
12/19/2021 5:15:00 AM 3.9 39.02 0.123 7.34 15.38 12.73
12/19/2021 5:30:00 AM 3.85 38.93 0.123 7.35 15.4 12.75
12/19/2021 5:45:00 AM 3.81 38.858 0.122 7.34 15.21 12.77
12/19/2021 6:00:00 AM 3.78 38.804 0.123 7.34 15.39 12.78
12/19/2021 6:15:00 AM 3.73 38.714 0.123 7.34 14.49 12.8
12/19/2021 6:30:00 AM 3.68 38.624 0.123 7.34 14.43 12.81
12/19/2021 6:45:00 AM 3.64 38.552 0.123 7.34 14.4 12.83
12/19/2021 7:00:00 AM 3.61 38.498 0.123 7.34 14.44 12.85
12/19/2021 7:15:00 AM 3.57 38.426 0.123 7.33 14.54 12.86
12/19/2021 7:30:00 AM 3.53 38.354 0.123 7.33 14.45 12.89
12/19/2021 7:45:00 AM 3.49 38.282 0.123 7.33 14.3 12.9
12/19/2021 8:00:00 AM 3.46 38.228 0.123 7.33 14.02 12.93
12/19/2021 8:15:00 AM 3.44 38.192 0.122 7.33 13.86 12.95
12/19/2021 8:30:00 AM 3.42 38.156 0.122 7.33 13.38 12.98
12/19/2021 8:45:00 AM 3.41 38.138 0.122 7.34 13.68 13
12/19/2021 9:00:00 AM 3.39 38.102 0.122 7.34 13.42 13.02
12/19/2021 9:15:00 AM 3.37 38.066 0.122 7.34 13.26 13.07
12/19/2021 9:30:00 AM 3.35 38.03 0.122 7.35 12.71 13.15
12/19/2021 9:45:00 AM 3.34 38.012 0.122 7.36 13 13.22
12/19/2021 10:00:00 AM 3.32 37.976 0.122 7.38 12.55 13.3
12/19/2021 10:15:00 AM 3.31 37.958 0.121 7.4 12.03 13.4
12/19/2021 10:30:00 AM 3.3 37.94 0.121 7.41 12.02 13.5
12/19/2021 10:45:00 AM 3.31 37.958 0.122 7.43 12.18 13.6
12/19/2021 11:00:00 AM 3.33 37.994 0.121 7.45 11.73 13.67
12/19/2021 11:15:00 AM 3.34 38.012 0.12 7.47 11.97 13.74
12/19/2021 11:30:00 AM 3.35 38.03 0.121 7.49 11.83 13.78
12/19/2021 11:45:00 AM 3.36 38.048 0.121 7.5 11.19 13.82
12/19/2021 12:00:00 PM 3.37 38.066 0.121 7.51 11.42 13.87
12/19/2021 12:15:00 PM 3.39 38.102 0.121 7.53 11.59 13.91
12/19/2021 12:30:00 PM 3.4 38.12 0.122 7.55 10.77 13.95
12/19/2021 12:45:00 PM 3.42 38.156 0.121 7.56 10.93 13.99
12/19/2021 1:00:00 PM 3.43 38.174 0.121 7.57 11.01 14
12/19/2021 1:15:00 PM 3.44 38.192 0.121 7.58 10.5 14.01
12/19/2021 1:30:00 PM 3.43 38.174 0.121 7.58 10.75 14.01
12/19/2021 1:45:00 PM 3.43 38.174 0.12 7.58 10.68 14
12/19/2021 2:00:00 PM 3.43 38.174 0.121 7.59 10.54 14.01
12/19/2021 2:15:00 PM 3.44 38.192 0.12 7.59 10.36 14.02
12/19/2021 2:30:00 PM 3.44 38.192 0.12 7.59 10.35 14.02
12/19/2021 2:45:00 PM 3.44 38.192 0.121 7.59 10.47 14
12/19/2021 3:00:00 PM 3.43 38.174 0.121 7.58 10.34 13.97
12/19/2021 3:15:00 PM 3.4 38.12 0.121 7.57 9.95 13.93
12/19/2021 3:30:00 PM 3.37 38.066 0.121 7.55 9.94 13.89
12/19/2021 3:45:00 PM 3.34 38.012 0.121 7.52 10.53 13.81
12/19/2021 4:00:00 PM 3.3 37.94 0.121 7.5 9.98 13.72
12/19/2021 4:15:00 PM 3.26 37.868 0.12 7.46 9.92 13.61
12/19/2021 4:30:00 PM 3.22 37.796 0.121 7.44 9.8 13.52
12/19/2021 4:45:00 PM 3.18 37.724 0.121 7.41 10.27 13.44
12/19/2021 5:00:00 PM 3.14 37.652 0.122 7.38 9.72 13.37
12/19/2021 5:15:00 PM 3.09 37.562 0.122 7.36 9.8 13.32
12/19/2021 5:30:00 PM 3.06 37.508 0.122 7.35 10.04 13.27
12/19/2021 5:45:00 PM 3.01 37.418 0.123 7.34 10.22 13.26
12/19/2021 6:00:00 PM 2.98 37.364 0.123 7.32 10.05 13.25
12/19/2021 6:15:00 PM 2.95 37.31 0.122 7.3 9.88 13.24
12/19/2021 6:30:00 PM 2.92 37.256 0.122 7.28 9.78 13.24
12/19/2021 6:45:00 PM 2.9 37.22 0.122 7.28 9.25 13.23
12/19/2021 7:00:00 PM 2.87 37.166 0.122 7.28 9.77 13.23
12/19/2021 7:15:00 PM 2.83 37.094 0.123 7.28 9.74 13.24
12/19/2021 7:30:00 PM 2.8 37.04 0.122 7.27 9.73 13.24
12/19/2021 7:45:00 PM 2.78 37.004 0.123 7.27 9.41 13.25
12/19/2021 8:00:00 PM 2.76 36.968 0.123 7.27 9.58 13.26
12/19/2021 8:15:00 PM 2.73 36.914 0.123 7.27 9.42 13.26
12/19/2021 8:30:00 PM 2.71 36.878 0.122 7.27 9.66 13.27
12/19/2021 8:45:00 PM 2.68 36.824 0.122 7.27 9.61 13.28
12/19/2021 9:00:00 PM 2.66 36.788 0.122 7.28 9.62 13.29
12/19/2021 9:15:00 PM 2.64 36.752 0.122 7.27 9.38 13.29
12/19/2021 9:30:00 PM 2.62 36.716 0.122 7.27 9.06 13.3
12/19/2021 9:45:00 PM 2.6 36.68 0.122 7.27 9.58 13.31
12/19/2021 10:00:00 PM 2.58 36.644 0.122 7.27 9.04 13.31
12/19/2021 10:15:00 PM 2.56 36.608 0.122 7.27 9 13.31
12/19/2021 10:30:00 PM 2.54 36.572 0.122 7.27 9.33 13.32
12/19/2021 10:45:00 PM 2.51 36.518 0.123 7.27 9.21 13.33
12/19/2021 11:00:00 PM 2.5 36.5 0.123 7.27 9.3 13.33
12/19/2021 11:15:00 PM 2.48 36.464 0.123 7.27 9.08 13.34
12/19/2021 11:30:00 PM 2.47 36.446 0.123 7.27 9.07 13.35
12/19/2021 11:45:00 PM 2.45 36.41 0.124 7.27 9.44 13.35
12/20/2021 12:00:00 AM 2.43 36.374 0.124 7.27 9.08 13.36
12/20/2021 12:15:00 AM 2.41 36.338 0.123 7.27 9.3 13.37
12/20/2021 12:30:00 AM 2.39 36.302 0.123 7.27 9.15 13.37
12/20/2021 12:45:00 AM 2.38 36.284 0.123 7.27 8.98 13.38
12/20/2021 1:00:00 AM 2.37 36.266 0.124 7.28 9.19 13.39
12/20/2021 1:15:00 AM 2.35 36.23 0.124 7.27 9.11 13.38
12/20/2021 1:30:00 AM 2.33 36.194 0.123 7.27 8.88 13.4
12/20/2021 1:45:00 AM 2.31 36.158 0.123 7.27 9.33 13.4
12/20/2021 2:00:00 AM 2.3 36.14 0.123 7.27 9.18 13.41
12/20/2021 2:15:00 AM 2.27 36.086 0.124 7.27 9.07 13.41
12/20/2021 2:30:00 AM 2.23 36.014 0.124 7.27 9.11 13.42
12/20/2021 2:45:00 AM 2.18 35.924 0.124 7.26 9.16 13.43
12/20/2021 3:00:00 AM 2.14 35.852 0.123 7.26 9.15 13.44
12/20/2021 3:15:00 AM 2.08 35.744 0.123 7.26 8.95 13.46
12/20/2021 3:30:00 AM 2.04 35.672 0.124 7.26 8.98 13.47
12/20/2021 3:45:00 AM 1.99 35.582 0.125 7.26 9.16 13.5
12/20/2021 4:00:00 AM 1.95 35.51 0.124 7.25 9.14 13.51
12/20/2021 4:15:00 AM 1.9 35.42 0.125 7.25 8.93 13.53
12/20/2021 4:30:00 AM 1.86 35.348 0.125 7.25 9.29 13.54
12/20/2021 4:45:00 AM 1.82 35.276 0.125 7.24 9.07 13.54
12/20/2021 5:00:00 AM 1.78 35.204 0.125 7.24 9.21 13.57
12/20/2021 5:15:00 AM 1.74 35.132 0.125 7.24 9.09 13.58
12/20/2021 5:30:00 AM 1.69 35.042 0.124 7.24 8.95 13.61
12/20/2021 5:45:00 AM 1.65 34.97 0.125 7.24 8.98 13.63
12/20/2021 6:00:00 AM 1.61 34.898 0.124 7.24 9.04 13.65
12/20/2021 6:15:00 AM 1.57 34.826 0.125 7.25 9.02 13.65
12/20/2021 6:30:00 AM 1.54 34.772 0.125 7.25 8.91 13.67
12/20/2021 6:45:00 AM 1.5 34.7 0.124 7.24 8.94 13.69
12/20/2021 7:00:00 AM 1.47 34.646 0.125 7.24 8.71 13.7
12/20/2021 7:15:00 AM 1.43 34.574 0.125 7.24 8.79 13.71
12/20/2021 7:30:00 AM 1.4 34.52 0.125 7.25 9.17 13.74
12/20/2021 7:45:00 AM 1.37 34.466 0.126 7.25 8.69 13.79
12/20/2021 8:00:00 AM 1.35 34.43 0.126 7.27 8.78 13.85
12/20/2021 8:15:00 AM 1.35 34.43 0.125 7.29 8.79 13.96
12/20/2021 8:30:00 AM 1.37 34.466 0.126 7.31 8.86 14.1
12/20/2021 8:45:00 AM 1.41 34.538 0.126 7.34 8.88 14.24
12/20/2021 9:00:00 AM 1.45 34.61 0.124 7.37 8.8 14.37
12/20/2021 9:15:00 AM 1.49 34.682 0.124 7.4 8.82 14.45
12/20/2021 9:30:00 AM 1.51 34.718 0.124 7.41 8.69 14.53
12/20/2021 9:45:00 AM 1.55 34.79 0.125 7.43 8.84 14.59
12/20/2021 10:00:00 AM 1.61 34.898 0.124 7.46 8.86 14.65
12/20/2021 10:15:00 AM 1.66 34.988 0.124 7.47 8.79 14.69
12/20/2021 10:30:00 AM 1.74 35.132 0.124 7.49 8.62 14.73
12/20/2021 10:45:00 AM 1.83 35.294 0.124 7.51 8.56 14.77
12/20/2021 11:00:00 AM 1.9 35.42 0.125 7.52 8.79 14.77
12/20/2021 11:15:00 AM 2 35.6 0.125 7.54 8.72 14.79
12/20/2021 11:30:00 AM 2.09 35.762 0.124 7.55 8.58 14.77
12/20/2021 11:45:00 AM 2.18 35.924 0.124 7.56 8.83 14.74
12/20/2021 12:00:00 PM 2.31 36.158 0.124 7.57 8.66 14.71
12/20/2021 12:15:00 PM 2.44 36.392 0.124 7.57 8.71 14.67
12/20/2021 12:30:00 PM 2.55 36.59 0.124 7.58 8.6 14.63
12/20/2021 12:45:00 PM 2.67 36.806 0.124 7.59 8.55 14.6
12/20/2021 1:00:00 PM 2.78 37.004 0.124 7.59 8.74 14.56
12/20/2021 1:15:00 PM 2.88 37.184 0.123 7.6 8.64 14.51
12/20/2021 1:30:00 PM 2.97 37.346 0.124 7.6 8.94 14.47
12/20/2021 1:45:00 PM 3.04 37.472 0.124 7.61 9.04 14.42
12/20/2021 2:00:00 PM 3.11 37.598 0.124 7.61 9.11 14.41
12/20/2021 2:15:00 PM 3.16 37.688 0.124 7.61 9.02 14.37
12/20/2021 2:30:00 PM 3.25 37.85 0.123 7.63 9.11 14.37
12/20/2021 2:45:00 PM 3.29 37.922 0.124 7.63 8.86 14.35
12/20/2021 3:00:00 PM 3.28 37.904 0.123 7.63 8.94 14.3
12/20/2021 3:15:00 PM 3.25 37.85 0.123 7.62 9.22 14.25
12/20/2021 3:30:00 PM 3.2 37.76 0.123 7.6 9.03 14.19
12/20/2021 3:45:00 PM 3.14 37.652 0.124 7.58 8.88 14.11
12/20/2021 4:00:00 PM 3.08 37.544 0.124 7.55 9.69 14.03
12/20/2021 4:15:00 PM 3.01 37.418 0.124 7.53 9.13 13.95
12/20/2021 4:30:00 PM 2.93 37.274 0.125 7.5 9.28 13.86
12/20/2021 4:45:00 PM 2.86 37.148 0.124 7.47 8.98 13.76
12/20/2021 5:00:00 PM 2.79 37.022 0.124 7.44 9.13 13.66
12/20/2021 5:15:00 PM 2.73 36.914 0.125 7.41 9.27 13.57
12/20/2021 5:30:00 PM 2.67 36.806 0.125 7.38 8.81 13.49
12/20/2021 5:45:00 PM 2.62 36.716 0.125 7.37 9.13 13.44
12/20/2021 6:00:00 PM 2.57 36.626 0.125 7.35 8.73 13.4
12/20/2021 6:15:00 PM 2.53 36.554 0.126 7.34 9.01 13.38
12/20/2021 6:30:00 PM 2.47 36.446 0.125 7.33 8.81 13.37
12/20/2021 6:45:00 PM 2.43 36.374 0.126 7.32 9.12 13.36
12/20/2021 7:00:00 PM 2.38 36.284 0.126 7.32 8.92 13.36
12/20/2021 7:15:00 PM 2.34 36.212 0.126 7.31 8.85 13.37
12/20/2021 7:30:00 PM 2.29 36.122 0.126 7.3 9.37 13.37
12/20/2021 7:45:00 PM 2.25 36.05 0.126 7.3 9.42 13.38
12/20/2021 8:00:00 PM 2.21 35.978 0.126 7.3 9.53 13.39
12/20/2021 8:15:00 PM 2.18 35.924 0.126 7.3 9.32 13.4
12/20/2021 8:30:00 PM 2.15 35.87 0.126 7.3 9.34 13.4
12/20/2021 8:45:00 PM 2.13 35.834 0.126 7.29 9.08 13.41
12/20/2021 9:00:00 PM 2.09 35.762 0.126 7.29 9.43 13.42
12/20/2021 9:15:00 PM 2.06 35.708 0.126 7.29 10.25 13.43
12/20/2021 9:30:00 PM 2.02 35.636 0.127 7.29 11.94 13.44
12/20/2021 9:45:00 PM 1.99 35.582 0.127 7.29 14.79 13.44
12/20/2021 10:00:00 PM 1.95 35.51 0.126 7.29 16.32 13.45
12/20/2021 10:15:00 PM 1.91 35.438 0.127 7.29 17.17 13.46
12/20/2021 10:30:00 PM 1.88 35.384 0.127 7.28 17.3 13.48
12/20/2021 10:45:00 PM 1.84 35.312 0.127 7.28 16.02 13.5
12/20/2021 11:00:00 PM 1.8 35.24 0.127 7.28 15.37 13.51
12/20/2021 11:15:00 PM 1.76 35.168 0.127 7.28 13.94 13.52
12/20/2021 11:30:00 PM 1.72 35.096 0.127 7.28 12.91 13.53
12/20/2021 11:45:00 PM 1.69 35.042 0.126 7.28 12.23 13.55
12/21/2021 12:00:00 AM 1.65 34.97 0.127 7.28 11.45 13.56
12/21/2021 12:15:00 AM 1.62 34.916 0.127 7.28 11.11 13.57
12/21/2021 12:30:00 AM 1.58 34.844 0.127 7.28 10.45 13.58
12/21/2021 12:45:00 AM 1.55 34.79 0.127 7.28 9.95 13.59
12/21/2021 1:00:00 AM 1.53 34.754 0.127 7.28 9.74 13.6
12/21/2021 1:15:00 AM 1.5 34.7 0.126 7.28 10.14 13.61
12/21/2021 1:30:00 AM 1.47 34.646 0.127 7.27 9.47 13.62
12/21/2021 1:45:00 AM 1.44 34.592 0.126 7.28 9.9 13.63
12/21/2021 2:00:00 AM 1.42 34.556 0.127 7.27 9.47 13.64
12/21/2021 2:15:00 AM 1.4 34.52 0.127 7.27 9.37 13.65
12/21/2021 2:30:00 AM 1.39 34.502 0.127 7.27 9.21 13.65
12/21/2021 2:45:00 AM 1.37 34.466 0.127 7.27 9.3 13.66
12/21/2021 3:00:00 AM 1.37 34.466 0.127 7.27 9.28 13.66
12/21/2021 3:15:00 AM 1.35 34.43 0.127 7.27 9.11 13.66
12/21/2021 3:30:00 AM 1.35 34.43 0.127 7.27 9.06 13.67
12/21/2021 3:45:00 AM 1.34 34.412 0.127 7.27 9.18 13.67
12/21/2021 4:00:00 AM 1.34 34.412 0.127 7.27 8.95 13.67
12/21/2021 4:15:00 AM 1.34 34.412 0.127 7.27 9.23 13.68
12/21/2021 4:30:00 AM 1.36 34.448 0.127 7.27 9.01 13.67
12/21/2021 4:45:00 AM 1.37 34.466 0.127 7.27 9.15 13.67
12/21/2021 5:00:00 AM 1.4 34.52 0.127 7.27 8.99 13.66
12/21/2021 5:15:00 AM 1.43 34.574 0.127 7.27 9.08 13.66
12/21/2021 5:30:00 AM 1.46 34.628 0.127 7.27 9.03 13.64
12/21/2021 5:45:00 AM 1.49 34.682 0.127 7.27 9.15 13.64
12/21/2021 6:00:00 AM 1.51 34.718 0.127 7.27 9.32 13.63
12/21/2021 6:15:00 AM 1.53 34.754 0.127 7.27 9.11 13.62
12/21/2021 6:30:00 AM 1.55 34.79 0.127 7.27 9.14 13.62
12/21/2021 6:45:00 AM 1.57 34.826 0.127 7.27 9.17 13.61
12/21/2021 7:00:00 AM 1.59 34.862 0.127 7.27 9.31 13.6
12/21/2021 7:15:00 AM 1.61 34.898 0.127 7.27 9.15 13.6
12/21/2021 7:30:00 AM 1.62 34.916 0.127 7.27 9.28 13.58
12/21/2021 7:45:00 AM 1.62 34.916 0.127 7.27 9.19 13.61
12/21/2021 8:00:00 AM 1.61 34.898 0.127 7.28 9.13 13.66
12/21/2021 8:15:00 AM 1.6 34.88 0.127 7.29 9.07 13.76
12/21/2021 8:30:00 AM 1.61 34.898 0.127 7.31 9.19 13.88
12/21/2021 8:45:00 AM 1.64 34.952 0.127 7.34 9.04 14.05
12/21/2021 9:00:00 AM 1.69 35.042 0.127 7.37 9.05 14.19
12/21/2021 9:15:00 AM 1.75 35.15 0.127 7.4 9.06 14.32
12/21/2021 9:30:00 AM 1.83 35.294 0.127 7.43 9 14.43
12/21/2021 9:45:00 AM 1.9 35.42 0.127 7.45 8.96 14.5
12/21/2021 10:00:00 AM 1.97 35.546 0.127 7.47 9.01 14.57
12/21/2021 10:15:00 AM 2.03 35.654 0.127 7.5 8.65 14.61
12/21/2021 10:30:00 AM 2.09 35.762 0.126 7.51 8.68 14.62
12/21/2021 10:45:00 AM 2.17 35.906 0.126 7.53 8.72 14.64
12/21/2021 11:00:00 AM 2.24 36.032 0.126 7.54 8.91 14.64
12/21/2021 11:15:00 AM 2.33 36.194 0.126 7.55 8.57 14.64
12/21/2021 11:30:00 AM 2.42 36.356 0.126 7.57 8.71 14.64
12/21/2021 11:45:00 AM 2.53 36.554 0.126 7.58 8.81 14.61
12/21/2021 12:00:00 PM 2.66 36.788 0.126 7.59 8.91 14.59
12/21/2021 12:15:00 PM 2.78 37.004 0.125 7.6 8.79 14.57
12/21/2021 12:30:00 PM 2.88 37.184 0.126 7.61 8.94 14.52
12/21/2021 12:45:00 PM 3.01 37.418 0.126 7.62 9.22 14.49
12/21/2021 1:00:00 PM 3.13 37.634 0.125 7.63 9.46 14.44
12/21/2021 1:15:00 PM 3.23 37.814 0.125 7.63 10.34 14.4
12/21/2021 1:30:00 PM 3.35 38.03 0.125 7.64 11.65 14.35
12/21/2021 1:45:00 PM 3.44 38.192 0.125 7.65 11.04 14.3
12/21/2021 2:00:00 PM 3.51 38.318 0.125 7.65 11.03 14.25
12/21/2021 2:15:00 PM 3.57 38.426 0.125 7.66 10.93 14.21
12/21/2021 2:30:00 PM 3.6 38.48 0.125 7.66 10.49 14.16
12/21/2021 2:45:00 PM 3.63 38.534 0.125 7.65 10.05 14.11
12/21/2021 3:00:00 PM 3.62 38.516 0.125 7.64 9.87 14.06
12/21/2021 3:15:00 PM 3.59 38.462 0.125 7.63 9.89 14
12/21/2021 3:30:00 PM 3.54 38.372 0.125 7.61 9.4 13.95
12/21/2021 3:45:00 PM 3.49 38.282 0.125 7.59 9.19 13.89
12/21/2021 4:00:00 PM 3.43 38.174 0.125 7.56 9.27 13.82
12/21/2021 4:15:00 PM 3.36 38.048 0.125 7.54 9.1 13.75
12/21/2021 4:30:00 PM 3.28 37.904 0.125 7.5 8.99 13.67
12/21/2021 4:45:00 PM 3.19 37.742 0.125 7.47 9.14 13.57
12/21/2021 5:00:00 PM 3.11 37.598 0.126 7.44 9.53 13.46
12/21/2021 5:15:00 PM 3.03 37.454 0.126 7.41 10.28 13.37
12/21/2021 5:30:00 PM 2.96 37.328 0.126 7.38 10.44 13.29
12/21/2021 5:45:00 PM 2.9 37.22 0.126 7.37 10.13 13.24
12/21/2021 6:00:00 PM 2.84 37.112 0.126 7.35 9.81 13.21
12/21/2021 6:15:00 PM 2.79 37.022 0.126 7.34 9.59 13.18
12/21/2021 6:30:00 PM 2.73 36.914 0.126 7.33 9.75 13.16
12/21/2021 6:45:00 PM 2.68 36.824 0.126 7.32 9.46 13.16
12/21/2021 7:00:00 PM 2.63 36.734 0.126 7.31 9.51 13.15
12/21/2021 7:15:00 PM 2.59 36.662 0.126 7.31 9.92 13.15
12/21/2021 7:30:00 PM 2.54 36.572 0.126 7.3 11.52 13.16
12/21/2021 7:45:00 PM 2.5 36.5 0.127 7.3 15.1 13.16
12/21/2021 8:00:00 PM 2.45 36.41 0.127 7.3 18.86 13.16
12/21/2021 8:15:00 PM 2.41 36.338 0.127 7.29 21.72 13.18
12/21/2021 8:30:00 PM 2.36 36.248 0.127 7.29 20.33 13.19
12/21/2021 8:45:00 PM 2.32 36.176 0.127 7.29 19.41 13.2
12/21/2021 9:00:00 PM 2.28 36.104 0.127 7.29 17.48 13.2
12/21/2021 9:15:00 PM 2.24 36.032 0.127 7.29 16.41 13.22
12/21/2021 9:30:00 PM 2.21 35.978 0.127 7.29 14.24 13.22
12/21/2021 9:45:00 PM 2.18 35.924 0.127 7.29 13.37 13.24
12/21/2021 10:00:00 PM 2.14 35.852 0.127 7.29 12.6 13.25
12/21/2021 10:15:00 PM 2.1 35.78 0.127 7.29 11.85 13.26
12/21/2021 10:30:00 PM 2.05 35.69 0.127 7.28 11.51 13.28
12/21/2021 10:45:00 PM 2.01 35.618 0.127 7.28 10.9 13.29
12/21/2021 11:00:00 PM 1.96 35.528 0.127 7.28 10.37 13.3
12/21/2021 11:15:00 PM 1.92 35.456 0.127 7.28 10.25 13.31
12/21/2021 11:30:00 PM 1.88 35.384 0.127 7.28 10.59 13.33
12/21/2021 11:45:00 PM 1.84 35.312 0.127 7.28 10.06 13.34
12/22/2021 12:00:00 AM 1.8 35.24 0.127 7.28 9.92 13.36
12/22/2021 12:15:00 AM 1.76 35.168 0.127 7.28 9.86 13.35
12/22/2021 12:30:00 AM 1.73 35.114 0.127 7.27 9.74 13.37
12/22/2021 12:45:00 AM 1.69 35.042 0.127 7.27 9.94 13.39
12/22/2021 1:00:00 AM 1.66 34.988 0.127 7.27 9.59 13.4
12/22/2021 1:15:00 AM 1.63 34.934 0.127 7.27 9.52 13.41
12/22/2021 1:30:00 AM 1.61 34.898 0.127 7.27 9.67 13.41
12/22/2021 1:45:00 AM 1.58 34.844 0.127 7.27 9.42 13.42
12/22/2021 2:00:00 AM 1.56 34.808 0.127 7.27 9.58 13.42
12/22/2021 2:15:00 AM 1.54 34.772 0.127 7.27 9.6 13.43
12/22/2021 2:30:00 AM 1.52 34.736 0.127 7.27 9.65 13.43
12/22/2021 2:45:00 AM 1.5 34.7 0.127 7.27 9.63 13.44
12/22/2021 3:00:00 AM 1.48 34.664 0.127 7.27 9.48 13.44
12/22/2021 3:15:00 AM 1.46 34.628 0.127 7.27 9.36 13.45
12/22/2021 3:30:00 AM 1.45 34.61 0.127 7.27 9.38 13.45
12/22/2021 3:45:00 AM 1.43 34.574 0.127 7.27 9.52 13.46
12/22/2021 4:00:00 AM 1.41 34.538 0.127 7.27 9.59 13.46
12/22/2021 4:15:00 AM 1.4 34.52 0.127 7.27 9.63 13.46
12/22/2021 4:30:00 AM 1.39 34.502 0.127 7.27 9.45 13.46
12/22/2021 4:45:00 AM 1.37 34.466 0.127 7.27 9.52 13.46
12/22/2021 5:00:00 AM 1.36 34.448 0.127 7.27 9.39 13.47
12/22/2021 5:15:00 AM 1.35 34.43 0.127 7.27 9.66 13.47
12/22/2021 5:30:00 AM 1.35 34.43 0.127 7.27 9.59 13.47
12/22/2021 5:45:00 AM 1.37 34.466 0.127 7.27 9.75 13.47
12/22/2021 6:00:00 AM 1.4 34.52 0.127 7.27 9.54 13.47
12/22/2021 6:15:00 AM 1.42 34.556 0.127 7.27 9.62 13.46
12/22/2021 6:30:00 AM 1.43 34.574 0.127 7.27 9.5 13.46
12/22/2021 6:45:00 AM 1.44 34.592 0.127 7.27 9.59 13.46
12/22/2021 7:00:00 AM 1.46 34.628 0.127 7.27 9.75 13.45
12/22/2021 7:15:00 AM 1.47 34.646 0.127 7.27 9.58 13.44
12/22/2021 7:30:00 AM 1.48 34.664 0.127 7.27 9.54 13.44
12/22/2021 7:45:00 AM 1.49 34.682 0.127 7.27 9.51 13.45
12/22/2021 8:00:00 AM 1.51 34.718 0.127 7.27 9.33 13.47
12/22/2021 8:15:00 AM 1.54 34.772 0.127 7.28 9.35 13.52
12/22/2021 8:30:00 AM 1.57 34.826 0.127 7.29 9.37 13.58
12/22/2021 8:45:00 AM 1.61 34.898 0.127 7.31 9.22 13.67
12/22/2021 9:00:00 AM 1.66 34.988 0.127 7.33 9.36 13.79
12/22/2021 9:15:00 AM 1.71 35.078 0.127 7.35 9.1 13.89
12/22/2021 9:30:00 AM 1.76 35.168 0.127 7.37 9.38 14
12/22/2021 9:45:00 AM 1.81 35.258 0.127 7.39 9.12 14.04
12/22/2021 10:00:00 AM 1.87 35.366 0.127 7.4 9.27 14.11
12/22/2021 10:15:00 AM 1.93 35.474 0.127 7.42 9.17 14.17
12/22/2021 10:30:00 AM 1.98 35.564 0.127 7.44 9.42 14.21
12/22/2021 10:45:00 AM 2.03 35.654 0.127 7.45 9.29 14.21
12/22/2021 11:00:00 AM 2.06 35.708 0.126 7.46 9.25 14.18
12/22/2021 11:15:00 AM 2.08 35.744 0.127 7.46 8.94 14.13
12/22/2021 11:30:00 AM 2.11 35.798 0.126 7.46 9.02 14.11
12/22/2021 11:45:00 AM 2.15 35.87 0.126 7.47 9.03 14.14
12/22/2021 12:00:00 PM 2.23 36.014 0.126 7.49 9.11 14.21
12/22/2021 12:15:00 PM 2.3 36.14 0.126 7.51 9.05 14.25
12/22/2021 12:30:00 PM 2.32 36.176 0.126 7.51 8.92 14.23
12/22/2021 12:45:00 PM 2.36 36.248 0.126 7.52 8.98 14.23
12/22/2021 1:00:00 PM 2.38 36.284 0.126 7.53 9.07 14.23
12/22/2021 1:15:00 PM 2.39 36.302 0.126 7.54 8.92 14.24
12/22/2021 1:30:00 PM 2.39 36.302 0.126 7.55 8.94 14.28
12/22/2021 1:45:00 PM 2.38 36.284 0.126 7.56 8.99 14.3
12/22/2021 2:00:00 PM 2.42 36.356 0.125 7.58 8.96 14.35
12/22/2021 2:15:00 PM 2.48 36.464 0.125 7.59 8.9 14.38
12/22/2021 2:30:00 PM 2.53 36.554 0.125 7.61 9.1 14.4
12/22/2021 2:45:00 PM 2.55 36.59 0.125 7.61 9.12 14.39
12/22/2021 3:00:00 PM 2.53 36.554 0.125 7.61 9 14.35
12/22/2021 3:15:00 PM 2.48 36.464 0.125 7.59 9.13 14.27
12/22/2021 3:30:00 PM 2.41 36.338 0.125 7.56 9.07 14.17
12/22/2021 3:45:00 PM 2.35 36.23 0.126 7.53 8.98 14.09
12/22/2021 4:00:00 PM 2.29 36.122 0.126 7.5 9.15 13.99
12/22/2021 4:15:00 PM 2.24 36.032 0.125 7.47 9.02 13.9
12/22/2021 4:30:00 PM 2.18 35.924 0.126 7.45 8.97 13.82
12/22/2021 4:45:00 PM 2.13 35.834 0.126 7.42 8.98 13.73
12/22/2021 5:00:00 PM 2.09 35.762 0.126 7.39 9.15 13.64
12/22/2021 5:15:00 PM 2.04 35.672 0.126 7.37 9.05 13.58
12/22/2021 5:30:00 PM 2 35.6 0.126 7.36 9.13 13.54
12/22/2021 5:45:00 PM 1.96 35.528 0.127 7.34 8.96 13.49
12/22/2021 6:00:00 PM 1.93 35.474 0.126 7.33 9.04 13.48
12/22/2021 6:15:00 PM 1.9 35.42 0.127 7.32 9.09 13.46
12/22/2021 6:30:00 PM 1.84 35.312 0.127 7.32 9.17 13.46
12/22/2021 6:45:00 PM 1.79 35.222 0.127 7.31 9.2 13.46
12/22/2021 7:00:00 PM 1.74 35.132 0.127 7.3 9.4 13.46
12/22/2021 7:15:00 PM 1.7 35.06 0.127 7.3 9.3 13.47
12/22/2021 7:30:00 PM 1.65 34.97 0.127 7.3 9.2 13.49
12/22/2021 7:45:00 PM 1.62 34.916 0.127 7.3 9.23 13.49
12/22/2021 8:00:00 PM 1.6 34.88 0.127 7.3 9.22 13.5
12/22/2021 8:15:00 PM 1.57 34.826 0.127 7.29 9.28 13.51
12/22/2021 8:30:00 PM 1.56 34.808 0.127 7.29 9.12 13.52
12/22/2021 8:45:00 PM 1.56 34.808 0.127 7.29 9.03 13.53
12/22/2021 9:00:00 PM 1.55 34.79 0.127 7.29 9.37 13.53
12/22/2021 9:15:00 PM 1.54 34.772 0.127 7.29 9.17 13.53
12/22/2021 9:30:00 PM 1.53 34.754 0.127 7.29 9.27 13.54
12/22/2021 9:45:00 PM 1.51 34.718 0.127 7.28 9.15 13.55
12/22/2021 10:00:00 PM 1.49 34.682 0.127 7.28 9.36 13.55
12/22/2021 10:15:00 PM 1.47 34.646 0.127 7.28 9.43 13.56
12/22/2021 10:30:00 PM 1.45 34.61 0.127 7.28 9.34 13.56
12/22/2021 10:45:00 PM 1.45 34.61 0.127 7.28 9.32 13.56
12/22/2021 11:00:00 PM 1.44 34.592 0.127 7.28 9.26 13.57
12/22/2021 11:15:00 PM 1.42 34.556 0.127 7.28 9.1 13.58
12/22/2021 11:30:00 PM 1.41 34.538 0.127 7.28 9.06 13.58
12/22/2021 11:45:00 PM 1.42 34.556 0.127 7.28 9.23 13.59
12/23/2021 12:00:00 AM 1.42 34.556 0.127 7.28 9.13 13.59
12/23/2021 12:15:00 AM 1.42 34.556 0.127 7.28 9.23 13.59
12/23/2021 12:30:00 AM 1.42 34.556 0.128 7.28 9.3 13.59
12/23/2021 12:45:00 AM 1.42 34.556 0.128 7.28 9.18 13.6
12/23/2021 1:00:00 AM 1.42 34.556 0.127 7.28 9.21 13.59
12/23/2021 1:15:00 AM 1.42 34.556 0.127 7.27 9.13 13.59
12/23/2021 1:30:00 AM 1.42 34.556 0.128 7.27 9.16 13.59
12/23/2021 1:45:00 AM 1.42 34.556 0.128 7.27 9.16 13.59
12/23/2021 2:00:00 AM 1.42 34.556 0.128 7.27 9.11 13.6
12/23/2021 2:15:00 AM 1.41 34.538 0.128 7.27 9.16 13.6
12/23/2021 2:30:00 AM 1.41 34.538 0.128 7.27 9.24 13.61
12/23/2021 2:45:00 AM 1.4 34.52 0.128 7.27 8.96 13.6
12/23/2021 3:00:00 AM 1.38 34.484 0.128 7.27 9.25 13.61
12/23/2021 3:15:00 AM 1.37 34.466 0.128 7.27 9.08 13.61
12/23/2021 3:30:00 AM 1.34 34.412 0.128 7.27 8.99 13.63
12/23/2021 3:45:00 AM 1.32 34.376 0.128 7.27 9.15 13.63
12/23/2021 4:00:00 AM 1.31 34.358 0.128 7.27 9.14 13.63
12/23/2021 4:15:00 AM 1.28 34.304 0.128 7.27 9.05 13.64
12/23/2021 4:30:00 AM 1.27 34.286 0.128 7.27 9.21 13.64
12/23/2021 4:45:00 AM 1.25 34.25 0.128 7.27 8.87 13.65
12/23/2021 5:00:00 AM 1.25 34.25 0.128 7.27 9.17 13.65
12/23/2021 5:15:00 AM 1.25 34.25 0.128 7.27 8.9 13.66
12/23/2021 5:30:00 AM 1.25 34.25 0.128 7.27 9.02 13.66
12/23/2021 5:45:00 AM 1.25 34.25 0.128 7.27 9.19 13.67
12/23/2021 6:00:00 AM 1.25 34.25 0.128 7.27 9.17 13.67
12/23/2021 6:15:00 AM 1.25 34.25 0.128 7.27 8.81 13.67
12/23/2021 6:30:00 AM 1.25 34.25 0.128 7.27 9.18 13.67
12/23/2021 6:45:00 AM 1.25 34.25 0.128 7.26 9.13 13.68
12/23/2021 7:00:00 AM 1.24 34.232 0.128 7.26 9.42 13.68
12/23/2021 7:15:00 AM 1.24 34.232 0.128 7.26 8.98 13.69
12/23/2021 7:30:00 AM 1.23 34.214 0.129 7.26 9.17 13.69
12/23/2021 7:45:00 AM 1.23 34.214 0.129 7.27 9.23 13.71
12/23/2021 8:00:00 AM 1.23 34.214 0.129 7.27 9.12 13.75
12/23/2021 8:15:00 AM 1.24 34.232 0.129 7.28 9.2 13.8
12/23/2021 8:30:00 AM 1.25 34.25 0.129 7.29 9.11 13.88
12/23/2021 8:45:00 AM 1.26 34.268 0.129 7.3 9.18 13.98
12/23/2021 9:00:00 AM 1.28 34.304 0.129 7.32 9.16 14.11
12/23/2021 9:15:00 AM 1.31 34.358 0.129 7.35 8.97 14.25
12/23/2021 9:30:00 AM 1.35 34.43 0.128 7.38 9.16 14.4
12/23/2021 9:45:00 AM 1.39 34.502 0.129 7.4 8.87 14.52
12/23/2021 10:00:00 AM 1.46 34.628 0.128 7.43 9.11 14.65
12/23/2021 10:15:00 AM 1.52 34.736 0.128 7.46 9.15 14.74
12/23/2021 10:30:00 AM 1.61 34.898 0.128 7.48 9.11 14.81
12/23/2021 10:45:00 AM 1.69 35.042 0.128 7.51 9.11 14.86
12/23/2021 11:00:00 AM 1.76 35.168 0.128 7.53 9.15 14.88
12/23/2021 11:15:00 AM 1.84 35.312 0.128 7.55 9.14 14.89
12/23/2021 11:30:00 AM 1.89 35.402 0.128 7.56 9.06 14.91
12/23/2021 11:45:00 AM 1.94 35.492 0.127 7.58 8.98 14.91
12/23/2021 12:00:00 PM 2.01 35.618 0.127 7.59 9.01 14.92
12/23/2021 12:15:00 PM 2.11 35.798 0.127 7.6 8.97 14.91
12/23/2021 12:30:00 PM 2.24 36.032 0.127 7.61 8.98 14.9
12/23/2021 12:45:00 PM 2.36 36.248 0.127 7.62 8.96 14.86
12/23/2021 1:00:00 PM 2.49 36.482 0.127 7.63 8.93 14.81
12/23/2021 1:15:00 PM 2.6 36.68 0.127 7.63 8.9 14.77
12/23/2021 1:30:00 PM 2.68 36.824 0.127 7.63 8.59 14.72
12/23/2021 1:45:00 PM 2.71 36.878 0.127 7.63 8.79 14.67
12/23/2021 2:00:00 PM 2.72 36.896 0.127 7.63 8.69 14.6
12/23/2021 2:15:00 PM 2.7 36.86 0.127 7.62 8.88 14.55
12/23/2021 2:30:00 PM 2.62 36.716 0.127 7.61 8.97 14.51
12/23/2021 2:45:00 PM 2.59 36.662 0.127 7.6 8.93 14.49
12/23/2021 3:00:00 PM 2.56 36.608 0.127 7.59 8.9 14.48
12/23/2021 3:15:00 PM 2.52 36.536 0.127 7.59 8.87 14.46
12/23/2021 3:30:00 PM 2.47 36.446 0.127 7.58 8.83 14.43
12/23/2021 3:45:00 PM 2.42 36.356 0.127 7.56 9 14.39
12/23/2021 4:00:00 PM 2.38 36.284 0.127 7.55 8.95 14.34
12/23/2021 4:15:00 PM 2.35 36.23 0.127 7.53 9.06 14.27
12/23/2021 4:30:00 PM 2.31 36.158 0.127 7.5 9.15 14.17
12/23/2021 4:45:00 PM 2.26 36.068 0.127 7.47 9.17 14.06
12/23/2021 5:00:00 PM 2.21 35.978 0.128 7.44 9.15 13.94
12/23/2021 5:15:00 PM 2.16 35.888 0.128 7.41 9.56 13.83
12/23/2021 5:30:00 PM 2.12 35.816 0.128 7.38 9.26 13.74
12/23/2021 5:45:00 PM 2.09 35.762 0.128 7.36 9.12 13.67
12/23/2021 6:00:00 PM 2.06 35.708 0.128 7.34 9.06 13.61
12/23/2021 6:15:00 PM 2.04 35.672 0.128 7.33 8.93 13.58
12/23/2021 6:30:00 PM 2.01 35.618 0.128 7.32 9.15 13.56
12/23/2021 6:45:00 PM 1.99 35.582 0.128 7.31 9.1 13.54
12/23/2021 7:00:00 PM 1.97 35.546 0.129 7.3 9.22 13.51
12/23/2021 7:15:00 PM 1.95 35.51 0.129 7.3 9.26 13.52
12/23/2021 7:30:00 PM 1.93 35.474 0.129 7.3 9.18 13.5
12/23/2021 7:45:00 PM 1.92 35.456 0.129 7.29 9.03 13.5
12/23/2021 8:00:00 PM 1.9 35.42 0.129 7.29 9.07 13.5
12/23/2021 8:15:00 PM 1.89 35.402 0.129 7.29 9.11 13.49
12/23/2021 8:30:00 PM 1.88 35.384 0.129 7.28 9.27 13.49
12/23/2021 8:45:00 PM 1.88 35.384 0.129 7.28 8.94 13.48
12/23/2021 9:00:00 PM 1.86 35.348 0.129 7.28 9.26 13.48
12/23/2021 9:15:00 PM 1.84 35.312 0.129 7.28 9.22 13.47
12/23/2021 9:30:00 PM 1.83 35.294 0.129 7.28 9.19 13.48
12/23/2021 9:45:00 PM 1.82 35.276 0.129 7.28 9.22 13.47
12/23/2021 10:00:00 PM 1.82 35.276 0.129 7.27 8.96 13.47
12/23/2021 10:15:00 PM 1.82 35.276 0.129 7.28 8.88 13.47
12/23/2021 10:30:00 PM 1.82 35.276 0.129 7.27 9.12 13.47
12/23/2021 10:45:00 PM 1.82 35.276 0.129 7.27 9.16 13.45
12/23/2021 11:00:00 PM 1.82 35.276 0.13 7.27 9.25 13.45
12/23/2021 11:15:00 PM 1.83 35.294 0.13 7.27 9.28 13.45
12/23/2021 11:30:00 PM 1.82 35.276 0.13 7.27 9.22 13.45
12/23/2021 11:45:00 PM 1.82 35.276 0.13 7.27 9.23 13.45
12/24/2021 12:00:00 AM 1.82 35.276 0.13 7.27 8.92 13.45
12/24/2021 12:15:00 AM 1.82 35.276 0.13 7.27 9.24 13.45
12/24/2021 12:30:00 AM 1.81 35.258 0.13 7.27 9.2 13.43
12/24/2021 12:45:00 AM 1.8 35.24 0.13 7.27 9.13 13.45
12/24/2021 1:00:00 AM 1.78 35.204 0.13 7.27 9.22 13.43
12/24/2021 1:15:00 AM 1.77 35.186 0.13 7.27 9.19 13.44
12/24/2021 1:30:00 AM 1.75 35.15 0.13 7.27 9.21 13.44
12/24/2021 1:45:00 AM 1.74 35.132 0.13 7.27 9.12 13.45
12/24/2021 2:00:00 AM 1.72 35.096 0.13 7.27 9.06 13.45
12/24/2021 2:15:00 AM 1.67 35.006 0.13 7.27 8.9 13.45
12/24/2021 2:30:00 AM 1.64 34.952 0.13 7.27 9.01 13.46
12/24/2021 2:45:00 AM 1.62 34.916 0.13 7.27 9.09 13.46
12/24/2021 3:00:00 AM 1.6 34.88 0.13 7.27 8.8 13.47
12/24/2021 3:15:00 AM 1.59 34.862 0.13 7.27 9.09 13.47
12/24/2021 3:30:00 AM 1.58 34.844 0.13 7.27 9.04 13.47
12/24/2021 3:45:00 AM 1.58 34.844 0.13 7.27 8.86 13.47
12/24/2021 4:00:00 AM 1.59 34.862 0.13 7.27 8.88 13.49
12/24/2021 4:15:00 AM 1.6 34.88 0.13 7.26 8.91 13.49
12/24/2021 4:30:00 AM 1.61 34.898 0.13 7.26 8.83 13.48
12/24/2021 4:45:00 AM 1.63 34.934 0.13 7.26 9.16 13.49
12/24/2021 5:00:00 AM 1.64 34.952 0.13 7.26 9.12 13.48
12/24/2021 5:15:00 AM 1.65 34.97 0.13 7.26 9.17 13.47
12/24/2021 5:30:00 AM 1.66 34.988 0.13 7.26 9.13 13.47
12/24/2021 5:45:00 AM 1.67 35.006 0.13 7.26 9.01 13.47
12/24/2021 6:00:00 AM 1.68 35.024 0.13 7.26 9.1 13.47
12/24/2021 6:15:00 AM 1.7 35.06 0.13 7.26 9.07 13.46
12/24/2021 6:30:00 AM 1.71 35.078 0.13 7.26 8.97 13.45
12/24/2021 6:45:00 AM 1.72 35.096 0.13 7.26 8.78 13.45
12/24/2021 7:00:00 AM 1.73 35.114 0.13 7.26 9.03 13.45
12/24/2021 7:15:00 AM 1.74 35.132 0.13 7.26 9.03 13.43
12/24/2021 7:30:00 AM 1.75 35.15 0.13 7.26 8.43 13.44
12/24/2021 7:45:00 AM 1.76 35.168 0.13 7.26 8.65 13.44
12/24/2021 8:00:00 AM 1.78 35.204 0.13 7.27 8.78 13.47
12/24/2021 8:15:00 AM 1.79 35.222 0.13 7.27 8.62 13.52
12/24/2021 8:30:00 AM 1.81 35.258 0.13 7.29 8.79 13.61
12/24/2021 8:45:00 AM 1.84 35.312 0.13 7.31 8.62 13.74
12/24/2021 9:00:00 AM 1.88 35.384 0.13 7.33 8.74 13.88
12/24/2021 9:15:00 AM 1.92 35.456 0.13 7.36 8.8 14
12/24/2021 9:30:00 AM 1.97 35.546 0.13 7.38 8.64 14.14
12/24/2021 9:45:00 AM 2.02 35.636 0.13 7.41 8.79 14.24
12/24/2021 10:00:00 AM 2.06 35.708 0.129 7.43 8.85 14.3
12/24/2021 10:15:00 AM 2.1 35.78 0.129 7.45 8.7 14.36
12/24/2021 10:30:00 AM 2.14 35.852 0.129 7.47 8.71 14.41
12/24/2021 10:45:00 AM 2.18 35.924 0.129 7.48 8.67 14.44
12/24/2021 11:00:00 AM 2.22 35.996 0.129 7.5 8.56 14.46
12/24/2021 11:15:00 AM 2.25 36.05 0.129 7.51 8.47 14.48
12/24/2021 11:30:00 AM 2.29 36.122 0.129 7.52 8.68 14.49
12/24/2021 11:45:00 AM 2.32 36.176 0.129 7.53 8.73 14.49
12/24/2021 12:00:00 PM 2.36 36.248 0.129 7.54 8.51 14.5
12/24/2021 12:15:00 PM 2.41 36.338 0.129 7.55 8.47 14.52
12/24/2021 12:30:00 PM 2.45 36.41 0.129 7.56 8.46 14.54
12/24/2021 12:45:00 PM 2.51 36.518 0.129 7.58 8.3 14.56
12/24/2021 1:00:00 PM 2.56 36.608 0.128 7.59 8.55 14.56
12/24/2021 1:15:00 PM 2.63 36.734 0.128 7.61 8.24 14.58
12/24/2021 1:30:00 PM 2.72 36.896 0.128 7.62 8.55 14.6
12/24/2021 1:45:00 PM 2.8 37.04 0.128 7.64 8.59 14.61
12/24/2021 2:00:00 PM 2.88 37.184 0.128 7.66 8.38 14.59
12/24/2021 2:15:00 PM 2.97 37.346 0.128 7.67 8.34 14.6
12/24/2021 2:30:00 PM 3.02 37.436 0.128 7.68 8.6 14.56
12/24/2021 2:45:00 PM 3.05 37.49 0.128 7.67 8.37 14.51
12/24/2021 3:00:00 PM 3.07 37.526 0.128 7.67 8.39 14.46
12/24/2021 3:15:00 PM 3.07 37.526 0.128 7.66 8.45 14.42
12/24/2021 3:30:00 PM 3.06 37.508 0.128 7.65 8.67 14.36
12/24/2021 3:45:00 PM 3.04 37.472 0.128 7.64 8.45 14.31
12/24/2021 4:00:00 PM 3 37.4 0.128 7.61 8.82 14.22
12/24/2021 4:15:00 PM 2.96 37.328 0.128 7.58 8.52 14.13
12/24/2021 4:30:00 PM 2.92 37.256 0.128 7.54 8.5 14
12/24/2021 4:45:00 PM 2.87 37.166 0.129 7.5 8.52 13.86
12/24/2021 5:00:00 PM 2.83 37.094 0.129 7.46 8.78 13.71
12/24/2021 5:15:00 PM 2.8 37.04 0.129 7.43 8.49 13.58
12/24/2021 5:30:00 PM 2.77 36.986 0.129 7.4 8.53 13.46
12/24/2021 5:45:00 PM 2.75 36.95 0.129 7.37 8.55 13.37
12/24/2021 6:00:00 PM 2.72 36.896 0.129 7.35 8.81 13.3
12/24/2021 6:15:00 PM 2.69 36.842 0.129 7.34 8.74 13.26
12/24/2021 6:30:00 PM 2.66 36.788 0.129 7.33 8.75 13.22
12/24/2021 6:45:00 PM 2.63 36.734 0.129 7.32 8.66 13.19
12/24/2021 7:00:00 PM 2.61 36.698 0.13 7.31 8.83 13.18
12/24/2021 7:15:00 PM 2.59 36.662 0.13 7.3 8.54 13.18
12/24/2021 7:30:00 PM 2.57 36.626 0.13 7.3 8.56 13.17
12/24/2021 7:45:00 PM 2.55 36.59 0.13 7.29 8.7 13.16
12/24/2021 8:00:00 PM 2.54 36.572 0.13 7.29 8.62 13.16
12/24/2021 8:15:00 PM 2.53 36.554 0.13 7.29 8.86 13.15
12/24/2021 8:30:00 PM 2.53 36.554 0.13 7.28 8.65 13.14
12/24/2021 8:45:00 PM 2.53 36.554 0.13 7.28 8.44 13.14
12/24/2021 9:00:00 PM 2.53 36.554 0.13 7.28 8.86 13.13
12/24/2021 9:15:00 PM 2.53 36.554 0.13 7.28 8.65 13.12
12/24/2021 9:30:00 PM 2.54 36.572 0.13 7.27 8.89 13.12
12/24/2021 9:45:00 PM 2.55 36.59 0.13 7.27 8.62 13.11
12/24/2021 10:00:00 PM 2.56 36.608 0.13 7.27 8.52 13.1
12/24/2021 10:15:00 PM 2.56 36.608 0.13 7.27 8.73 13.09
12/24/2021 10:30:00 PM 2.56 36.608 0.13 7.27 8.76 13.08
12/24/2021 10:45:00 PM 2.56 36.608 0.13 7.27 8.67 13.08
12/24/2021 11:00:00 PM 2.56 36.608 0.13 7.27 8.95 13.07
12/24/2021 11:15:00 PM 2.57 36.626 0.13 7.27 8.56 13.07
12/24/2021 11:30:00 PM 2.58 36.644 0.13 7.27 8.61 13.06
12/24/2021 11:45:00 PM 2.59 36.662 0.13 7.27 8.7 13.04
12/25/2021 12:00:00 AM 2.61 36.698 0.13 7.27 8.85 13.04
12/25/2021 12:15:00 AM 2.62 36.716 0.13 7.27 8.77 13.04
12/25/2021 12:30:00 AM 2.63 36.734 0.13 7.26 8.74 13.03
12/25/2021 12:45:00 AM 2.64 36.752 0.13 7.27 8.96 13.02
12/25/2021 1:00:00 AM 2.65 36.77 0.13 7.26 8.79 13.01
12/25/2021 1:15:00 AM 2.65 36.77 0.13 7.26 8.97 13.01
12/25/2021 1:30:00 AM 2.66 36.788 0.13 7.27 8.96 13
12/25/2021 1:45:00 AM 2.67 36.806 0.13 7.26 8.78 12.99
12/25/2021 2:00:00 AM 2.68 36.824 0.13 7.26 8.73 12.98
12/25/2021 2:15:00 AM 2.68 36.824 0.13 7.26 8.6 12.98
12/25/2021 2:30:00 AM 2.69 36.842 0.13 7.26 8.78 12.96
12/25/2021 2:45:00 AM 2.7 36.86 0.13 7.26 8.81 12.96
12/25/2021 3:00:00 AM 2.71 36.878 0.13 7.26 8.75 12.95
12/25/2021 3:15:00 AM 2.72 36.896 0.13 7.26 8.61 12.95
12/25/2021 3:30:00 AM 2.73 36.914 0.13 7.26 8.85 12.93
12/25/2021 3:45:00 AM 2.74 36.932 0.13 7.26 8.84 12.93
12/25/2021 4:00:00 AM 2.75 36.95 0.13 7.27 8.75 12.92
12/25/2021 4:15:00 AM 2.76 36.968 0.13 7.26 8.46 12.91
12/25/2021 4:30:00 AM 2.77 36.986 0.13 7.27 8.8 12.91
12/25/2021 4:45:00 AM 2.79 37.022 0.13 7.26 8.96 12.9
12/25/2021 5:00:00 AM 2.8 37.04 0.13 7.27 8.72 12.88
12/25/2021 5:15:00 AM 2.81 37.058 0.13 7.26 8.8 12.89
12/25/2021 5:30:00 AM 2.82 37.076 0.129 7.27 8.89 12.88
12/25/2021 5:45:00 AM 2.83 37.094 0.129 7.27 9.09 12.87
12/25/2021 6:00:00 AM 2.84 37.112 0.129 7.27 9.06 12.87
12/25/2021 6:15:00 AM 2.85 37.13 0.129 7.27 8.99 12.86
12/25/2021 6:30:00 AM 2.86 37.148 0.129 7.27 9.05 12.86
12/25/2021 6:45:00 AM 2.87 37.166 0.128 7.27 9.07 12.85
12/25/2021 7:00:00 AM 2.88 37.184 0.128 7.27 9.02 12.85
12/25/2021 7:15:00 AM 2.89 37.202 0.128 7.27 9.25 12.85
12/25/2021 7:30:00 AM 2.9 37.22 0.128 7.27 9.31 12.84
12/25/2021 7:45:00 AM 2.91 37.238 0.128 7.28 9.06 12.85
12/25/2021 8:00:00 AM 2.92 37.256 0.128 7.28 9.16 12.86
12/25/2021 8:15:00 AM 2.93 37.274 0.128 7.28 9.47 12.89
12/25/2021 8:30:00 AM 2.95 37.31 0.129 7.3 9.49 12.94
12/25/2021 8:45:00 AM 2.98 37.364 0.13 7.31 9.72 13.01
12/25/2021 9:00:00 AM 3 37.4 0.131 7.33 10.14 13.07
12/25/2021 9:15:00 AM 3.02 37.436 0.132 7.35 10.68 13.15
12/25/2021 9:30:00 AM 3.04 37.472 0.133 7.38 11.72 13.21
12/25/2021 9:45:00 AM 3.05 37.49 0.132 7.39 13.36 13.24
12/25/2021 10:00:00 AM 3.03 37.454 0.132 7.41 13.61 13.25
12/25/2021 10:15:00 AM 3.01 37.418 0.131 7.42 15.79 13.25
12/25/2021 10:30:00 AM 2.99 37.382 0.132 7.43 18.83 13.27
12/25/2021 10:45:00 AM 2.97 37.346 0.133 7.45 23.46 13.31
12/25/2021 11:00:00 AM 2.94 37.292 0.133 7.45 31.79 13.31
12/25/2021 11:15:00 AM 2.94 37.292 0.133 7.46 40.17 13.33
12/25/2021 11:30:00 AM 2.96 37.328 0.132 7.46 48.51 13.34
12/25/2021 11:45:00 AM 2.95 37.31 0.131 7.46 56.53 13.35
12/25/2021 12:00:00 PM 2.94 37.292 0.13 7.46 50.4 13.32
12/25/2021 12:15:00 PM 2.92 37.256 0.129 7.45 54.11 13.3
12/25/2021 12:30:00 PM 2.91 37.238 0.128 7.44 59.54 13.27
12/25/2021 12:45:00 PM 2.9 37.22 0.128 7.44 53.2 13.28
12/25/2021 1:00:00 PM 2.9 37.22 0.128 7.43 58.69 13.26
12/25/2021 1:15:00 PM 2.89 37.202 0.127 7.42 60.63 13.24
12/25/2021 1:30:00 PM 2.89 37.202 0.126 7.41 89.1 13.21
12/25/2021 1:45:00 PM 2.9 37.22 0.125 7.4 73.36 13.17
12/25/2021 2:00:00 PM 2.93 37.274 0.123 7.39 81.65 13.18
12/25/2021 2:15:00 PM 2.99 37.382 0.121 7.39 87.72 13.17
12/25/2021 2:30:00 PM 3.03 37.454 0.119 7.39 76.77 13.17
12/25/2021 2:45:00 PM 3.07 37.526 0.118 7.38 80.89 13.14
12/25/2021 3:00:00 PM 3.1 37.58 0.117 7.38 75.75 13.14
12/25/2021 3:15:00 PM 3.13 37.634 0.117 7.37 68.47 13.11
12/25/2021 3:30:00 PM 3.16 37.688 0.116 7.37 67.92 13.11
12/25/2021 3:45:00 PM 3.19 37.742 0.116 7.37 69.32 13.08
12/25/2021 4:00:00 PM 3.21 37.778 0.116 7.35 61.03 13.06
12/25/2021 4:15:00 PM 3.22 37.796 0.115 7.35 64.75 13.03
12/25/2021 4:30:00 PM 3.24 37.832 0.115 7.33 61.28 13
12/25/2021 4:45:00 PM 3.25 37.85 0.114 7.33 70.54 12.97
12/25/2021 5:00:00 PM 3.27 37.886 0.114 7.32 56.3 12.94
12/25/2021 5:15:00 PM 3.29 37.922 0.114 7.31 46.88 12.92
12/25/2021 5:30:00 PM 3.31 37.958 0.114 7.31 49.15 12.91
12/25/2021 5:45:00 PM 3.34 38.012 0.113 7.31 43.88 12.89
12/25/2021 6:00:00 PM 3.35 38.03 0.113 7.3 46.78 12.88
12/25/2021 6:15:00 PM 3.37 38.066 0.113 7.3 47 12.87
12/25/2021 6:30:00 PM 3.38 38.084 0.113 7.3 43.2 12.86
12/25/2021 6:45:00 PM 3.39 38.102 0.113 7.29 41.3 12.85
12/25/2021 7:00:00 PM 3.4 38.12 0.112 7.28 42.6 12.85
12/25/2021 7:15:00 PM 3.42 38.156 0.112 7.29 40.42 12.84
12/25/2021 7:30:00 PM 3.43 38.174 0.112 7.29 38.11 12.83
12/25/2021 7:45:00 PM 3.44 38.192 0.112 7.28 35.22 12.83
12/25/2021 8:00:00 PM 3.45 38.21 0.112 7.28 38.71 12.82
12/25/2021 8:15:00 PM 3.47 38.246 0.112 7.28 38.19 12.81
12/25/2021 8:30:00 PM 3.49 38.282 0.112 7.29 33.95 12.81
12/25/2021 8:45:00 PM 3.5 38.3 0.112 7.28 34.74 12.8
12/25/2021 9:00:00 PM 3.52 38.336 0.112 7.28 32.84 12.81
12/25/2021 9:15:00 PM 3.53 38.354 0.112 7.29 32.17 12.8
12/25/2021 9:30:00 PM 3.54 38.372 0.112 7.29 36.67 12.79
12/25/2021 9:45:00 PM 3.56 38.408 0.112 7.29 30.69 12.79
12/25/2021 10:00:00 PM 3.57 38.426 0.112 7.29 30.62 12.78
12/25/2021 10:15:00 PM 3.59 38.462 0.112 7.29 30.1 12.77
12/25/2021 10:30:00 PM 3.6 38.48 0.112 7.29 25.23 12.77
12/25/2021 10:45:00 PM 3.62 38.516 0.111 7.29 29.25 12.77
12/25/2021 11:00:00 PM 3.63 38.534 0.111 7.29 28.56 12.76
12/25/2021 11:15:00 PM 3.64 38.552 0.111 7.29 25.5 12.75
12/25/2021 11:30:00 PM 3.65 38.57 0.112 7.29 27.49 12.75
12/25/2021 11:45:00 PM 3.66 38.588 0.112 7.28 25.5 12.75
12/26/2021 12:00:00 AM 3.67 38.606 0.112 7.29 27.3 12.74
12/26/2021 12:15:00 AM 3.68 38.624 0.112 7.28 24.48 12.75
12/26/2021 12:30:00 AM 3.69 38.642 0.112 7.28 24.38 12.74
12/26/2021 12:45:00 AM 3.69 38.642 0.112 7.28 24.07 12.74
12/26/2021 1:00:00 AM 3.7 38.66 0.112 7.28 19.37 12.73
12/26/2021 1:15:00 AM 3.71 38.678 0.112 7.28 22.3 12.74
12/26/2021 1:30:00 AM 3.71 38.678 0.112 7.28 22.81 12.73
12/26/2021 1:45:00 AM 3.71 38.678 0.112 7.28 21.75 12.73
12/26/2021 2:00:00 AM 3.71 38.678 0.112 7.28 23.2 12.73
12/26/2021 2:15:00 AM 3.7 38.66 0.112 7.28 21.4 12.73
12/26/2021 2:30:00 AM 3.7 38.66 0.112 7.28 21.57 12.74
12/26/2021 2:45:00 AM 3.69 38.642 0.113 7.28 21.85 12.74
12/26/2021 3:00:00 AM 3.68 38.624 0.113 7.28 20.93 12.74
12/26/2021 3:15:00 AM 3.68 38.624 0.113 7.28 20.55 12.74
12/26/2021 3:30:00 AM 3.67 38.606 0.113 7.28 25.49 12.74
12/26/2021 3:45:00 AM 3.67 38.606 0.113 7.28 20.92 12.75
12/26/2021 4:00:00 AM 3.66 38.588 0.113 7.28 21.01 12.75
12/26/2021 4:15:00 AM 3.65 38.57 0.113 7.28 20.4 12.75
12/26/2021 4:30:00 AM 3.64 38.552 0.113 7.28 19.52 12.76
12/26/2021 4:45:00 AM 3.62 38.516 0.113 7.28 19.4 12.77
12/26/2021 5:00:00 AM 3.61 38.498 0.113 7.28 21.22 12.77
12/26/2021 5:15:00 AM 3.59 38.462 0.113 7.28 20.18 12.77
12/26/2021 5:30:00 AM 3.58 38.444 0.113 7.28 17.71 12.78
12/26/2021 5:45:00 AM 3.56 38.408 0.114 7.28 15.26 12.79
12/26/2021 6:00:00 AM 3.55 38.39 0.114 7.28 18.03 12.8
12/26/2021 6:15:00 AM 3.54 38.372 0.114 7.28 17.88 12.8
12/26/2021 6:30:00 AM 3.52 38.336 0.114 7.28 17.78 12.81
12/26/2021 6:45:00 AM 3.51 38.318 0.114 7.28 18.49 12.81
12/26/2021 7:00:00 AM 3.5 38.3 0.114 7.27 17.03 12.82
12/26/2021 7:15:00 AM 3.49 38.282 0.114 7.28 18.36 12.82
12/26/2021 7:30:00 AM 3.48 38.264 0.114 7.28 18.21 12.84
12/26/2021 7:45:00 AM 3.47 38.246 0.114 7.28 17.86 12.85
12/26/2021 8:00:00 AM 3.46 38.228 0.114 7.28 15.64 12.88
12/26/2021 8:15:00 AM 3.46 38.228 0.114 7.29 17.26 12.93
12/26/2021 8:30:00 AM 3.47 38.246 0.114 7.3 16.75 12.99
12/26/2021 8:45:00 AM 3.48 38.264 0.114 7.32 16.31 13.07
12/26/2021 9:00:00 AM 3.5 38.3 0.115 7.33 16 13.15
12/26/2021 9:15:00 AM 3.52 38.336 0.114 7.35 15.2 13.22
12/26/2021 9:30:00 AM 3.55 38.39 0.115 7.36 14.32 13.27
12/26/2021 9:45:00 AM 3.57 38.426 0.115 7.38 14.7 13.32
12/26/2021 10:00:00 AM 3.59 38.462 0.114 7.39 14.37 13.37
12/26/2021 10:15:00 AM 3.63 38.534 0.114 7.41 13.96 13.42
12/26/2021 10:30:00 AM 3.67 38.606 0.114 7.42 14.44 13.46
12/26/2021 10:45:00 AM 3.71 38.678 0.114 7.44 14.03 13.51
12/26/2021 11:00:00 AM 3.75 38.75 0.114 7.46 14.18 13.54
12/26/2021 11:15:00 AM 3.8 38.84 0.114 7.47 13.81 13.57
12/26/2021 11:30:00 AM 3.85 38.93 0.114 7.49 13.22 13.59
12/26/2021 11:45:00 AM 3.87 38.966 0.114 7.49 12.99 13.58
12/26/2021 12:00:00 PM 3.9 39.02 0.114 7.5 12.93 13.59
12/26/2021 12:15:00 PM 3.93 39.074 0.115 7.51 13.14 13.6
12/26/2021 12:30:00 PM 3.97 39.146 0.115 7.52 12.15 13.61
12/26/2021 12:45:00 PM 4 39.2 0.115 7.52 12.04 13.61
12/26/2021 1:00:00 PM 4.01 39.218 0.115 7.53 12.23 13.59
12/26/2021 1:15:00 PM 4.01 39.218 0.115 7.52 12.66 13.55
12/26/2021 1:30:00 PM 4 39.2 0.115 7.51 12.04 13.49
12/26/2021 1:45:00 PM 3.99 39.182 0.115 7.49 12.17 13.44
12/26/2021 2:00:00 PM 3.98 39.164 0.115 7.48 11.87 13.4
12/26/2021 2:15:00 PM 3.99 39.182 0.115 7.48 11.34 13.4
12/26/2021 2:30:00 PM 4.01 39.218 0.115 7.48 11.72 13.41
12/26/2021 2:45:00 PM 4.01 39.218 0.115 7.48 11.67 13.4
12/26/2021 3:00:00 PM 4.01 39.218 0.115 7.48 12.25 13.38
12/26/2021 3:15:00 PM 4.01 39.218 0.115 7.46 11.47 13.34
12/26/2021 3:30:00 PM 4 39.2 0.115 7.45 11.91 13.3
12/26/2021 3:45:00 PM 3.99 39.182 0.115 7.45 11.2 13.28
12/26/2021 4:00:00 PM 3.98 39.164 0.116 7.44 11.18 13.25
12/26/2021 4:15:00 PM 3.96 39.128 0.116 7.42 11.65 13.2
12/26/2021 4:30:00 PM 3.94 39.092 0.116 7.41 11.51 13.13
12/26/2021 4:45:00 PM 3.91 39.038 0.116 7.38 11.29 13.05
12/26/2021 5:00:00 PM 3.88 38.984 0.116 7.36 10.78 12.99
12/26/2021 5:15:00 PM 3.85 38.93 0.116 7.35 11.24 12.92
12/26/2021 5:30:00 PM 3.83 38.894 0.117 7.33 11.02 12.88
12/26/2021 5:45:00 PM 3.81 38.858 0.117 7.32 11.53 12.85
12/26/2021 6:00:00 PM 3.78 38.804 0.117 7.31 11.12 12.83
12/26/2021 6:15:00 PM 3.76 38.768 0.117 7.3 11.55 12.82
12/26/2021 6:30:00 PM 3.73 38.714 0.117 7.3 11.15 12.82
12/26/2021 6:45:00 PM 3.7 38.66 0.117 7.3 11.56 12.82
12/26/2021 7:00:00 PM 3.67 38.606 0.117 7.29 10.8 12.82
12/26/2021 7:15:00 PM 3.64 38.552 0.117 7.29 11.37 12.83
12/26/2021 7:30:00 PM 3.62 38.516 0.117 7.29 10.56 12.83
12/26/2021 7:45:00 PM 3.59 38.462 0.117 7.29 10.79 12.84
12/26/2021 8:00:00 PM 3.56 38.408 0.117 7.28 11.33 12.84
12/26/2021 8:15:00 PM 3.53 38.354 0.117 7.28 10.96 12.85
12/26/2021 8:30:00 PM 3.5 38.3 0.118 7.28 10.95 12.85
12/26/2021 8:45:00 PM 3.47 38.246 0.118 7.28 11.12 12.86
12/26/2021 9:00:00 PM 3.45 38.21 0.118 7.28 11.14 12.87
12/26/2021 9:15:00 PM 3.43 38.174 0.118 7.28 11 12.88
12/26/2021 9:30:00 PM 3.4 38.12 0.118 7.27 10.72 12.89
12/26/2021 9:45:00 PM 3.38 38.084 0.118 7.27 11.54 12.9
12/26/2021 10:00:00 PM 3.36 38.048 0.118 7.27 11.18 12.91
12/26/2021 10:15:00 PM 3.34 38.012 0.118 7.27 11.66 12.91
12/26/2021 10:30:00 PM 3.33 37.994 0.118 7.27 11.32 12.92
12/26/2021 10:45:00 PM 3.31 37.958 0.118 7.27 11.41 12.93
12/26/2021 11:00:00 PM 3.29 37.922 0.118 7.27 11.21 12.94
12/26/2021 11:15:00 PM 3.28 37.904 0.118 7.27 11.3 12.94
12/26/2021 11:30:00 PM 3.27 37.886 0.118 7.27 11.22 12.93
12/26/2021 11:45:00 PM 3.26 37.868 0.118 7.27 10.89 12.95
12/27/2021 12:00:00 AM 3.24 37.832 0.118 7.27 11.42 12.95
12/27/2021 12:15:00 AM 3.22 37.796 0.118 7.27 10.67 12.96
12/27/2021 12:30:00 AM 3.21 37.778 0.118 7.27 10.33 12.96
12/27/2021 12:45:00 AM 3.2 37.76 0.119 7.27 10.46 12.96
12/27/2021 1:00:00 AM 3.19 37.742 0.119 7.27 10.84 12.97
12/27/2021 1:15:00 AM 3.16 37.688 0.119 7.27 10.25 12.97
12/27/2021 1:30:00 AM 3.13 37.634 0.119 7.27 10.46 12.98
12/27/2021 1:45:00 AM 3.08 37.544 0.119 7.27 10.52 13
12/27/2021 2:00:00 AM 3.04 37.472 0.119 7.26 9.95 13.01
12/27/2021 2:15:00 AM 2.99 37.382 0.119 7.27 10.24 13.02
12/27/2021 2:30:00 AM 2.95 37.31 0.119 7.27 10.04 13.03
12/27/2021 2:45:00 AM 2.93 37.274 0.119 7.26 10.21 13.04
12/27/2021 3:00:00 AM 2.91 37.238 0.119 7.27 10.16 13.05
12/27/2021 3:15:00 AM 2.9 37.22 0.119 7.26 10.12 13.05
12/27/2021 3:30:00 AM 2.88 37.184 0.119 7.26 10.15 13.07
12/27/2021 3:45:00 AM 2.85 37.13 0.119 7.27 9.73 13.07
12/27/2021 4:00:00 AM 2.82 37.076 0.119 7.27 9.53 13.08
12/27/2021 4:15:00 AM 2.8 37.04 0.119 7.27 9.52 13.09
12/27/2021 4:30:00 AM 2.77 36.986 0.12 7.26 9.58 13.1
12/27/2021 4:45:00 AM 2.75 36.95 0.12 7.26 9.54 13.11
12/27/2021 5:00:00 AM 2.74 36.932 0.12 7.26 8.96 13.11
12/27/2021 5:15:00 AM 2.72 36.896 0.12 7.26 8.78 13.12
12/27/2021 5:30:00 AM 2.7 36.86 0.12 7.26 8.7 13.12
12/27/2021 5:45:00 AM 2.69 36.842 0.12 7.26 9.03 13.13
12/27/2021 6:00:00 AM 2.67 36.806 0.12 7.26 8.8 13.13
12/27/2021 6:15:00 AM 2.65 36.77 0.12 7.27 8.91 13.14
12/27/2021 6:30:00 AM 2.64 36.752 0.12 7.26 8.9 13.14
12/27/2021 6:45:00 AM 2.63 36.734 0.12 7.26 8.82 13.15
12/27/2021 7:00:00 AM 2.61 36.698 0.12 7.26 8.71 13.16
12/27/2021 7:15:00 AM 2.61 36.698 0.12 7.26 8.68 13.16
12/27/2021 7:30:00 AM 2.59 36.662 0.12 7.26 8.92 13.16
12/27/2021 7:45:00 AM 2.58 36.644 0.12 7.26 9.16 13.17
12/27/2021 8:00:00 AM 2.58 36.644 0.121 7.27 9.32 13.19
12/27/2021 8:15:00 AM 2.57 36.626 0.12 7.27 9.23 13.21
12/27/2021 8:30:00 AM 2.56 36.608 0.121 7.27 9.03 13.23
12/27/2021 8:45:00 AM 2.56 36.608 0.121 7.28 8.63 13.27
12/27/2021 9:00:00 AM 2.55 36.59 0.121 7.28 8.56 13.3
12/27/2021 9:15:00 AM 2.55 36.59 0.121 7.29 8.48 13.34
12/27/2021 9:30:00 AM 2.55 36.59 0.121 7.3 8.45 13.39
12/27/2021 9:45:00 AM 2.54 36.572 0.121 7.31 8.65 13.45
12/27/2021 10:00:00 AM 2.55 36.59 0.121 7.32 8.13 13.52
12/27/2021 10:15:00 AM 2.56 36.608 0.12 7.34 8.23 13.61
12/27/2021 10:30:00 AM 2.58 36.644 0.12 7.36 8.16 13.7
12/27/2021 10:45:00 AM 2.61 36.698 0.12 7.38 8.18 13.77
12/27/2021 11:00:00 AM 2.64 36.752 0.12 7.4 8.22 13.84
12/27/2021 11:15:00 AM 2.67 36.806 0.12 7.42 7.99 13.89
12/27/2021 11:30:00 AM 2.69 36.842 0.12 7.43 7.74 13.92
12/27/2021 11:45:00 AM 2.7 36.86 0.12 7.44 8.09 13.94
12/27/2021 12:00:00 PM 2.71 36.878 0.12 7.45 7.87 13.94
12/27/2021 12:15:00 PM 2.72 36.896 0.12 7.45 7.81 13.93
12/27/2021 12:30:00 PM 2.71 36.878 0.12 7.45 7.94 13.89
12/27/2021 12:45:00 PM 2.66 36.788 0.12 7.45 7.76 13.89
12/27/2021 1:00:00 PM 2.67 36.806 0.12 7.45 7.96 13.9
12/27/2021 1:15:00 PM 2.68 36.824 0.12 7.46 7.96 13.94
12/27/2021 1:30:00 PM 2.7 36.86 0.12 7.47 7.67 13.97
12/27/2021 1:45:00 PM 2.71 36.878 0.12 7.48 7.7 13.97
12/27/2021 2:00:00 PM 2.72 36.896 0.12 7.48 7.66 13.96
12/27/2021 2:15:00 PM 2.73 36.914 0.12 7.48 7.82 13.93
12/27/2021 2:30:00 PM 2.74 36.932 0.12 7.47 8.02 13.89
12/27/2021 2:45:00 PM 2.74 36.932 0.12 7.46 7.61 13.84
12/27/2021 3:00:00 PM 2.74 36.932 0.12 7.45 7.6 13.79
12/27/2021 3:15:00 PM 2.75 36.95 0.12 7.43 7.85 13.74
12/27/2021 3:30:00 PM 2.75 36.95 0.12 7.42 7.78 13.67
12/27/2021 3:45:00 PM 2.75 36.95 0.12 7.41 7.55 13.63
12/27/2021 4:00:00 PM 2.75 36.95 0.12 7.39 7.62 13.56
12/27/2021 4:15:00 PM 2.75 36.95 0.12 7.38 7.52 13.5
12/27/2021 4:30:00 PM 2.75 36.95 0.12 7.36 7.53 13.43
12/27/2021 4:45:00 PM 2.74 36.932 0.12 7.35 8.48 13.35
12/27/2021 5:00:00 PM 2.74 36.932 0.12 7.33 8.14 13.29
12/27/2021 5:15:00 PM 2.73 36.914 0.12 7.32 7.75 13.24
12/27/2021 5:30:00 PM 2.61 36.698 0.12 7.31 7.65 13.2
12/27/2021 5:45:00 PM 2.62 36.716 0.12 7.3 7.66 13.18
12/27/2021 6:00:00 PM 2.57 36.626 0.12 7.3 7.87 13.16
12/27/2021 6:15:00 PM 2.57 36.626 0.12 7.29 7.79 13.16
12/27/2021 6:30:00 PM 2.58 36.644 0.12 7.29 7.78 13.15
12/27/2021 6:45:00 PM 2.61 36.698 0.12 7.28 8.64 13.14
12/27/2021 7:00:00 PM 2.63 36.734 0.12 7.28 9.27 13.12
12/27/2021 7:15:00 PM 2.64 36.752 0.12 7.28 9.2 13.11
12/27/2021 7:30:00 PM 2.64 36.752 0.121 7.28 8.42 13.1
12/27/2021 7:45:00 PM 2.63 36.734 0.12 7.28 7.84 13.1
12/27/2021 8:00:00 PM 2.63 36.734 0.12 7.28 7.78 13.1
12/27/2021 8:15:00 PM 2.63 36.734 0.121 7.28 7.87 13.09
12/27/2021 8:30:00 PM 2.63 36.734 0.121 7.28 8.09 13.09
12/27/2021 8:45:00 PM 2.63 36.734 0.121 7.28 8.04 13.09
12/27/2021 9:00:00 PM 2.63 36.734 0.121 7.28 7.9 13.09
12/27/2021 9:15:00 PM 2.63 36.734 0.121 7.27 8.16 13.08
12/27/2021 9:30:00 PM 2.63 36.734 0.121 7.28 8.42 13.08
12/27/2021 9:45:00 PM 2.63 36.734 0.121 7.28 9.03 13.08
12/27/2021 10:00:00 PM 2.63 36.734 0.121 7.28 10.16 13.08
12/27/2021 10:15:00 PM 2.63 36.734 0.121 7.28 11.51 13.07
12/27/2021 10:30:00 PM 2.63 36.734 0.121 7.28 12.2 13.07
12/27/2021 10:45:00 PM 2.63 36.734 0.121 7.28 11.85 13.07
12/27/2021 11:00:00 PM 2.63 36.734 0.121 7.28 11.75 13.07
12/27/2021 11:15:00 PM 2.63 36.734 0.121 7.28 10.27 13.07
12/27/2021 11:30:00 PM 2.63 36.734 0.121 7.28 10.09 13.07
12/27/2021 11:45:00 PM 2.63 36.734 0.121 7.28 9.15 13.08
12/28/2021 12:00:00 AM 2.63 36.734 0.121 7.28 9.32 13.08
12/28/2021 12:15:00 AM 2.63 36.734 0.121 7.28 8.78 13.07
12/28/2021 12:30:00 AM 2.63 36.734 0.121 7.28 8.74 13.08
12/28/2021 12:45:00 AM 2.64 36.752 0.121 7.28 8.69 13.07
12/28/2021 1:00:00 AM 2.64 36.752 0.121 7.28 8.66 13.07
12/28/2021 1:15:00 AM 2.65 36.77 0.121 7.28 8.77 13.07
12/28/2021 1:30:00 AM 2.65 36.77 0.121 7.28 8.99 13.07
12/28/2021 1:45:00 AM 2.65 36.77 0.121 7.28 9.14 13.07
12/28/2021 2:00:00 AM 2.66 36.788 0.121 7.28 9.18 13.07
12/28/2021 2:15:00 AM 2.66 36.788 0.121 7.28 9.16 13.07
12/28/2021 2:30:00 AM 2.66 36.788 0.121 7.28 10.11 13.07
12/28/2021 2:45:00 AM 2.67 36.806 0.121 7.28 9.48 13.07
12/28/2021 3:00:00 AM 2.67 36.806 0.122 7.28 10.18 13.07
12/28/2021 3:15:00 AM 2.68 36.824 0.121 7.28 9.59 13.06
12/28/2021 3:30:00 AM 2.69 36.842 0.121 7.28 9.84 13.06
12/28/2021 3:45:00 AM 2.7 36.86 0.121 7.28 9.98 13.06
12/28/2021 4:00:00 AM 2.7 36.86 0.122 7.28 10.14 13.06
12/28/2021 4:15:00 AM 2.71 36.878 0.121 7.28 10.27 13.06
12/28/2021 4:30:00 AM 2.7 36.86 0.122 7.28 9.4 13.05
12/28/2021 4:45:00 AM 2.69 36.842 0.122 7.27 9.26 13.05
12/28/2021 5:00:00 AM 2.66 36.788 0.122 7.27 8.98 13.06
12/28/2021 5:15:00 AM 2.63 36.734 0.122 7.27 9.09 13.06
12/28/2021 5:30:00 AM 2.6 36.68 0.122 7.27 9.11 13.07
12/28/2021 5:45:00 AM 2.56 36.608 0.122 7.27 8.82 13.08
12/28/2021 6:00:00 AM 2.53 36.554 0.122 7.27 9.8 13.09
12/28/2021 6:15:00 AM 2.5 36.5 0.122 7.27 8.91 13.09
12/28/2021 6:30:00 AM 2.47 36.446 0.122 7.27 8.71 13.11
12/28/2021 6:45:00 AM 2.43 36.374 0.122 7.27 8.94 13.13
12/28/2021 7:00:00 AM 2.39 36.302 0.123 7.27 8.88 13.14
12/28/2021 7:15:00 AM 2.35 36.23 0.122 7.27 9.17 13.15
12/28/2021 7:30:00 AM 2.32 36.176 0.123 7.27 8.69 13.17
12/28/2021 7:45:00 AM 2.28 36.104 0.122 7.27 8.37 13.21
12/28/2021 8:00:00 AM 2.26 36.068 0.122 7.28 8.31 13.27
12/28/2021 8:15:00 AM 2.25 36.05 0.123 7.29 8.61 13.35
12/28/2021 8:30:00 AM 2.23 36.014 0.123 7.3 8.26 13.45
12/28/2021 8:45:00 AM 2.22 35.996 0.123 7.32 8.48 13.55
12/28/2021 9:00:00 AM 2.22 35.996 0.122 7.34 8.33 13.65
12/28/2021 9:15:00 AM 2.24 36.032 0.123 7.36 8.25 13.74
12/28/2021 9:30:00 AM 2.27 36.086 0.123 7.37 8.28 13.82
12/28/2021 9:45:00 AM 2.31 36.158 0.122 7.39 8.28 13.88
12/28/2021 10:00:00 AM 2.39 36.302 0.122 7.42 8.31 13.96
12/28/2021 10:15:00 AM 2.51 36.518 0.123 7.44 8.3 14.02
12/28/2021 10:30:00 AM 2.63 36.734 0.122 7.46 8.03 14.06
12/28/2021 10:45:00 AM 2.73 36.914 0.122 7.48 7.8 14.09
12/28/2021 11:00:00 AM 2.83 37.094 0.122 7.5 8.02 14.12
12/28/2021 11:15:00 AM 2.93 37.274 0.122 7.52 8.03 14.13
12/28/2021 11:30:00 AM 3.05 37.49 0.122 7.54 7.91 14.11
12/28/2021 11:45:00 AM 3.16 37.688 0.122 7.55 8.07 14.09
12/28/2021 12:00:00 PM 3.23 37.814 0.121 7.56 8 14.05
12/28/2021 12:15:00 PM 3.3 37.94 0.121 7.56 8.01 14
12/28/2021 12:30:00 PM 3.39 38.102 0.122 7.57 7.6 13.98
12/28/2021 12:45:00 PM 3.48 38.264 0.122 7.58 7.67 13.95
12/28/2021 1:00:00 PM 3.54 38.372 0.122 7.58 7.83 13.92
12/28/2021 1:15:00 PM 3.59 38.462 0.122 7.59 7.62 13.9
12/28/2021 1:30:00 PM 3.62 38.516 0.121 7.59 7.54 13.86
12/28/2021 1:45:00 PM 3.64 38.552 0.122 7.58 7.4 13.82
12/28/2021 2:00:00 PM 3.64 38.552 0.122 7.57 7.44 13.77
12/28/2021 2:15:00 PM 3.63 38.534 0.122 7.56 7.51 13.7
12/28/2021 2:30:00 PM 3.62 38.516 0.122 7.53 7.87 13.62
12/28/2021 2:45:00 PM 3.62 38.516 0.122 7.52 7.83 13.58
12/28/2021 3:00:00 PM 3.62 38.516 0.122 7.51 7.99 13.56
12/28/2021 3:15:00 PM 3.61 38.498 0.122 7.5 7.75 13.52
12/28/2021 3:30:00 PM 3.59 38.462 0.122 7.48 7.74 13.45
12/28/2021 3:45:00 PM 3.58 38.444 0.122 7.46 7.83 13.37
12/28/2021 4:00:00 PM 3.56 38.408 0.122 7.43 7.98 13.28
12/28/2021 4:15:00 PM 3.55 38.39 0.122 7.41 8.15 13.2
12/28/2021 4:30:00 PM 3.53 38.354 0.122 7.39 8.24 13.12
12/28/2021 4:45:00 PM 3.52 38.336 0.122 7.37 8.17 13.06
12/28/2021 5:00:00 PM 3.51 38.318 0.122 7.35 7.97 13
12/28/2021 5:15:00 PM 3.5 38.3 0.122 7.34 8.02 12.95
12/28/2021 5:30:00 PM 3.5 38.3 0.123 7.33 7.91 12.92
12/28/2021 5:45:00 PM 3.49 38.282 0.123 7.32 7.81 12.89
12/28/2021 6:00:00 PM 3.49 38.282 0.122 7.31 8.3 12.87
12/28/2021 6:15:00 PM 3.48 38.264 0.122 7.31 8.02 12.87
12/28/2021 6:30:00 PM 3.47 38.246 0.123 7.3 8 12.85
12/28/2021 6:45:00 PM 3.46 38.228 0.122 7.3 8.19 12.85
12/28/2021 7:00:00 PM 3.43 38.174 0.122 7.3 8.3 12.85
12/28/2021 7:15:00 PM 3.37 38.066 0.122 7.29 8.07 12.86
12/28/2021 7:30:00 PM 3.28 37.904 0.122 7.29 8.01 12.86
12/28/2021 7:45:00 PM 3.15 37.67 0.122 7.29 8.2 12.87
12/28/2021 8:00:00 PM 3.06 37.508 0.122 7.29 7.91 12.9
12/28/2021 8:15:00 PM 3.01 37.418 0.122 7.29 7.94 12.93
12/28/2021 8:30:00 PM 2.96 37.328 0.122 7.29 8.05 12.94
12/28/2021 8:45:00 PM 2.92 37.256 0.122 7.29 8.1 12.96
12/28/2021 9:00:00 PM 2.88 37.184 0.122 7.29 8.61 12.98
12/28/2021 9:15:00 PM 2.83 37.094 0.122 7.28 8.93 12.99
12/28/2021 9:30:00 PM 2.8 37.04 0.122 7.28 9.77 13.01
12/28/2021 9:45:00 PM 2.77 36.986 0.122 7.28 11.05 13.03
12/28/2021 10:00:00 PM 2.76 36.968 0.122 7.28 11.98 13.04
12/28/2021 10:15:00 PM 2.75 36.95 0.122 7.28 12.76 13.05
12/28/2021 10:30:00 PM 2.74 36.932 0.122 7.28 12.24 13.06
12/28/2021 10:45:00 PM 2.74 36.932 0.122 7.28 11.55 13.06
12/28/2021 11:00:00 PM 2.75 36.95 0.122 7.28 10.74 13.06
12/28/2021 11:15:00 PM 2.75 36.95 0.122 7.28 10.29 13.05
12/28/2021 11:30:00 PM 2.76 36.968 0.122 7.28 9.79 13.05
12/28/2021 11:45:00 PM 2.77 36.986 0.122 7.28 9.96 13.05
12/29/2021 12:00:00 AM 2.78 37.004 0.122 7.28 9.55 13.04
12/29/2021 12:15:00 AM 2.8 37.04 0.122 7.28 9.12 13.03
12/29/2021 12:30:00 AM 2.81 37.058 0.122 7.28 9.11 13.02
12/29/2021 12:45:00 AM 2.82 37.076 0.122 7.28 9.25 13.01
12/29/2021 1:00:00 AM 2.83 37.094 0.122 7.27 9.64 13.01
12/29/2021 1:15:00 AM 2.84 37.112 0.122 7.28 9.56 13.01
12/29/2021 1:30:00 AM 2.84 37.112 0.122 7.27 9.74 13.01
12/29/2021 1:45:00 AM 2.84 37.112 0.122 7.27 9.61 13.01
12/29/2021 2:00:00 AM 2.84 37.112 0.122 7.27 10.64 13.01
12/29/2021 2:15:00 AM 2.84 37.112 0.122 7.27 9.91 13.01
12/29/2021 2:30:00 AM 2.84 37.112 0.122 7.27 10.05 13.01
12/29/2021 2:45:00 AM 2.83 37.094 0.122 7.27 10.12 13.01
12/29/2021 3:00:00 AM 2.83 37.094 0.122 7.27 10.04 13.01
12/29/2021 3:15:00 AM 2.84 37.112 0.122 7.27 9.76 13.01
12/29/2021 3:30:00 AM 2.84 37.112 0.122 7.27 10.04 13.01
12/29/2021 3:45:00 AM 2.84 37.112 0.122 7.28 9.85 13.01
12/29/2021 4:00:00 AM 2.85 37.13 0.123 7.28 9.72 13
12/29/2021 4:15:00 AM 2.86 37.148 0.123 7.27 10.01 13
12/29/2021 4:30:00 AM 2.87 37.166 0.123 7.28 9.71 12.99
12/29/2021 4:45:00 AM 2.87 37.166 0.123 7.28 9.89 12.99
12/29/2021 5:00:00 AM 2.88 37.184 0.123 7.28 9.88 12.99
12/29/2021 5:15:00 AM 2.89 37.202 0.123 7.28 9.61 12.99
12/29/2021 5:30:00 AM 2.89 37.202 0.123 7.28 9.64 12.98
12/29/2021 5:45:00 AM 2.9 37.22 0.123 7.28 9.64 12.97
12/29/2021 6:00:00 AM 2.9 37.22 0.123 7.28 9.48 12.98
12/29/2021 6:15:00 AM 2.91 37.238 0.124 7.28 9.8 12.99
12/29/2021 6:30:00 AM 2.91 37.238 0.124 7.28 9.73 12.98
12/29/2021 6:45:00 AM 2.91 37.238 0.124 7.28 10.22 12.98
12/29/2021 7:00:00 AM 2.91 37.238 0.124 7.28 10.32 12.99
12/29/2021 7:15:00 AM 2.91 37.238 0.125 7.28 10.08 12.99
12/29/2021 7:30:00 AM 2.9 37.22 0.125 7.28 10.29 13
12/29/2021 7:45:00 AM 2.9 37.22 0.125 7.28 10.17 13
12/29/2021 8:00:00 AM 2.9 37.22 0.125 7.28 10.7 13.02
12/29/2021 8:15:00 AM 2.9 37.22 0.125 7.28 10.35 13.04
12/29/2021 8:30:00 AM 2.9 37.22 0.125 7.29 10.34 13.07
12/29/2021 8:45:00 AM 2.9 37.22 0.126 7.29 10.36 13.11
12/29/2021 9:00:00 AM 2.91 37.238 0.126 7.31 10.73 13.18
12/29/2021 9:15:00 AM 2.92 37.256 0.126 7.32 10.56 13.24
12/29/2021 9:30:00 AM 2.93 37.274 0.126 7.33 10.47 13.29
12/29/2021 9:45:00 AM 2.95 37.31 0.126 7.35 10.42 13.36
12/29/2021 10:00:00 AM 2.97 37.346 0.126 7.36 10.6 13.4
12/29/2021 10:15:00 AM 2.99 37.382 0.126 7.37 10.78 13.45
12/29/2021 10:30:00 AM 3.01 37.418 0.126 7.39 10.9 13.49
12/29/2021 10:45:00 AM 3.04 37.472 0.126 7.4 10.51 13.55
12/29/2021 11:00:00 AM 3.08 37.544 0.126 7.42 10.44 13.61
12/29/2021 11:15:00 AM 3.13 37.634 0.125 7.44 10.25 13.67
12/29/2021 11:30:00 AM 3.18 37.724 0.126 7.46 11.02 13.72
12/29/2021 11:45:00 AM 3.22 37.796 0.126 7.47 10.76 13.75
12/29/2021 12:00:00 PM 3.26 37.868 0.125 7.48 10.57 13.74
12/29/2021 12:15:00 PM 3.29 37.922 0.125 7.49 10.6 13.74
12/29/2021 12:30:00 PM 3.33 37.994 0.125 7.5 10.91 13.74
12/29/2021 12:45:00 PM 3.36 38.048 0.125 7.5 10.69 13.71
12/29/2021 1:00:00 PM 3.39 38.102 0.125 7.51 11.24 13.68
12/29/2021 1:15:00 PM 3.43 38.174 0.125 7.51 11.32 13.68
12/29/2021 1:30:00 PM 3.48 38.264 0.125 7.52 10.99 13.68
12/29/2021 1:45:00 PM 3.52 38.336 0.125 7.53 11.36 13.7
12/29/2021 2:00:00 PM 3.57 38.426 0.125 7.55 12.08 13.71
12/29/2021 2:15:00 PM 3.62 38.516 0.125 7.56 12.92 13.7
12/29/2021 2:30:00 PM 3.65 38.57 0.125 7.56 12.36 13.67
12/29/2021 2:45:00 PM 3.68 38.624 0.125 7.56 13.07 13.63
12/29/2021 3:00:00 PM 3.71 38.678 0.125 7.56 13.77 13.59
12/29/2021 3:15:00 PM 3.74 38.732 0.125 7.55 15.64 13.52
12/29/2021 3:30:00 PM 3.75 38.75 0.125 7.53 16.81 13.45
12/29/2021 3:45:00 PM 3.76 38.768 0.125 7.51 18.51 13.35
12/29/2021 4:00:00 PM 3.76 38.768 0.125 7.48 19.9 13.26
12/29/2021 4:15:00 PM 3.76 38.768 0.124 7.46 22.2 13.2
12/29/2021 4:30:00 PM 3.76 38.768 0.124 7.44 23.85 13.13
12/29/2021 4:45:00 PM 3.76 38.768 0.124 7.42 24.09 13.05
12/29/2021 5:00:00 PM 3.76 38.768 0.124 7.4 25.64 13
12/29/2021 5:15:00 PM 3.76 38.768 0.124 7.38 25.69 12.95
12/29/2021 5:30:00 PM 3.76 38.768 0.123 7.37 25.98 12.92
12/29/2021 5:45:00 PM 3.75 38.75 0.123 7.36 27.4 12.9
12/29/2021 6:00:00 PM 3.75 38.75 0.123 7.35 26.24 12.89
12/29/2021 6:15:00 PM 3.74 38.732 0.123 7.34 25.33 12.88
12/29/2021 6:30:00 PM 3.74 38.732 0.123 7.33 25.71 12.87
12/29/2021 6:45:00 PM 3.74 38.732 0.122 7.33 24.45 12.87
12/29/2021 7:00:00 PM 3.73 38.714 0.122 7.32 25.1 12.86
12/29/2021 7:15:00 PM 3.73 38.714 0.122 7.32 27.25 12.86
12/29/2021 7:30:00 PM 3.73 38.714 0.121 7.32 23.44 12.85
12/29/2021 7:45:00 PM 3.73 38.714 0.121 7.32 20.85 12.85
12/29/2021 8:00:00 PM 3.73 38.714 0.121 7.31 24.07 12.85
12/29/2021 8:15:00 PM 3.73 38.714 0.121 7.31 23.65 12.85
12/29/2021 8:30:00 PM 3.74 38.732 0.12 7.31 23.01 12.85
12/29/2021 8:45:00 PM 3.74 38.732 0.12 7.3 22.95 12.84
12/29/2021 9:00:00 PM 3.74 38.732 0.12 7.3 25.11 12.83
12/29/2021 9:15:00 PM 3.74 38.732 0.12 7.3 21.79 12.83
12/29/2021 9:30:00 PM 3.75 38.75 0.12 7.29 19.55 12.82
12/29/2021 9:45:00 PM 3.75 38.75 0.119 7.29 21.02 12.82
12/29/2021 10:00:00 PM 3.75 38.75 0.119 7.29 20.41 12.81
12/29/2021 10:15:00 PM 3.76 38.768 0.119 7.28 19.32 12.81
12/29/2021 10:30:00 PM 3.76 38.768 0.119 7.28 18.61 12.81
12/29/2021 10:45:00 PM 3.77 38.786 0.119 7.28 18.88 12.8
12/29/2021 11:00:00 PM 3.77 38.786 0.119 7.28 18.82 12.8
12/29/2021 11:15:00 PM 3.77 38.786 0.119 7.28 19.41 12.79
12/29/2021 11:30:00 PM 3.78 38.804 0.119 7.28 18.17 12.79
12/29/2021 11:45:00 PM 3.78 38.804 0.119 7.27 18.1 12.78
12/30/2021 12:00:00 AM 3.78 38.804 0.118 7.27 18.45 12.78
12/30/2021 12:15:00 AM 3.78 38.804 0.118 7.27 17.78 12.77
12/30/2021 12:30:00 AM 3.79 38.822 0.118 7.27 17.53 12.77
12/30/2021 12:45:00 AM 3.79 38.822 0.118 7.27 16.43 12.77
12/30/2021 1:00:00 AM 3.79 38.822 0.118 7.27 16.7 12.76
12/30/2021 1:15:00 AM 3.79 38.822 0.118 7.26 16.55 12.76
12/30/2021 1:30:00 AM 3.79 38.822 0.118 7.26 16.96 12.76
12/30/2021 1:45:00 AM 3.79 38.822 0.118 7.27 15.84 12.75
12/30/2021 2:00:00 AM 3.79 38.822 0.118 7.26 16.08 12.76
12/30/2021 2:15:00 AM 3.79 38.822 0.118 7.27 15.51 12.75
12/30/2021 2:30:00 AM 3.79 38.822 0.118 7.26 15.65 12.75
12/30/2021 2:45:00 AM 3.79 38.822 0.118 7.26 15.45 12.74
12/30/2021 3:00:00 AM 3.78 38.804 0.118 7.26 15.14 12.75
12/30/2021 3:15:00 AM 3.78 38.804 0.118 7.26 14.98 12.74
12/30/2021 3:30:00 AM 3.79 38.822 0.118 7.26 15.44 12.74
12/30/2021 3:45:00 AM 3.79 38.822 0.118 7.26 14.56 12.74
12/30/2021 4:00:00 AM 3.78 38.804 0.118 7.26 14.5 12.73
12/30/2021 4:15:00 AM 3.78 38.804 0.118 7.26 14.2 12.73
12/30/2021 4:30:00 AM 3.78 38.804 0.118 7.26 14.24 12.73
12/30/2021 4:45:00 AM 3.79 38.822 0.118 7.26 14.6 12.73
12/30/2021 5:00:00 AM 3.79 38.822 0.118 7.26 14.31 12.73
12/30/2021 5:15:00 AM 3.79 38.822 0.118 7.26 13.07 12.73
12/30/2021 5:30:00 AM 3.79 38.822 0.118 7.25 13.36 12.72
12/30/2021 5:45:00 AM 3.79 38.822 0.118 7.25 14.29 12.73
12/30/2021 6:00:00 AM 3.8 38.84 0.118 7.25 13.54 12.72
12/30/2021 6:15:00 AM 3.8 38.84 0.118 7.26 13.94 12.72
12/30/2021 6:30:00 AM 3.8 38.84 0.118 7.25 14.02 12.73
12/30/2021 6:45:00 AM 3.81 38.858 0.118 7.25 13.82 12.72
12/30/2021 7:00:00 AM 3.81 38.858 0.118 7.25 13.69 12.72
12/30/2021 7:15:00 AM 3.81 38.858 0.118 7.25 12.61 12.72
12/30/2021 7:30:00 AM 3.81 38.858 0.118 7.25 13.27 12.71
12/30/2021 7:45:00 AM 3.82 38.876 0.118 7.25 12.69 12.72
12/30/2021 8:00:00 AM 3.82 38.876 0.118 7.25 12.99 12.72
12/30/2021 8:15:00 AM 3.83 38.894 0.118 7.26 12.35 12.73
12/30/2021 8:30:00 AM 3.84 38.912 0.118 7.26 12.56 12.76
12/30/2021 8:45:00 AM 3.85 38.93 0.118 7.27 12.18 12.8
12/30/2021 9:00:00 AM 3.86 38.948 0.118 7.28 12.77 12.84
12/30/2021 9:15:00 AM 3.88 38.984 0.118 7.29 12.18 12.89
12/30/2021 9:30:00 AM 3.9 39.02 0.118 7.31 12.42 12.95
12/30/2021 9:45:00 AM 3.92 39.056 0.118 7.32 12.24 13
12/30/2021 10:00:00 AM 3.94 39.092 0.118 7.34 11.77 13.06
12/30/2021 10:15:00 AM 3.97 39.146 0.118 7.35 12.47 13.11
12/30/2021 10:30:00 AM 3.99 39.182 0.118 7.36 11.9 13.16
12/30/2021 10:45:00 AM 4.03 39.254 0.118 7.38 11.59 13.21
12/30/2021 11:00:00 AM 4.06 39.308 0.118 7.39 11.81 13.25
12/30/2021 11:15:00 AM 4.09 39.362 0.118 7.41 11.32 13.26
12/30/2021 11:30:00 AM 4.13 39.434 0.118 7.42 11.9 13.3
12/30/2021 11:45:00 AM 4.16 39.488 0.117 7.43 11.73 13.31
12/30/2021 12:00:00 PM 4.19 39.542 0.117 7.44 11.85 13.31
12/30/2021 12:15:00 PM 4.21 39.578 0.117 7.44 11.7 13.32
12/30/2021 12:30:00 PM 4.23 39.614 0.117 7.45 11.5 13.29
12/30/2021 12:45:00 PM 4.26 39.668 0.117 7.45 11.34 13.3
12/30/2021 1:00:00 PM 4.29 39.722 0.117 7.46 11.59 13.3
12/30/2021 1:15:00 PM 4.32 39.776 0.117 7.46 11.49 13.28
12/30/2021 1:30:00 PM 4.36 39.848 0.117 7.47 11.19 13.29
12/30/2021 1:45:00 PM 4.39 39.902 0.117 7.48 10.92 13.31
12/30/2021 2:00:00 PM 4.42 39.956 0.117 7.48 11.23 13.29
12/30/2021 2:15:00 PM 4.46 40.028 0.117 7.49 10.86 13.31
12/30/2021 2:30:00 PM 4.49 40.082 0.117 7.49 10.44 13.3
12/30/2021 2:45:00 PM 4.5 40.1 0.117 7.48 10.94 13.24
12/30/2021 3:00:00 PM 4.52 40.136 0.117 7.47 10.48 13.19
12/30/2021 3:15:00 PM 4.54 40.172 0.117 7.46 10.77 13.13
12/30/2021 3:30:00 PM 4.55 40.19 0.117 7.45 10.58 13.06
12/30/2021 3:45:00 PM 4.55 40.19 0.117 7.43 10.22 12.99
12/30/2021 4:00:00 PM 4.56 40.208 0.117 7.41 10.4 12.91
12/30/2021 4:15:00 PM 4.55 40.19 0.117 7.38 10.24 12.82
12/30/2021 4:30:00 PM 4.55 40.19 0.117 7.36 10.51 12.74
12/30/2021 4:45:00 PM 4.54 40.172 0.117 7.34 10.17 12.68
12/30/2021 5:00:00 PM 4.54 40.172 0.117 7.33 12.26 12.62
12/30/2021 5:15:00 PM 4.54 40.172 0.117 7.31 10.53 12.57
12/30/2021 5:30:00 PM 4.54 40.172 0.118 7.3 10.76 12.54
12/30/2021 5:45:00 PM 4.54 40.172 0.118 7.29 9.77 12.52
12/30/2021 6:00:00 PM 4.54 40.172 0.117 7.28 10.13 12.49
12/30/2021 6:15:00 PM 4.54 40.172 0.118 7.28 9.76 12.48
12/30/2021 6:30:00 PM 4.54 40.172 0.118 7.27 10.15 12.46
12/30/2021 6:45:00 PM 4.54 40.172 0.118 7.27 10.39 12.45
12/30/2021 7:00:00 PM 4.54 40.172 0.118 7.27 10.57 12.45
12/30/2021 7:15:00 PM 4.54 40.172 0.118 7.26 9.86 12.45
12/30/2021 7:30:00 PM 4.55 40.19 0.118 7.26 10.57 12.44
12/30/2021 7:45:00 PM 4.55 40.19 0.118 7.26 10.37 12.43
12/30/2021 8:00:00 PM 4.55 40.19 0.118 7.26 10.62 12.44
12/30/2021 8:15:00 PM 4.54 40.172 0.118 7.26 10.6 12.43
12/30/2021 8:30:00 PM 4.54 40.172 0.118 7.26 10.5 12.42
12/30/2021 8:45:00 PM 4.53 40.154 0.118 7.26 10.07 12.43
12/30/2021 9:00:00 PM 4.53 40.154 0.118 7.25 10.1 12.42
12/30/2021 9:15:00 PM 4.53 40.154 0.118 7.25 10.37 12.42
12/30/2021 9:30:00 PM 4.53 40.154 0.118 7.25 10.19 12.42
12/30/2021 9:45:00 PM 4.52 40.136 0.118 7.25 9.92 12.42
12/30/2021 10:00:00 PM 4.51 40.118 0.118 7.25 10.25 12.42
12/30/2021 10:15:00 PM 4.49 40.082 0.118 7.25 10.06 12.43
12/30/2021 10:30:00 PM 4.48 40.064 0.118 7.25 10.44 12.43
12/30/2021 10:45:00 PM 4.47 40.046 0.118 7.25 10.53 12.43
12/30/2021 11:00:00 PM 4.47 40.046 0.118 7.25 10.48 12.43
12/30/2021 11:15:00 PM 4.47 40.046 0.118 7.25 10.33 12.43
12/30/2021 11:30:00 PM 4.48 40.064 0.118 7.25 10.44 12.43
12/30/2021 11:45:00 PM 4.48 40.064 0.118 7.25 10.56 12.44
12/31/2021 12:00:00 AM 4.48 40.064 0.118 7.25 11.09 12.43
12/31/2021 12:15:00 AM 4.48 40.064 0.118 7.25 10.6 12.43
12/31/2021 12:30:00 AM 4.48 40.064 0.118 7.25 10.68 12.43
12/31/2021 12:45:00 AM 4.48 40.064 0.118 7.25 11.11 12.44
12/31/2021 1:00:00 AM 4.48 40.064 0.118 7.25 11.16 12.44
12/31/2021 1:15:00 AM 4.48 40.064 0.119 7.25 11.68 12.44
12/31/2021 1:30:00 AM 4.49 40.082 0.119 7.25 11.55 12.44
12/31/2021 1:45:00 AM 4.49 40.082 0.119 7.25 11.76 12.44
12/31/2021 2:00:00 AM 4.49 40.082 0.119 7.25 11.42 12.44
12/31/2021 2:15:00 AM 4.48 40.064 0.119 7.25 12.7 12.44
12/31/2021 2:30:00 AM 4.48 40.064 0.119 7.25 11.74 12.44
12/31/2021 2:45:00 AM 4.48 40.064 0.119 7.25 11.45 12.44
12/31/2021 3:00:00 AM 4.48 40.064 0.119 7.25 12.16 12.44
12/31/2021 3:15:00 AM 4.48 40.064 0.119 7.25 11.53 12.43
12/31/2021 3:30:00 AM 4.48 40.064 0.119 7.25 11.21 12.43
12/31/2021 3:45:00 AM 4.48 40.064 0.119 7.25 11.47 12.44
12/31/2021 4:00:00 AM 4.48 40.064 0.12 7.25 11.6 12.43
12/31/2021 4:15:00 AM 4.48 40.064 0.12 7.25 11.84 12.42
12/31/2021 4:30:00 AM 4.48 40.064 0.12 7.25 11.09 12.43
12/31/2021 4:45:00 AM 4.48 40.064 0.12 7.25 11.62 12.43
12/31/2021 5:00:00 AM 4.49 40.082 0.12 7.25 10.92 12.43
12/31/2021 5:15:00 AM 4.49 40.082 0.12 7.25 11.29 12.43
12/31/2021 5:30:00 AM 4.49 40.082 0.12 7.25 10.94 12.42
12/31/2021 5:45:00 AM 4.5 40.1 0.12 7.25 10.71 12.42
12/31/2021 6:00:00 AM 4.5 40.1 0.12 7.25 11.16 12.41
12/31/2021 6:15:00 AM 4.5 40.1 0.12 7.25 11.38 12.42
12/31/2021 6:30:00 AM 4.5 40.1 0.12 7.24 10.6 12.41
12/31/2021 6:45:00 AM 4.5 40.1 0.12 7.24 10.64 12.41
12/31/2021 7:00:00 AM 4.5 40.1 0.12 7.24 10.29 12.41
12/31/2021 7:15:00 AM 4.5 40.1 0.12 7.24 10.73 12.4
12/31/2021 7:30:00 AM 4.5 40.1 0.12 7.25 10.86 12.41
12/31/2021 7:45:00 AM 4.5 40.1 0.12 7.25 11.11 12.42
12/31/2021 8:00:00 AM 4.5 40.1 0.12 7.25 10.73 12.44
12/31/2021 8:15:00 AM 4.51 40.118 0.12 7.26 10.69 12.5
12/31/2021 8:30:00 AM 4.52 40.136 0.12 7.28 10.52 12.58
12/31/2021 8:45:00 AM 4.53 40.154 0.12 7.29 10.61 12.65
12/31/2021 9:00:00 AM 4.54 40.172 0.12 7.3 10.43 12.7
12/31/2021 9:15:00 AM 4.56 40.208 0.12 7.32 10.91 12.76
12/31/2021 9:30:00 AM 4.6 40.28 0.12 7.34 10.35 12.88
12/31/2021 9:45:00 AM 4.66 40.388 0.12 7.37 10.15 12.98
12/31/2021 10:00:00 AM 4.72 40.496 0.12 7.39 10.27 13.06
12/31/2021 10:15:00 AM 4.77 40.586 0.12 7.42 10.45 13.12
12/31/2021 10:30:00 AM 4.82 40.676 0.119 7.44 10.32 13.17
12/31/2021 10:45:00 AM 4.89 40.802 0.119 7.46 10.51 13.21
12/31/2021 11:00:00 AM 4.97 40.946 0.119 7.48 9.93 13.24
12/31/2021 11:15:00 AM 5.05 41.09 0.119 7.51 10.29 13.26
12/31/2021 11:30:00 AM 5.17 41.306 0.119 7.53 10.13 13.28
12/31/2021 11:45:00 AM 5.36 41.648 0.119 7.56 10.1 13.29
12/31/2021 12:00:00 PM 5.52 41.936 0.119 7.58 9.78 13.27
12/31/2021 12:15:00 PM 5.68 42.224 0.119 7.59 9.8 13.24
12/31/2021 12:30:00 PM 5.84 42.512 0.119 7.62 10.01 13.22
12/31/2021 12:45:00 PM 5.97 42.746 0.119 7.63 9.99 13.2
12/31/2021 1:00:00 PM 6.1 42.98 0.118 7.64 9.72 13.18
12/31/2021 1:15:00 PM 6.24 43.232 0.118 7.66 10.34 13.17
12/31/2021 1:30:00 PM 6.38 43.484 0.118 7.67 9.89 13.12
12/31/2021 1:45:00 PM 6.46 43.628 0.119 7.68 11.37 13.09
12/31/2021 2:00:00 PM 6.48 43.664 0.118 7.66 10.94 13
12/31/2021 2:15:00 PM 6.49 43.682 0.118 7.66 9.97 12.97
12/31/2021 2:30:00 PM 6.46 43.628 0.118 7.65 10.16 12.92
12/31/2021 2:45:00 PM 6.44 43.592 0.118 7.64 10.56 12.89
12/31/2021 3:00:00 PM 6.41 43.538 0.118 7.63 10.54 12.88
12/31/2021 3:15:00 PM 6.4 43.52 0.118 7.62 10.2 12.85
12/31/2021 3:30:00 PM 6.37 43.466 0.118 7.6 10.53 12.81
12/31/2021 3:45:00 PM 6.33 43.394 0.118 7.59 11.33 12.75
12/31/2021 4:00:00 PM 6.3 43.34 0.118 7.56 11.16 12.68
12/31/2021 4:15:00 PM 6.25 43.25 0.118 7.53 10.8 12.58
12/31/2021 4:30:00 PM 6.19 43.142 0.118 7.49 11.15 12.46
12/31/2021 4:45:00 PM 6.14 43.052 0.119 7.44 11.64 12.34
12/31/2021 5:00:00 PM 6.1 42.98 0.119 7.41 10.83 12.23
12/31/2021 5:15:00 PM 6.06 42.908 0.119 7.38 9.59 12.15
12/31/2021 5:30:00 PM 6.02 42.836 0.119 7.35 10.13 12.09
12/31/2021 5:45:00 PM 5.98 42.764 0.119 7.33 10.54 12.05
12/31/2021 6:00:00 PM 5.94 42.692 0.119 7.32 10.16 12.02
12/31/2021 6:15:00 PM 5.89 42.602 0.119 7.31 9.67 12.01
12/31/2021 6:30:00 PM 5.85 42.53 0.119 7.3 9.19 12
12/31/2021 6:45:00 PM 5.81 42.458 0.119 7.29 9.58 12
12/31/2021 7:00:00 PM 5.77 42.386 0.12 7.29 10.53 12
12/31/2021 7:15:00 PM 5.74 42.332 0.12 7.28 9.48 11.99
12/31/2021 7:30:00 PM 5.71 42.278 0.12 7.28 10.63 12
12/31/2021 7:45:00 PM 5.68 42.224 0.12 7.27 9.44 11.99
12/31/2021 8:00:00 PM 5.65 42.17 0.12 7.27 9.93 12
12/31/2021 8:15:00 PM 5.62 42.116 0.12 7.27 10.41 12.01
12/31/2021 8:30:00 PM 5.57 42.026 0.12 7.27 9.63 12.01
12/31/2021 8:45:00 PM 5.53 41.954 0.12 7.26 9.66 12.02
12/31/2021 9:00:00 PM 5.5 41.9 0.12 7.26 9.53 12.03
12/31/2021 9:15:00 PM 5.48 41.864 0.12 7.26 9.86 12.04
12/31/2021 9:30:00 PM 5.44 41.792 0.12 7.26 9.68 12.04
12/31/2021 9:45:00 PM 5.41 41.738 0.12 7.26 9.73 12.05
12/31/2021 10:00:00 PM 5.4 41.72 0.12 7.26 9.9 12.05
12/31/2021 10:15:00 PM 5.39 41.702 0.12 7.25 9.97 12.06
12/31/2021 10:30:00 PM 5.39 41.702 0.12 7.26 9.63 12.06
12/31/2021 10:45:00 PM 5.38 41.684 0.12 7.25 9.22 12.06
12/31/2021 11:00:00 PM 5.37 41.666 0.12 7.25 9.69 12.06
12/31/2021 11:15:00 PM 5.37 41.666 0.12 7.25 9.12 12.06
12/31/2021 11:30:00 PM 5.36 41.648 0.12 7.25 9.2 12.06
12/31/2021 11:45:00 PM 5.36 41.648 0.12 7.25 9.37 12.05
1/1/2022 12:00:00 AM 5.35 41.63 0.12 7.25 9.09 12.05
1/1/2022 12:15:00 AM 5.35 41.63 0.12 7.25 9.47 12.05
1/1/2022 12:30:00 AM 5.36 41.648 0.12 7.25 8.93 12.05
1/1/2022 12:45:00 AM 5.37 41.666 0.12 7.25 8.93 12.05
1/1/2022 1:00:00 AM 5.38 41.684 0.12 7.25 8.71 12.03
1/1/2022 1:15:00 AM 5.39 41.702 0.12 7.25 9.18 12.03
1/1/2022 1:30:00 AM 5.4 41.72 0.12 7.25 9.09 12.03
1/1/2022 1:45:00 AM 5.41 41.738 0.12 7.25 9.03 12.02
1/1/2022 2:00:00 AM 5.42 41.756 0.12 7.25 9.1 12.01
1/1/2022 2:15:00 AM 5.44 41.792 0.12 7.25 10.29 12
1/1/2022 2:30:00 AM 5.45 41.81 0.12 7.25 10.18 12
1/1/2022 2:45:00 AM 5.47 41.846 0.12 7.25 11.24 12
1/1/2022 3:00:00 AM 5.49 41.882 0.12 7.26 9.55 11.99
1/1/2022 3:15:00 AM 5.51 41.918 0.12 7.26 9.56 11.98
1/1/2022 3:30:00 AM 5.53 41.954 0.12 7.26 9.94 11.97
1/1/2022 3:45:00 AM 5.54 41.972 0.12 7.26 9.74 11.97
1/1/2022 4:00:00 AM 5.55 41.99 0.12 7.26 9.46 11.96
1/1/2022 4:15:00 AM 5.56 42.008 0.12 7.26 8.72 11.95
1/1/2022 4:30:00 AM 5.57 42.026 0.121 7.26 9.19 11.95
1/1/2022 4:45:00 AM 5.57 42.026 0.121 7.26 8.72 11.95
1/1/2022 5:00:00 AM 5.58 42.044 0.121 7.26 8.78 11.94
1/1/2022 5:15:00 AM 5.58 42.044 0.121 7.26 8.56 11.94
1/1/2022 5:30:00 AM 5.58 42.044 0.121 7.26 8.45 11.94
1/1/2022 5:45:00 AM 5.59 42.062 0.121 7.26 8.35 11.94
1/1/2022 6:00:00 AM 5.59 42.062 0.121 7.26 8.65 11.93
1/1/2022 6:15:00 AM 5.6 42.08 0.121 7.26 8.78 11.93
1/1/2022 6:30:00 AM 5.61 42.098 0.121 7.26 8.48 11.92
1/1/2022 6:45:00 AM 5.61 42.098 0.121 7.26 8.47 11.92
1/1/2022 7:00:00 AM 5.62 42.116 0.121 7.26 8.53 11.92
1/1/2022 7:15:00 AM 5.64 42.152 0.121 7.26 8.15 11.92
1/1/2022 7:30:00 AM 5.65 42.17 0.121 7.27 8.95 11.91
1/1/2022 7:45:00 AM 5.67 42.206 0.121 7.27 8.57 11.91
1/1/2022 8:00:00 AM 5.68 42.224 0.121 7.27 8.61 11.92
1/1/2022 8:15:00 AM 5.7 42.26 0.121 7.28 8.28 11.95
1/1/2022 8:30:00 AM 5.72 42.296 0.121 7.29 8.38 12.02
1/1/2022 8:45:00 AM 5.74 42.332 0.121 7.3 8.43 12.07
1/1/2022 9:00:00 AM 5.76 42.368 0.121 7.31 8.09 12.13
1/1/2022 9:15:00 AM 5.78 42.404 0.121 7.33 7.88 12.2
1/1/2022 9:30:00 AM 5.8 42.44 0.121 7.34 8.31 12.27
1/1/2022 9:45:00 AM 5.81 42.458 0.121 7.35 8.19 12.32
1/1/2022 10:00:00 AM 5.84 42.512 0.12 7.37 8.06 12.39
1/1/2022 10:15:00 AM 5.87 42.566 0.12 7.38 8.14 12.44
1/1/2022 10:30:00 AM 5.9 42.62 0.12 7.4 8.17 12.51
1/1/2022 10:45:00 AM 5.94 42.692 0.12 7.43 8.05 12.58
1/1/2022 11:00:00 AM 5.99 42.782 0.12 7.45 8.25 12.63
1/1/2022 11:15:00 AM 6.02 42.836 0.12 7.46 8.21 12.65
1/1/2022 11:30:00 AM 6.06 42.908 0.12 7.47 8.54 12.65
1/1/2022 11:45:00 AM 6.11 42.998 0.12 7.49 8.36 12.67
1/1/2022 12:00:00 PM 6.15 43.07 0.12 7.49 8.04 12.68
1/1/2022 12:15:00 PM 6.19 43.142 0.12 7.5 7.93 12.65
1/1/2022 12:30:00 PM 6.22 43.196 0.12 7.49 7.99 12.6
1/1/2022 12:45:00 PM 6.25 43.25 0.12 7.49 7.92 12.6
1/1/2022 1:00:00 PM 6.31 43.358 0.12 7.5 8.11 12.62
1/1/2022 1:15:00 PM 6.36 43.448 0.12 7.51 8.09 12.64
1/1/2022 1:30:00 PM 6.41 43.538 0.12 7.53 8.36 12.68
1/1/2022 1:45:00 PM 6.47 43.646 0.12 7.54 8.04 12.69
1/1/2022 2:00:00 PM 6.5 43.7 0.12 7.55 7.88 12.68
1/1/2022 2:15:00 PM 6.52 43.736 0.12 7.55 7.7 12.65
1/1/2022 2:30:00 PM 6.52 43.736 0.12 7.54 7.88 12.61
1/1/2022 2:45:00 PM 6.53 43.754 0.12 7.53 7.83 12.55
1/1/2022 3:00:00 PM 6.54 43.772 0.12 7.52 7.75 12.51
1/1/2022 3:15:00 PM 6.54 43.772 0.12 7.51 8.24 12.46
1/1/2022 3:30:00 PM 6.54 43.772 0.12 7.49 7.02 12.4
1/1/2022 3:45:00 PM 6.54 43.772 0.12 7.47 7 12.33
1/1/2022 4:00:00 PM 6.54 43.772 0.12 7.45 7.14 12.26
1/1/2022 4:15:00 PM 6.53 43.754 0.12 7.42 7.56 12.16
1/1/2022 4:30:00 PM 6.52 43.736 0.12 7.4 7.51 12.07
1/1/2022 4:45:00 PM 6.51 43.718 0.12 7.37 8.2 11.98
1/1/2022 5:00:00 PM 6.49 43.682 0.12 7.34 7.93 11.9
1/1/2022 5:15:00 PM 6.48 43.664 0.12 7.33 7.68 11.84
1/1/2022 5:30:00 PM 6.47 43.646 0.12 7.31 7.9 11.79
1/1/2022 5:45:00 PM 6.46 43.628 0.12 7.29 8.03 11.75
1/1/2022 6:00:00 PM 6.45 43.61 0.12 7.28 7.52 11.73
1/1/2022 6:15:00 PM 6.44 43.592 0.12 7.28 7.24 11.71
1/1/2022 6:30:00 PM 6.43 43.574 0.12 7.27 7.14 11.7
1/1/2022 6:45:00 PM 6.42 43.556 0.12 7.27 7.08 11.69
1/1/2022 7:00:00 PM 6.42 43.556 0.12 7.26 7.13 11.68
1/1/2022 7:15:00 PM 6.41 43.538 0.12 7.25 7.07 11.67
1/1/2022 7:30:00 PM 6.4 43.52 0.12 7.25 7.12 11.68
1/1/2022 7:45:00 PM 6.4 43.52 0.12 7.25 7.14 11.67
1/1/2022 8:00:00 PM 6.4 43.52 0.12 7.25 7.17 11.66
1/1/2022 8:15:00 PM 6.39 43.502 0.12 7.25 7.2 11.67
1/1/2022 8:30:00 PM 6.39 43.502 0.12 7.25 7.05 11.66
1/1/2022 8:45:00 PM 6.38 43.484 0.12 7.24 7.1 11.66
1/1/2022 9:00:00 PM 6.37 43.466 0.12 7.24 7.16 11.65
1/1/2022 9:15:00 PM 6.37 43.466 0.12 7.24 7.01 11.66
1/1/2022 9:30:00 PM 6.37 43.466 0.12 7.24 7.16 11.66
1/1/2022 9:45:00 PM 6.37 43.466 0.12 7.24 7.02 11.65
1/1/2022 10:00:00 PM 6.37 43.466 0.121 7.25 7.07 11.64
1/1/2022 10:15:00 PM 6.37 43.466 0.121 7.25 7.07 11.65
1/1/2022 10:30:00 PM 6.37 43.466 0.121 7.26 7.12 11.65
1/1/2022 10:45:00 PM 6.36 43.448 0.121 7.26 7.46 11.64
1/1/2022 11:00:00 PM 6.35 43.43 0.121 7.27 7.22 11.65
1/1/2022 11:15:00 PM 6.33 43.394 0.121 7.27 7.14 11.65
1/1/2022 11:30:00 PM 6.32 43.376 0.121 7.27 7.12 11.65
1/1/2022 11:45:00 PM 6.3 43.34 0.121 7.27 6.9 11.65
1/2/2022 12:00:00 AM 6.28 43.304 0.121 7.27 6.99 11.66
1/2/2022 12:15:00 AM 6.26 43.268 0.121 7.27 7.14 11.67
1/2/2022 12:30:00 AM 6.24 43.232 0.12 7.27 7.36 11.67
1/2/2022 12:45:00 AM 6.22 43.196 0.12 7.27 7.35 11.68
1/2/2022 1:00:00 AM 6.2 43.16 0.12 7.27 7.46 11.69
1/2/2022 1:15:00 AM 6.18 43.124 0.12 7.27 7.31 11.69
1/2/2022 1:30:00 AM 6.16 43.088 0.12 7.27 7.4 11.69
1/2/2022 1:45:00 AM 6.14 43.052 0.12 7.27 7.49 11.7
1/2/2022 2:00:00 AM 6.11 42.998 0.12 7.27 7.66 11.71
1/2/2022 2:15:00 AM 6.09 42.962 0.12 7.27 7.55 11.72
1/2/2022 2:30:00 AM 6.07 42.926 0.12 7.27 7.82 11.72
1/2/2022 2:45:00 AM 6.04 42.872 0.121 7.27 7.7 11.73
1/2/2022 3:00:00 AM 6.02 42.836 0.121 7.27 7.41 11.74
1/2/2022 3:15:00 AM 6 42.8 0.121 7.27 7.6 11.75
1/2/2022 3:30:00 AM 5.97 42.746 0.121 7.28 7.68 11.75
1/2/2022 3:45:00 AM 5.94 42.692 0.121 7.28 7.75 11.76
1/2/2022 4:00:00 AM 5.92 42.656 0.121 7.28 7.67 11.76
1/2/2022 4:15:00 AM 5.89 42.602 0.121 7.28 7.82 11.77
1/2/2022 4:30:00 AM 5.86 42.548 0.121 7.28 7.86 11.78
1/2/2022 4:45:00 AM 5.83 42.494 0.121 7.28 8.29 11.79
1/2/2022 5:00:00 AM 5.81 42.458 0.121 7.28 7.77 11.8
1/2/2022 5:15:00 AM 5.77 42.386 0.121 7.28 8.18 11.81
1/2/2022 5:30:00 AM 5.74 42.332 0.121 7.29 8.05 11.82
1/2/2022 5:45:00 AM 5.71 42.278 0.121 7.29 7.9 11.83
1/2/2022 6:00:00 AM 5.67 42.206 0.121 7.29 8.52 11.84
1/2/2022 6:15:00 AM 5.63 42.134 0.121 7.29 8.19 11.85
1/2/2022 6:30:00 AM 5.6 42.08 0.121 7.29 8.29 11.87
1/2/2022 6:45:00 AM 5.56 42.008 0.121 7.29 8.73 11.88
1/2/2022 7:00:00 AM 5.53 41.954 0.121 7.29 8.32 11.9
1/2/2022 7:15:00 AM 5.5 41.9 0.121 7.29 8.81 11.91
1/2/2022 7:30:00 AM 5.46 41.828 0.121 7.29 8.5 11.92
1/2/2022 7:45:00 AM 5.43 41.774 0.121 7.29 8.87 11.94
1/2/2022 8:00:00 AM 5.4 41.72 0.121 7.3 8.7 11.96
1/2/2022 8:15:00 AM 5.38 41.684 0.121 7.3 8.5 12.01
1/2/2022 8:30:00 AM 5.35 41.63 0.121 7.31 8.33 12.07
1/2/2022 8:45:00 AM 5.33 41.594 0.121 7.33 8.7 12.15
1/2/2022 9:00:00 AM 5.31 41.558 0.121 7.34 8.66 12.24
1/2/2022 9:15:00 AM 5.3 41.54 0.121 7.36 8.45 12.35
1/2/2022 9:30:00 AM 5.29 41.522 0.121 7.38 8.53 12.46
1/2/2022 9:45:00 AM 5.27 41.486 0.121 7.4 8.38 12.51
1/2/2022 10:00:00 AM 5.23 41.414 0.121 7.4 8.94 12.52
1/2/2022 10:15:00 AM 5.2 41.36 0.121 7.41 8.32 12.53
1/2/2022 10:30:00 AM 5.18 41.324 0.121 7.41 8.56 12.57
1/2/2022 10:45:00 AM 5.16 41.288 0.121 7.42 8.22 12.62
1/2/2022 11:00:00 AM 5.14 41.252 0.12 7.44 8.2 12.68
1/2/2022 11:15:00 AM 5.12 41.216 0.12 7.44 8.31 12.71
1/2/2022 11:30:00 AM 5.09 41.162 0.12 7.45 8.14 12.73
1/2/2022 11:45:00 AM 5.06 41.108 0.12 7.46 8.3 12.78
1/2/2022 12:00:00 PM 5.04 41.072 0.12 7.47 8.11 12.8
1/2/2022 12:15:00 PM 5 41 0.12 7.47 8.35 12.85
1/2/2022 12:30:00 PM 5 41 0.12 7.49 7.91 12.9
1/2/2022 12:45:00 PM 4.99 40.982 0.12 7.5 8.17 12.95
1/2/2022 1:00:00 PM 4.98 40.964 0.12 7.51 7.95 12.98
1/2/2022 1:15:00 PM 4.95 40.91 0.12 7.52 8.06 13
1/2/2022 1:30:00 PM 4.92 40.856 0.12 7.52 7.74 13.01
1/2/2022 1:45:00 PM 4.89 40.802 0.12 7.52 7.91 13.02
1/2/2022 2:00:00 PM 4.88 40.784 0.12 7.52 7.97 13.03
1/2/2022 2:15:00 PM 4.84 40.712 0.12 7.52 7.87 13.01
1/2/2022 2:30:00 PM 4.82 40.676 0.12 7.52 7.77 13.02
1/2/2022 2:45:00 PM 4.8 40.64 0.12 7.51 7.85 13.02
1/2/2022 3:00:00 PM 4.75 40.55 0.12 7.51 7.93 13.01
1/2/2022 3:15:00 PM 4.69 40.442 0.12 7.49 8.01 12.94
1/2/2022 3:30:00 PM 4.64 40.352 0.12 7.46 7.65 12.87
1/2/2022 3:45:00 PM 4.58 40.244 0.12 7.44 7.78 12.8
1/2/2022 4:00:00 PM 4.53 40.154 0.12 7.41 7.85 12.73
1/2/2022 4:15:00 PM 4.48 40.064 0.12 7.39 7.86 12.68
1/2/2022 4:30:00 PM 4.43 39.974 0.12 7.37 7.59 12.63
1/2/2022 4:45:00 PM 4.39 39.902 0.12 7.35 8.06 12.59
1/2/2022 5:00:00 PM 4.34 39.812 0.12 7.34 7.57 12.58
1/2/2022 5:15:00 PM 4.3 39.74 0.12 7.33 7.64 12.57
1/2/2022 5:30:00 PM 4.25 39.65 0.121 7.32 7.53 12.56
1/2/2022 5:45:00 PM 4.21 39.578 0.121 7.31 7.35 12.56
1/2/2022 6:00:00 PM 4.16 39.488 0.121 7.31 7.44 12.57
1/2/2022 6:15:00 PM 4.11 39.398 0.121 7.3 7.73 12.57
1/2/2022 6:30:00 PM 4.06 39.308 0.121 7.3 7.45 12.58
1/2/2022 6:45:00 PM 4.02 39.236 0.121 7.3 7.66 12.59
1/2/2022 7:00:00 PM 3.98 39.164 0.121 7.29 7.52 12.6
1/2/2022 7:15:00 PM 3.95 39.11 0.121 7.29 7.45 12.61
1/2/2022 7:30:00 PM 3.92 39.056 0.121 7.29 7.55 12.63
1/2/2022 7:45:00 PM 3.89 39.002 0.121 7.29 7.92 12.64
1/2/2022 8:00:00 PM 3.86 38.948 0.121 7.29 7.48 12.64
1/2/2022 8:15:00 PM 3.82 38.876 0.121 7.28 7.26 12.66
1/2/2022 8:30:00 PM 3.78 38.804 0.121 7.28 7.39 12.68
1/2/2022 8:45:00 PM 3.73 38.714 0.121 7.28 7.47 12.69
1/2/2022 9:00:00 PM 3.7 38.66 0.121 7.28 7.43 12.7
1/2/2022 9:15:00 PM 3.67 38.606 0.121 7.28 7.53 12.71
1/2/2022 9:30:00 PM 3.64 38.552 0.121 7.28 7.47 12.73
1/2/2022 9:45:00 PM 3.6 38.48 0.121 7.28 7.41 12.74
1/2/2022 10:00:00 PM 3.55 38.39 0.121 7.28 7.41 12.76
1/2/2022 10:15:00 PM 3.52 38.336 0.121 7.28 7.44 12.77
1/2/2022 10:30:00 PM 3.48 38.264 0.121 7.28 7.47 12.78
1/2/2022 10:45:00 PM 3.44 38.192 0.121 7.28 7.03 12.8
1/2/2022 11:00:00 PM 3.4 38.12 0.121 7.28 7.23 12.82
1/2/2022 11:15:00 PM 3.36 38.048 0.121 7.28 7.3 12.83
1/2/2022 11:30:00 PM 3.31 37.958 0.122 7.27 7.08 12.85
1/2/2022 11:45:00 PM 3.28 37.904 0.122 7.27 7.09 12.86
1/3/2022 12:00:00 AM 3.25 37.85 0.122 7.27 7.13 12.87
1/3/2022 12:15:00 AM 3.21 37.778 0.122 7.27 7.06 12.89
1/3/2022 12:30:00 AM 3.17 37.706 0.122 7.27 7.06 12.9
1/3/2022 12:45:00 AM 3.13 37.634 0.122 7.26 7.4 12.92
1/3/2022 1:00:00 AM 3.07 37.526 0.122 7.26 6.84 12.94
1/3/2022 1:15:00 AM 3.02 37.436 0.122 7.26 6.9 12.95
1/3/2022 1:30:00 AM 2.96 37.328 0.122 7.25 7.03 12.98
1/3/2022 1:45:00 AM 2.93 37.274 0.122 7.25 6.8 13
1/3/2022 2:00:00 AM 2.9 37.22 0.122 7.23 7 13
1/3/2022 2:15:00 AM 2.87 37.166 0.122 7.22 6.77 13.02
1/3/2022 2:30:00 AM 2.83 37.094 0.122 7.22 6.87 13.04
1/3/2022 2:45:00 AM 2.81 37.058 0.122 7.23 6.67 13.06
1/3/2022 3:00:00 AM 2.79 37.022 0.122 7.23 6.83 13.06
1/3/2022 3:15:00 AM 2.76 36.968 0.122 7.24 6.85 13.08
1/3/2022 3:30:00 AM 2.74 36.932 0.122 7.23 6.81 13.09
1/3/2022 3:45:00 AM 2.7 36.86 0.122 7.23 6.97 13.1
1/3/2022 4:00:00 AM 2.68 36.824 0.123 7.23 6.78 13.11
1/3/2022 4:15:00 AM 2.64 36.752 0.123 7.24 7 13.13
1/3/2022 4:30:00 AM 2.6 36.68 0.123 7.24 6.76 13.14
1/3/2022 4:45:00 AM 2.57 36.626 0.123 7.24 7.03 13.15
1/3/2022 5:00:00 AM 2.54 36.572 0.123 7.24 6.69 13.17
1/3/2022 5:15:00 AM 2.5 36.5 0.123 7.24 6.66 13.18
1/3/2022 5:30:00 AM 2.45 36.41 0.123 7.23 6.54 13.2
1/3/2022 5:45:00 AM 2.41 36.338 0.123 7.24 6.73 13.21
1/3/2022 6:00:00 AM 2.37 36.266 0.123 7.24 6.6 13.23
1/3/2022 6:15:00 AM 2.34 36.212 0.123 7.24 6.58 13.25
1/3/2022 6:30:00 AM 2.31 36.158 0.123 7.24 6.63 13.26
1/3/2022 6:45:00 AM 2.26 36.068 0.123 7.23 6.67 13.28
1/3/2022 7:00:00 AM 2.22 35.996 0.123 7.24 6.5 13.29
1/3/2022 7:15:00 AM 2.17 35.906 0.123 7.24 6.78 13.32
1/3/2022 7:30:00 AM 2.14 35.852 0.123 7.23 6.74 13.33
1/3/2022 7:45:00 AM 2.1 35.78 0.123 7.23 6.49 13.36
1/3/2022 8:00:00 AM 2.08 35.744 0.124 7.23 6.65 13.38
1/3/2022 8:15:00 AM 2.06 35.708 0.124 7.24 6.57 13.42
1/3/2022 8:30:00 AM 2.04 35.672 0.123 7.25 6.91 13.49
1/3/2022 8:45:00 AM 2.03 35.654 0.124 7.26 6.64 13.56
1/3/2022 9:00:00 AM 2.02 35.636 0.124 7.28 6.69 13.63
1/3/2022 9:15:00 AM 2.01 35.618 0.123 7.3 6.76 13.74
1/3/2022 9:30:00 AM 2 35.6 0.123 7.32 6.62 13.83
1/3/2022 9:45:00 AM 2 35.6 0.123 7.33 6.54 13.92
1/3/2022 10:00:00 AM 2.01 35.618 0.123 7.35 6.5 13.99
1/3/2022 10:15:00 AM 2.01 35.618 0.123 7.37 6.44 14.06
1/3/2022 10:30:00 AM 2.03 35.654 0.123 7.39 6.46 14.12
1/3/2022 10:45:00 AM 2.05 35.69 0.123 7.4 6.63 14.16
1/3/2022 11:00:00 AM 2.07 35.726 0.123 7.42 6.68 14.2
1/3/2022 11:15:00 AM 2.11 35.798 0.123 7.43 6.77 14.22
1/3/2022 11:30:00 AM 2.13 35.834 0.123 7.44 6.51 14.24
1/3/2022 11:45:00 AM 2.15 35.87 0.123 7.45 6.4 14.26
1/3/2022 12:00:00 PM 2.18 35.924 0.123 7.46 6.82 14.27
1/3/2022 12:15:00 PM 2.22 35.996 0.123 7.47 6.31 14.27
1/3/2022 12:30:00 PM 2.25 36.05 0.123 7.47 6.33 14.27
1/3/2022 12:45:00 PM 2.26 36.068 0.123 7.48 6.35 14.26
1/3/2022 1:00:00 PM 2.29 36.122 0.123 7.48 6.32 14.26
1/3/2022 1:15:00 PM 2.31 36.158 0.123 7.48 6.39 14.25
1/3/2022 1:30:00 PM 2.32 36.176 0.123 7.49 6.4 14.25
1/3/2022 1:45:00 PM 2.32 36.176 0.123 7.49 6.38 14.25
1/3/2022 2:00:00 PM 2.34 36.212 0.123 7.49 6.35 14.23
1/3/2022 2:15:00 PM 2.34 36.212 0.123 7.49 6.22 14.24
1/3/2022 2:30:00 PM 2.35 36.23 0.123 7.49 6.29 14.22
1/3/2022 2:45:00 PM 2.36 36.248 0.123 7.49 6.26 14.21
1/3/2022 3:00:00 PM 2.34 36.212 0.123 7.49 6.34 14.19
1/3/2022 3:15:00 PM 2.3 36.14 0.123 7.48 6.47 14.18
1/3/2022 3:30:00 PM 2.25 36.05 0.123 7.48 6.43 14.16
1/3/2022 3:45:00 PM 2.2 35.96 0.123 7.47 6.23 14.15
1/3/2022 4:00:00 PM 2.14 35.852 0.123 7.46 6.38 14.13
1/3/2022 4:15:00 PM 2.08 35.744 0.123 7.46 6.31 14.12
1/3/2022 4:30:00 PM 1.98 35.564 0.123 7.44 6.38 14.08
1/3/2022 4:45:00 PM 1.89 35.402 0.123 7.42 6.4 14.01
1/3/2022 5:00:00 PM 1.78 35.204 0.124 7.38 6.46 13.95
1/3/2022 5:15:00 PM 1.66 34.988 0.124 7.34 6.77 13.9
1/3/2022 5:30:00 PM 1.56 34.808 0.124 7.31 7.55 13.85
1/3/2022 5:45:00 PM 1.48 34.664 0.124 7.29 8.55 13.81
1/3/2022 6:00:00 PM 1.4 34.52 0.124 7.27 9.47 13.79
1/3/2022 6:15:00 PM 1.34 34.412 0.124 7.26 10.91 13.79
1/3/2022 6:30:00 PM 1.26 34.268 0.125 7.24 11.24 13.8
1/3/2022 6:45:00 PM 1.21 34.178 0.125 7.23 10.73 13.8
1/3/2022 7:00:00 PM 1.15 34.07 0.125 7.22 9.49 13.82
1/3/2022 7:15:00 PM 1.1 33.98 0.125 7.22 8.98 13.84
1/3/2022 7:30:00 PM 1.05 33.89 0.125 7.22 8.24 13.85
1/3/2022 7:45:00 PM 1.02 33.836 0.125 7.21 7.39 13.86
1/3/2022 8:00:00 PM 1 33.8 0.125 7.21 7.15 13.87
1/3/2022 8:15:00 PM 0.96 33.728 0.125 7.22 6.91 13.89
1/3/2022 8:30:00 PM 0.93 33.674 0.125 7.22 6.79 13.91
1/3/2022 8:45:00 PM 0.91 33.638 0.125 7.22 6.66 13.9
1/3/2022 9:00:00 PM 0.9 33.62 0.125 7.22 6.46 13.92
1/3/2022 9:15:00 PM 0.9 33.62 0.125 7.23 6.53 13.92
1/3/2022 9:30:00 PM 0.91 33.638 0.125 7.24 6.4 13.92
1/3/2022 9:45:00 PM 0.92 33.656 0.126 7.24 6.33 13.91
1/3/2022 10:00:00 PM 0.92 33.656 0.126 7.24 6.53 13.91
1/3/2022 10:15:00 PM 0.92 33.656 0.126 7.25 6.38 13.9
1/3/2022 10:30:00 PM 0.93 33.674 0.126 7.25 6.26 13.9
1/3/2022 10:45:00 PM 0.91 33.638 0.126 7.25 6.39 13.91
1/3/2022 11:00:00 PM 0.91 33.638 0.126 7.25 6.39 13.91
1/3/2022 11:15:00 PM 0.9 33.62 0.126 7.25 6.21 13.91
1/3/2022 11:30:00 PM 0.89 33.602 0.126 7.24 6.34 13.92
1/3/2022 11:45:00 PM 0.87 33.566 0.126 7.25 6.17 13.92
1/4/2022 12:00:00 AM 0.86 33.548 0.126 7.25 6.2 13.93
1/4/2022 12:15:00 AM 0.84 33.512 0.127 7.25 6.19 13.94
1/4/2022 12:30:00 AM 0.82 33.476 0.127 7.25 6.13 13.95
1/4/2022 12:45:00 AM 0.8 33.44 0.127 7.25 6.23 13.96
1/4/2022 1:00:00 AM 0.77 33.386 0.127 7.25 6.17 13.96
1/4/2022 1:15:00 AM 0.73 33.314 0.127 7.24 6.37 13.98
1/4/2022 1:30:00 AM 0.69 33.242 0.127 7.24 6.4 14
1/4/2022 1:45:00 AM 0.65 33.17 0.127 7.24 6.2 14
1/4/2022 2:00:00 AM 0.61 33.098 0.127 7.23 6.26 14.01
1/4/2022 2:15:00 AM 0.58 33.044 0.127 7.23 6.21 14.03
1/4/2022 2:30:00 AM 0.55 32.99 0.127 7.23 6.2 14.04
1/4/2022 2:45:00 AM 0.53 32.954 0.127 7.23 6.21 14.06
1/4/2022 3:00:00 AM 0.51 32.918 0.128 7.23 6.17 14.05
1/4/2022 3:15:00 AM 0.49 32.882 0.128 7.23 6.29 14.06
1/4/2022 3:30:00 AM 0.48 32.864 0.128 7.24 6.21 14.08
1/4/2022 3:45:00 AM 0.47 32.846 0.128 7.24 6.09 14.06
1/4/2022 4:00:00 AM 0.47 32.846 0.128 7.24 6 14.08
1/4/2022 4:15:00 AM 0.47 32.846 0.128 7.24 6.06 14.05
1/4/2022 4:30:00 AM 0.49 32.882 0.128 7.24 6.19 14.05
1/4/2022 4:45:00 AM 0.5 32.9 0.129 7.25 6.07 14.04
1/4/2022 5:00:00 AM 0.53 32.954 0.129 7.24 6.18 14.03
1/4/2022 5:15:00 AM 0.56 33.008 0.129 7.25 6.04 14.02
1/4/2022 5:30:00 AM 0.59 33.062 0.129 7.25 6.05 14.01
1/4/2022 5:45:00 AM 0.63 33.134 0.129 7.25 6.03 13.99
1/4/2022 6:00:00 AM 0.66 33.188 0.13 7.25 6.04 13.97
1/4/2022 6:15:00 AM 0.69 33.242 0.13 7.25 5.94 13.97
1/4/2022 6:30:00 AM 0.72 33.296 0.13 7.25 5.97 13.97
1/4/2022 6:45:00 AM 0.75 33.35 0.13 7.25 5.94 13.94
1/4/2022 7:00:00 AM 0.77 33.386 0.13 7.25 6.07 13.94
1/4/2022 7:15:00 AM 0.78 33.404 0.13 7.26 5.88 13.93
1/4/2022 7:30:00 AM 0.78 33.404 0.131 7.25 5.88 13.95
1/4/2022 7:45:00 AM 0.78 33.404 0.131 7.26 5.88 13.94
1/4/2022 8:00:00 AM 0.79 33.422 0.131 7.26 5.89 13.97
1/4/2022 8:15:00 AM 0.8 33.44 0.131 7.27 5.96 14.03
1/4/2022 8:30:00 AM 0.8 33.44 0.13 7.28 5.84 14.1
1/4/2022 8:45:00 AM 0.81 33.458 0.13 7.3 6.05 14.19